<?xml version="1.0" encoding="UTF-8" standalone="no" ?>
<gpx xmlns="http://www.topografix.com/GPX/1/1" xmlns:xsi="http://www.w3.org/2001/XMLSchema-instance" xsi:schemaLocation="http://www.topografix.com/GPX/1/1 http://www.topografix.com/GPX/1/1/gpx.xsd" version="1.1" creator="VisuGPX - https://www.visugpx.com">
  <metadata>
    <name>Sortie VTT - La Varenne</name>
    <desc><![CDATA[Sortie VTT - La Varenne]]></desc>
  </metadata>
  <trk>
    <name><![CDATA[2013-11-17 08:42]]></name>
    <desc><![CDATA[<h1>OruxMaps</h1><br /><hr align="center" width="480" style="height: 2px; width: 517px"/><h2>Nom: 2013-11-17 08:42</h2><br /><p>Temps de départ: 11/17/2013 08:50</p><p>Temps d'arrivée: 11/17/2013 11:53</p><p>Distance: 34,7 km (03:03)</p><p>Temps déplacement: 01:50</p><p>Vitesse moyenne: 11,3 km/h</p><p>Vitesse moyenne: 18,8 km/h</p><p>Vitess Max.: 290,5 km/h</p><p>Altitude minimale: -71 m</p><p>Altitude maximale: 282 m</p><p>Vitesse d'élévation: 673,2 m/h</p><p>Vitesse de descente: -726,5 m/h</p><p>Gain Altitude: 783 m</p><p>Perte Altitude: -1054 m</p><p>Temps d'élévation: 01:09</p><p>Temps de descente: 01:27</p><hr align="center" width="480" style="height: 2px; width: 517px"/>]]></desc>
    <trkseg>
      <trkpt lat="47.31414" lon="-1.3197">
        <ele>282.86</ele>
        <time>2013-11-17T07:50:34Z</time>
      </trkpt>
      <trkpt lat="47.31425" lon="-1.31936">
        <ele>282.81</ele>
        <time>2013-11-17T07:50:37Z</time>
      </trkpt>
      <trkpt lat="47.31435" lon="-1.31909">
        <ele>282.99</ele>
        <time>2013-11-17T07:50:38Z</time>
      </trkpt>
      <trkpt lat="47.31451" lon="-1.31886">
        <ele>282.12</ele>
        <time>2013-11-17T07:50:39Z</time>
      </trkpt>
      <trkpt lat="47.31468" lon="-1.3185">
        <ele>278.93</ele>
        <time>2013-11-17T07:50:41Z</time>
      </trkpt>
      <trkpt lat="47.3148" lon="-1.3182">
        <ele>278.05</ele>
        <time>2013-11-17T07:50:43Z</time>
      </trkpt>
      <trkpt lat="47.31491" lon="-1.3179">
        <ele>278.08</ele>
        <time>2013-11-17T07:50:45Z</time>
      </trkpt>
      <trkpt lat="47.31504" lon="-1.31754">
        <ele>267.79</ele>
        <time>2013-11-17T07:50:48Z</time>
      </trkpt>
      <trkpt lat="47.31518" lon="-1.31722">
        <ele>251.15</ele>
        <time>2013-11-17T07:50:51Z</time>
      </trkpt>
      <trkpt lat="47.31529" lon="-1.317">
        <ele>241.76</ele>
        <time>2013-11-17T07:50:53Z</time>
      </trkpt>
      <trkpt lat="47.31542" lon="-1.31681">
        <ele>233.04</ele>
        <time>2013-11-17T07:50:56Z</time>
      </trkpt>
      <trkpt lat="47.31549" lon="-1.31655">
        <ele>217.03</ele>
        <time>2013-11-17T07:51:00Z</time>
      </trkpt>
      <trkpt lat="47.31567" lon="-1.31644">
        <ele>127</ele>
        <time>2013-11-17T07:51:06Z</time>
      </trkpt>
      <trkpt lat="47.31564" lon="-1.31616">
        <ele>57.85</ele>
        <time>2013-11-17T07:51:16Z</time>
      </trkpt>
      <trkpt lat="47.31562" lon="-1.31588">
        <ele>46.08</ele>
        <time>2013-11-17T07:51:21Z</time>
      </trkpt>
      <trkpt lat="47.31566" lon="-1.31561">
        <ele>41.65</ele>
        <time>2013-11-17T07:51:24Z</time>
      </trkpt>
      <trkpt lat="47.31574" lon="-1.31524">
        <ele>30.93</ele>
        <time>2013-11-17T07:51:29Z</time>
      </trkpt>
      <trkpt lat="47.31585" lon="-1.31503">
        <ele>28.68</ele>
        <time>2013-11-17T07:51:31Z</time>
      </trkpt>
      <trkpt lat="47.31604" lon="-1.31491">
        <ele>27.9</ele>
        <time>2013-11-17T07:51:35Z</time>
      </trkpt>
      <trkpt lat="47.31623" lon="-1.31482">
        <ele>26.99</ele>
        <time>2013-11-17T07:51:38Z</time>
      </trkpt>
      <trkpt lat="47.31644" lon="-1.31476">
        <ele>25.71</ele>
        <time>2013-11-17T07:51:42Z</time>
      </trkpt>
      <trkpt lat="47.31663" lon="-1.31473">
        <ele>24.49</ele>
        <time>2013-11-17T07:51:46Z</time>
      </trkpt>
      <trkpt lat="47.31682" lon="-1.31469">
        <ele>21.28</ele>
        <time>2013-11-17T07:51:50Z</time>
      </trkpt>
      <trkpt lat="47.31697" lon="-1.31449">
        <ele>8.85</ele>
        <time>2013-11-17T07:51:56Z</time>
      </trkpt>
      <trkpt lat="47.31719" lon="-1.31445">
        <ele>4.9</ele>
        <time>2013-11-17T07:52:01Z</time>
      </trkpt>
      <trkpt lat="47.31739" lon="-1.31441">
        <ele>2.25</ele>
        <time>2013-11-17T07:52:04Z</time>
      </trkpt>
      <trkpt lat="47.31757" lon="-1.31446">
        <ele>-0.39</ele>
        <time>2013-11-17T07:52:07Z</time>
      </trkpt>
      <trkpt lat="47.31776" lon="-1.31455">
        <ele>-3.82</ele>
        <time>2013-11-17T07:52:11Z</time>
      </trkpt>
      <trkpt lat="47.31795" lon="-1.31457">
        <ele>-8.28</ele>
        <time>2013-11-17T07:52:16Z</time>
      </trkpt>
      <trkpt lat="47.31816" lon="-1.31469">
        <ele>-12.55</ele>
        <time>2013-11-17T07:52:20Z</time>
      </trkpt>
      <trkpt lat="47.31837" lon="-1.31481">
        <ele>-16.22</ele>
        <time>2013-11-17T07:52:24Z</time>
      </trkpt>
      <trkpt lat="47.31857" lon="-1.31492">
        <ele>-19.27</ele>
        <time>2013-11-17T07:52:28Z</time>
      </trkpt>
      <trkpt lat="47.31875" lon="-1.31501">
        <ele>-22.85</ele>
        <time>2013-11-17T07:52:33Z</time>
      </trkpt>
      <trkpt lat="47.31891" lon="-1.31487">
        <ele>-34.61</ele>
        <time>2013-11-17T07:52:45Z</time>
      </trkpt>
      <trkpt lat="47.319" lon="-1.31461">
        <ele>-39.62</ele>
        <time>2013-11-17T07:52:50Z</time>
      </trkpt>
      <trkpt lat="47.31908" lon="-1.31432">
        <ele>-42.51</ele>
        <time>2013-11-17T07:52:55Z</time>
      </trkpt>
      <trkpt lat="47.31918" lon="-1.31409">
        <ele>-44.22</ele>
        <time>2013-11-17T07:52:59Z</time>
      </trkpt>
      <trkpt lat="47.31928" lon="-1.3138">
        <ele>-46.3</ele>
        <time>2013-11-17T07:53:04Z</time>
      </trkpt>
      <trkpt lat="47.31939" lon="-1.31353">
        <ele>-47.94</ele>
        <time>2013-11-17T07:53:09Z</time>
      </trkpt>
      <trkpt lat="47.31952" lon="-1.31327">
        <ele>-49.3</ele>
        <time>2013-11-17T07:53:14Z</time>
      </trkpt>
      <trkpt lat="47.31963" lon="-1.31304">
        <ele>-51.54</ele>
        <time>2013-11-17T07:53:23Z</time>
      </trkpt>
      <trkpt lat="47.31977" lon="-1.31271">
        <ele>-52.81</ele>
        <time>2013-11-17T07:53:27Z</time>
      </trkpt>
      <trkpt lat="47.31989" lon="-1.31245">
        <ele>-54.18</ele>
        <time>2013-11-17T07:53:30Z</time>
      </trkpt>
      <trkpt lat="47.31997" lon="-1.31218">
        <ele>-54.66</ele>
        <time>2013-11-17T07:53:34Z</time>
      </trkpt>
      <trkpt lat="47.32003" lon="-1.31191">
        <ele>-55.1</ele>
        <time>2013-11-17T07:53:38Z</time>
      </trkpt>
      <trkpt lat="47.32009" lon="-1.31163">
        <ele>-55.87</ele>
        <time>2013-11-17T07:53:42Z</time>
      </trkpt>
      <trkpt lat="47.32017" lon="-1.31131">
        <ele>-55.91</ele>
        <time>2013-11-17T07:53:46Z</time>
      </trkpt>
      <trkpt lat="47.32028" lon="-1.311">
        <ele>-56.58</ele>
        <time>2013-11-17T07:53:50Z</time>
      </trkpt>
      <trkpt lat="47.32041" lon="-1.31071">
        <ele>-57.25</ele>
        <time>2013-11-17T07:53:54Z</time>
      </trkpt>
      <trkpt lat="47.32051" lon="-1.31046">
        <ele>-57.98</ele>
        <time>2013-11-17T07:53:57Z</time>
      </trkpt>
      <trkpt lat="47.3206" lon="-1.3102">
        <ele>-58.63</ele>
        <time>2013-11-17T07:54:01Z</time>
      </trkpt>
      <trkpt lat="47.32069" lon="-1.30995">
        <ele>-59.37</ele>
        <time>2013-11-17T07:54:04Z</time>
      </trkpt>
      <trkpt lat="47.32079" lon="-1.30965">
        <ele>-59.69</ele>
        <time>2013-11-17T07:54:08Z</time>
      </trkpt>
      <trkpt lat="47.32088" lon="-1.30935">
        <ele>-59.81</ele>
        <time>2013-11-17T07:54:12Z</time>
      </trkpt>
      <trkpt lat="47.32096" lon="-1.30907">
        <ele>-60.46</ele>
        <time>2013-11-17T07:54:16Z</time>
      </trkpt>
      <trkpt lat="47.32103" lon="-1.3088">
        <ele>-60.07</ele>
        <time>2013-11-17T07:54:20Z</time>
      </trkpt>
      <trkpt lat="47.32109" lon="-1.30852">
        <ele>-59.2</ele>
        <time>2013-11-17T07:54:24Z</time>
      </trkpt>
      <trkpt lat="47.32116" lon="-1.30819">
        <ele>-58.27</ele>
        <time>2013-11-17T07:54:28Z</time>
      </trkpt>
      <trkpt lat="47.32124" lon="-1.30793">
        <ele>-57.82</ele>
        <time>2013-11-17T07:54:31Z</time>
      </trkpt>
      <trkpt lat="47.32129" lon="-1.30765">
        <ele>-56.18</ele>
        <time>2013-11-17T07:54:37Z</time>
      </trkpt>
      <trkpt lat="47.32135" lon="-1.30738">
        <ele>-54.85</ele>
        <time>2013-11-17T07:54:41Z</time>
      </trkpt>
      <trkpt lat="47.32142" lon="-1.30713">
        <ele>-54.75</ele>
        <time>2013-11-17T07:54:44Z</time>
      </trkpt>
      <trkpt lat="47.32159" lon="-1.30694">
        <ele>-54.58</ele>
        <time>2013-11-17T07:54:48Z</time>
      </trkpt>
      <trkpt lat="47.32178" lon="-1.30683">
        <ele>-54.37</ele>
        <time>2013-11-17T07:54:52Z</time>
      </trkpt>
      <trkpt lat="47.32199" lon="-1.30667">
        <ele>-54.12</ele>
        <time>2013-11-17T07:54:56Z</time>
      </trkpt>
      <trkpt lat="47.32219" lon="-1.30635">
        <ele>-55.01</ele>
        <time>2013-11-17T07:54:58Z</time>
      </trkpt>
      <trkpt lat="47.32235" lon="-1.30615">
        <ele>-56.07</ele>
        <time>2013-11-17T07:55:01Z</time>
      </trkpt>
      <trkpt lat="47.32248" lon="-1.30595">
        <ele>-56.35</ele>
        <time>2013-11-17T07:55:04Z</time>
      </trkpt>
      <trkpt lat="47.32263" lon="-1.30566">
        <ele>-55.93</ele>
        <time>2013-11-17T07:55:08Z</time>
      </trkpt>
      <trkpt lat="47.32274" lon="-1.30544">
        <ele>-55.77</ele>
        <time>2013-11-17T07:55:12Z</time>
      </trkpt>
      <trkpt lat="47.32291" lon="-1.3053">
        <ele>-54.22</ele>
        <time>2013-11-17T07:55:25Z</time>
      </trkpt>
      <trkpt lat="47.32296" lon="-1.30557">
        <ele>-53.9</ele>
        <time>2013-11-17T07:55:49Z</time>
      </trkpt>
      <trkpt lat="47.32278" lon="-1.30565">
        <ele>-52.69</ele>
        <time>2013-11-17T07:56:02Z</time>
      </trkpt>
      <trkpt lat="47.32258" lon="-1.30565">
        <ele>-52.53</ele>
        <time>2013-11-17T07:56:04Z</time>
      </trkpt>
      <trkpt lat="47.3224" lon="-1.30567">
        <ele>-51.3</ele>
        <time>2013-11-17T07:56:07Z</time>
      </trkpt>
      <trkpt lat="47.32217" lon="-1.30566">
        <ele>-50.85</ele>
        <time>2013-11-17T07:56:10Z</time>
      </trkpt>
      <trkpt lat="47.32197" lon="-1.30566">
        <ele>-48.66</ele>
        <time>2013-11-17T07:56:21Z</time>
      </trkpt>
      <trkpt lat="47.3218" lon="-1.30554">
        <ele>-45.82</ele>
        <time>2013-11-17T07:56:28Z</time>
      </trkpt>
      <trkpt lat="47.32165" lon="-1.30535">
        <ele>-43.22</ele>
        <time>2013-11-17T07:56:35Z</time>
      </trkpt>
      <trkpt lat="47.32151" lon="-1.30516">
        <ele>-39.29</ele>
        <time>2013-11-17T07:56:43Z</time>
      </trkpt>
      <trkpt lat="47.32136" lon="-1.30495">
        <ele>-36.4</ele>
        <time>2013-11-17T07:56:49Z</time>
      </trkpt>
      <trkpt lat="47.3212" lon="-1.30479">
        <ele>-33.68</ele>
        <time>2013-11-17T07:56:54Z</time>
      </trkpt>
      <trkpt lat="47.32103" lon="-1.30465">
        <ele>-30.8</ele>
        <time>2013-11-17T07:57:01Z</time>
      </trkpt>
      <trkpt lat="47.32084" lon="-1.30457">
        <ele>-28.94</ele>
        <time>2013-11-17T07:57:05Z</time>
      </trkpt>
      <trkpt lat="47.32069" lon="-1.30444">
        <ele>-27.88</ele>
        <time>2013-11-17T07:57:09Z</time>
      </trkpt>
      <trkpt lat="47.32051" lon="-1.30436">
        <ele>-26.45</ele>
        <time>2013-11-17T07:57:18Z</time>
      </trkpt>
      <trkpt lat="47.32032" lon="-1.30432">
        <ele>-23.67</ele>
        <time>2013-11-17T07:57:28Z</time>
      </trkpt>
      <trkpt lat="47.32016" lon="-1.30416">
        <ele>-22.4</ele>
        <time>2013-11-17T07:57:36Z</time>
      </trkpt>
      <trkpt lat="47.32" lon="-1.30402">
        <ele>-20.87</ele>
        <time>2013-11-17T07:57:42Z</time>
      </trkpt>
      <trkpt lat="47.31981" lon="-1.30389">
        <ele>-18.72</ele>
        <time>2013-11-17T07:57:48Z</time>
      </trkpt>
      <trkpt lat="47.31962" lon="-1.30378">
        <ele>-16.8</ele>
        <time>2013-11-17T07:57:54Z</time>
      </trkpt>
      <trkpt lat="47.31944" lon="-1.30371">
        <ele>-17</ele>
        <time>2013-11-17T07:58:00Z</time>
      </trkpt>
      <trkpt lat="47.31923" lon="-1.30361">
        <ele>-15.52</ele>
        <time>2013-11-17T07:58:07Z</time>
      </trkpt>
      <trkpt lat="47.31904" lon="-1.30351">
        <ele>-14.53</ele>
        <time>2013-11-17T07:58:15Z</time>
      </trkpt>
      <trkpt lat="47.31883" lon="-1.3035">
        <ele>-14.43</ele>
        <time>2013-11-17T07:58:20Z</time>
      </trkpt>
      <trkpt lat="47.31865" lon="-1.30346">
        <ele>-14.48</ele>
        <time>2013-11-17T07:58:25Z</time>
      </trkpt>
      <trkpt lat="47.31845" lon="-1.30344">
        <ele>-15.44</ele>
        <time>2013-11-17T07:58:29Z</time>
      </trkpt>
      <trkpt lat="47.31826" lon="-1.3034">
        <ele>-15.34</ele>
        <time>2013-11-17T07:58:34Z</time>
      </trkpt>
      <trkpt lat="47.31806" lon="-1.30334">
        <ele>-14.53</ele>
        <time>2013-11-17T07:58:39Z</time>
      </trkpt>
      <trkpt lat="47.31788" lon="-1.30329">
        <ele>-12.66</ele>
        <time>2013-11-17T07:58:44Z</time>
      </trkpt>
      <trkpt lat="47.31768" lon="-1.30323">
        <ele>-11.19</ele>
        <time>2013-11-17T07:58:51Z</time>
      </trkpt>
      <trkpt lat="47.31748" lon="-1.30318">
        <ele>-9.4</ele>
        <time>2013-11-17T07:58:55Z</time>
      </trkpt>
      <trkpt lat="47.31728" lon="-1.30315">
        <ele>-5.32</ele>
        <time>2013-11-17T07:59:01Z</time>
      </trkpt>
      <trkpt lat="47.31706" lon="-1.30305">
        <ele>-1.42</ele>
        <time>2013-11-17T07:59:07Z</time>
      </trkpt>
      <trkpt lat="47.31685" lon="-1.30296">
        <ele>0.7</ele>
        <time>2013-11-17T07:59:11Z</time>
      </trkpt>
      <trkpt lat="47.31663" lon="-1.30284">
        <ele>4.96</ele>
        <time>2013-11-17T07:59:18Z</time>
      </trkpt>
      <trkpt lat="47.31645" lon="-1.30272">
        <ele>7.41</ele>
        <time>2013-11-17T07:59:23Z</time>
      </trkpt>
      <trkpt lat="47.31623" lon="-1.30265">
        <ele>10.68</ele>
        <time>2013-11-17T07:59:31Z</time>
      </trkpt>
      <trkpt lat="47.3161" lon="-1.30242">
        <ele>15.44</ele>
        <time>2013-11-17T07:59:42Z</time>
      </trkpt>
      <trkpt lat="47.31603" lon="-1.30212">
        <ele>19.37</ele>
        <time>2013-11-17T07:59:48Z</time>
      </trkpt>
      <trkpt lat="47.31594" lon="-1.30184">
        <ele>23.86</ele>
        <time>2013-11-17T07:59:54Z</time>
      </trkpt>
      <trkpt lat="47.31597" lon="-1.30156">
        <ele>26.67</ele>
        <time>2013-11-17T07:59:59Z</time>
      </trkpt>
      <trkpt lat="47.31539" lon="-1.30124">
        <ele>28</ele>
        <time>2013-11-17T08:00:03Z</time>
      </trkpt>
      <trkpt lat="47.31532" lon="-1.30097">
        <ele>28.76</ele>
        <time>2013-11-17T08:00:07Z</time>
      </trkpt>
      <trkpt lat="47.31543" lon="-1.30065">
        <ele>31.16</ele>
        <time>2013-11-17T08:00:22Z</time>
      </trkpt>
      <trkpt lat="47.31552" lon="-1.30041">
        <ele>26.62</ele>
        <time>2013-11-17T08:00:27Z</time>
      </trkpt>
      <trkpt lat="47.31568" lon="-1.30027">
        <ele>4.69</ele>
        <time>2013-11-17T08:04:33Z</time>
      </trkpt>
      <trkpt lat="47.31584" lon="-1.30014">
        <ele>4.34</ele>
        <time>2013-11-17T08:04:37Z</time>
      </trkpt>
      <trkpt lat="47.31604" lon="-1.3">
        <ele>4.5</ele>
        <time>2013-11-17T08:04:41Z</time>
      </trkpt>
      <trkpt lat="47.3162" lon="-1.29987">
        <ele>4.67</ele>
        <time>2013-11-17T08:04:44Z</time>
      </trkpt>
      <trkpt lat="47.31638" lon="-1.29973">
        <ele>4.88</ele>
        <time>2013-11-17T08:04:47Z</time>
      </trkpt>
      <trkpt lat="47.31657" lon="-1.29958">
        <ele>5.14</ele>
        <time>2013-11-17T08:04:50Z</time>
      </trkpt>
      <trkpt lat="47.31674" lon="-1.29941">
        <ele>5.46</ele>
        <time>2013-11-17T08:04:53Z</time>
      </trkpt>
      <trkpt lat="47.31689" lon="-1.29924">
        <ele>5.91</ele>
        <time>2013-11-17T08:04:56Z</time>
      </trkpt>
      <trkpt lat="47.31708" lon="-1.2991">
        <ele>6.76</ele>
        <time>2013-11-17T08:05:00Z</time>
      </trkpt>
      <trkpt lat="47.31721" lon="-1.29889">
        <ele>6.92</ele>
        <time>2013-11-17T08:05:04Z</time>
      </trkpt>
      <trkpt lat="47.31731" lon="-1.29863">
        <ele>6.7</ele>
        <time>2013-11-17T08:05:09Z</time>
      </trkpt>
      <trkpt lat="47.31737" lon="-1.29835">
        <ele>5.74</ele>
        <time>2013-11-17T08:05:14Z</time>
      </trkpt>
      <trkpt lat="47.3174" lon="-1.29807">
        <ele>5.66</ele>
        <time>2013-11-17T08:05:20Z</time>
      </trkpt>
      <trkpt lat="47.31745" lon="-1.29776">
        <ele>5.75</ele>
        <time>2013-11-17T08:05:25Z</time>
      </trkpt>
      <trkpt lat="47.3175" lon="-1.29751">
        <ele>5.8</ele>
        <time>2013-11-17T08:05:29Z</time>
      </trkpt>
      <trkpt lat="47.31755" lon="-1.29723">
        <ele>6.17</ele>
        <time>2013-11-17T08:05:34Z</time>
      </trkpt>
      <trkpt lat="47.31763" lon="-1.29693">
        <ele>6.31</ele>
        <time>2013-11-17T08:05:40Z</time>
      </trkpt>
      <trkpt lat="47.31769" lon="-1.29668">
        <ele>5.71</ele>
        <time>2013-11-17T08:05:45Z</time>
      </trkpt>
      <trkpt lat="47.31776" lon="-1.2964">
        <ele>5.26</ele>
        <time>2013-11-17T08:05:50Z</time>
      </trkpt>
      <trkpt lat="47.31786" lon="-1.29617">
        <ele>5.55</ele>
        <time>2013-11-17T08:05:57Z</time>
      </trkpt>
      <trkpt lat="47.31799" lon="-1.29594">
        <ele>5.96</ele>
        <time>2013-11-17T08:06:03Z</time>
      </trkpt>
      <trkpt lat="47.3181" lon="-1.29568">
        <ele>5.88</ele>
        <time>2013-11-17T08:06:07Z</time>
      </trkpt>
      <trkpt lat="47.31819" lon="-1.29545">
        <ele>4.75</ele>
        <time>2013-11-17T08:06:10Z</time>
      </trkpt>
      <trkpt lat="47.31831" lon="-1.29518">
        <ele>3.44</ele>
        <time>2013-11-17T08:06:14Z</time>
      </trkpt>
      <trkpt lat="47.31842" lon="-1.29493">
        <ele>2.22</ele>
        <time>2013-11-17T08:06:18Z</time>
      </trkpt>
      <trkpt lat="47.31854" lon="-1.29467">
        <ele>1.07</ele>
        <time>2013-11-17T08:06:22Z</time>
      </trkpt>
      <trkpt lat="47.31864" lon="-1.29442">
        <ele>1.01</ele>
        <time>2013-11-17T08:06:26Z</time>
      </trkpt>
      <trkpt lat="47.31874" lon="-1.29417">
        <ele>1.18</ele>
        <time>2013-11-17T08:06:30Z</time>
      </trkpt>
      <trkpt lat="47.31883" lon="-1.29393">
        <ele>2.09</ele>
        <time>2013-11-17T08:06:34Z</time>
      </trkpt>
      <trkpt lat="47.31892" lon="-1.29365">
        <ele>2.24</ele>
        <time>2013-11-17T08:06:39Z</time>
      </trkpt>
      <trkpt lat="47.31897" lon="-1.29333">
        <ele>2.75</ele>
        <time>2013-11-17T08:06:44Z</time>
      </trkpt>
      <trkpt lat="47.31901" lon="-1.29305">
        <ele>2.02</ele>
        <time>2013-11-17T08:06:48Z</time>
      </trkpt>
      <trkpt lat="47.31909" lon="-1.29276">
        <ele>0.68</ele>
        <time>2013-11-17T08:06:52Z</time>
      </trkpt>
      <trkpt lat="47.31917" lon="-1.2925">
        <ele>0.53</ele>
        <time>2013-11-17T08:06:56Z</time>
      </trkpt>
      <trkpt lat="47.31923" lon="-1.29224">
        <ele>-0.1</ele>
        <time>2013-11-17T08:07:00Z</time>
      </trkpt>
      <trkpt lat="47.31928" lon="-1.29198">
        <ele>0.06</ele>
        <time>2013-11-17T08:07:04Z</time>
      </trkpt>
      <trkpt lat="47.31931" lon="-1.29171">
        <ele>61.3</ele>
        <time>2013-11-17T08:07:08Z</time>
      </trkpt>
      <trkpt lat="47.3193" lon="-1.2914">
        <ele>-0.14</ele>
        <time>2013-11-17T08:07:13Z</time>
      </trkpt>
      <trkpt lat="47.31933" lon="-1.29114">
        <ele>0.4</ele>
        <time>2013-11-17T08:07:18Z</time>
      </trkpt>
      <trkpt lat="47.3194" lon="-1.29085">
        <ele>1</ele>
        <time>2013-11-17T08:07:23Z</time>
      </trkpt>
      <trkpt lat="47.31949" lon="-1.29056">
        <ele>1.57</ele>
        <time>2013-11-17T08:07:29Z</time>
      </trkpt>
      <trkpt lat="47.31959" lon="-1.29031">
        <ele>2.46</ele>
        <time>2013-11-17T08:07:35Z</time>
      </trkpt>
      <trkpt lat="47.31969" lon="-1.29004">
        <ele>2.85</ele>
        <time>2013-11-17T08:07:41Z</time>
      </trkpt>
      <trkpt lat="47.3198" lon="-1.28983">
        <ele>2.32</ele>
        <time>2013-11-17T08:07:46Z</time>
      </trkpt>
      <trkpt lat="47.31996" lon="-1.28964">
        <ele>3.63</ele>
        <time>2013-11-17T08:07:53Z</time>
      </trkpt>
      <trkpt lat="47.32013" lon="-1.28945">
        <ele>5.79</ele>
        <time>2013-11-17T08:07:59Z</time>
      </trkpt>
      <trkpt lat="47.3203" lon="-1.2893">
        <ele>7.05</ele>
        <time>2013-11-17T08:08:05Z</time>
      </trkpt>
      <trkpt lat="47.32043" lon="-1.28909">
        <ele>8.61</ele>
        <time>2013-11-17T08:09:52Z</time>
      </trkpt>
      <trkpt lat="47.32039" lon="-1.28878">
        <ele>9.37</ele>
        <time>2013-11-17T08:09:57Z</time>
      </trkpt>
      <trkpt lat="47.32033" lon="-1.2885">
        <ele>10.39</ele>
        <time>2013-11-17T08:10:02Z</time>
      </trkpt>
      <trkpt lat="47.32028" lon="-1.2882">
        <ele>11.82</ele>
        <time>2013-11-17T08:10:08Z</time>
      </trkpt>
      <trkpt lat="47.32021" lon="-1.28793">
        <ele>13.71</ele>
        <time>2013-11-17T08:10:13Z</time>
      </trkpt>
      <trkpt lat="47.3201" lon="-1.28766">
        <ele>15.57</ele>
        <time>2013-11-17T08:10:18Z</time>
      </trkpt>
      <trkpt lat="47.31998" lon="-1.2874">
        <ele>17.12</ele>
        <time>2013-11-17T08:10:23Z</time>
      </trkpt>
      <trkpt lat="47.31988" lon="-1.28713">
        <ele>18.04</ele>
        <time>2013-11-17T08:10:28Z</time>
      </trkpt>
      <trkpt lat="47.3198" lon="-1.28684">
        <ele>19.11</ele>
        <time>2013-11-17T08:10:33Z</time>
      </trkpt>
      <trkpt lat="47.31973" lon="-1.28655">
        <ele>19.91</ele>
        <time>2013-11-17T08:10:38Z</time>
      </trkpt>
      <trkpt lat="47.31967" lon="-1.28625">
        <ele>21.01</ele>
        <time>2013-11-17T08:10:43Z</time>
      </trkpt>
      <trkpt lat="47.31961" lon="-1.28595">
        <ele>21.75</ele>
        <time>2013-11-17T08:10:48Z</time>
      </trkpt>
      <trkpt lat="47.31957" lon="-1.28569">
        <ele>21.75</ele>
        <time>2013-11-17T08:10:52Z</time>
      </trkpt>
      <trkpt lat="47.31953" lon="-1.28537">
        <ele>20.37</ele>
        <time>2013-11-17T08:10:57Z</time>
      </trkpt>
      <trkpt lat="47.31948" lon="-1.28506">
        <ele>19.42</ele>
        <time>2013-11-17T08:11:02Z</time>
      </trkpt>
      <trkpt lat="47.31943" lon="-1.28477">
        <ele>17.62</ele>
        <time>2013-11-17T08:11:07Z</time>
      </trkpt>
      <trkpt lat="47.3194" lon="-1.2845">
        <ele>16.39</ele>
        <time>2013-11-17T08:11:12Z</time>
      </trkpt>
      <trkpt lat="47.31946" lon="-1.28423">
        <ele>15.56</ele>
        <time>2013-11-17T08:11:17Z</time>
      </trkpt>
      <trkpt lat="47.31949" lon="-1.28397">
        <ele>15.09</ele>
        <time>2013-11-17T08:11:22Z</time>
      </trkpt>
      <trkpt lat="47.31927" lon="-1.28401">
        <ele>15.04</ele>
        <time>2013-11-17T08:11:30Z</time>
      </trkpt>
      <trkpt lat="47.31909" lon="-1.28403">
        <ele>14.6</ele>
        <time>2013-11-17T08:11:33Z</time>
      </trkpt>
      <trkpt lat="47.31885" lon="-1.28405">
        <ele>14.46</ele>
        <time>2013-11-17T08:11:37Z</time>
      </trkpt>
      <trkpt lat="47.31864" lon="-1.28406">
        <ele>14.74</ele>
        <time>2013-11-17T08:11:40Z</time>
      </trkpt>
      <trkpt lat="47.31844" lon="-1.2841">
        <ele>15.1</ele>
        <time>2013-11-17T08:11:43Z</time>
      </trkpt>
      <trkpt lat="47.31825" lon="-1.28415">
        <ele>15.53</ele>
        <time>2013-11-17T08:11:46Z</time>
      </trkpt>
      <trkpt lat="47.31806" lon="-1.28422">
        <ele>15.83</ele>
        <time>2013-11-17T08:11:49Z</time>
      </trkpt>
      <trkpt lat="47.31787" lon="-1.28426">
        <ele>15.95</ele>
        <time>2013-11-17T08:11:51Z</time>
      </trkpt>
      <trkpt lat="47.31766" lon="-1.28434">
        <ele>16.09</ele>
        <time>2013-11-17T08:11:54Z</time>
      </trkpt>
      <trkpt lat="47.31744" lon="-1.28445">
        <ele>16.19</ele>
        <time>2013-11-17T08:11:57Z</time>
      </trkpt>
      <trkpt lat="47.31724" lon="-1.28456">
        <ele>16.2</ele>
        <time>2013-11-17T08:12:00Z</time>
      </trkpt>
      <trkpt lat="47.31704" lon="-1.28465">
        <ele>15.99</ele>
        <time>2013-11-17T08:12:03Z</time>
      </trkpt>
      <trkpt lat="47.31684" lon="-1.28474">
        <ele>16.68</ele>
        <time>2013-11-17T08:12:06Z</time>
      </trkpt>
      <trkpt lat="47.31665" lon="-1.28484">
        <ele>16.75</ele>
        <time>2013-11-17T08:12:09Z</time>
      </trkpt>
      <trkpt lat="47.31645" lon="-1.28492">
        <ele>16.35</ele>
        <time>2013-11-17T08:12:12Z</time>
      </trkpt>
      <trkpt lat="47.31625" lon="-1.285">
        <ele>16.41</ele>
        <time>2013-11-17T08:12:15Z</time>
      </trkpt>
      <trkpt lat="47.31604" lon="-1.28507">
        <ele>16.42</ele>
        <time>2013-11-17T08:12:18Z</time>
      </trkpt>
      <trkpt lat="47.31582" lon="-1.28517">
        <ele>16.38</ele>
        <time>2013-11-17T08:12:21Z</time>
      </trkpt>
      <trkpt lat="47.31562" lon="-1.28525">
        <ele>16.76</ele>
        <time>2013-11-17T08:12:24Z</time>
      </trkpt>
      <trkpt lat="47.3154" lon="-1.28535">
        <ele>17.51</ele>
        <time>2013-11-17T08:12:27Z</time>
      </trkpt>
      <trkpt lat="47.31517" lon="-1.28547">
        <ele>17.24</ele>
        <time>2013-11-17T08:12:30Z</time>
      </trkpt>
      <trkpt lat="47.31493" lon="-1.2856">
        <ele>16.96</ele>
        <time>2013-11-17T08:12:33Z</time>
      </trkpt>
      <trkpt lat="47.31471" lon="-1.28572">
        <ele>17.07</ele>
        <time>2013-11-17T08:12:36Z</time>
      </trkpt>
      <trkpt lat="47.31448" lon="-1.28582">
        <ele>17.33</ele>
        <time>2013-11-17T08:12:39Z</time>
      </trkpt>
      <trkpt lat="47.31427" lon="-1.28593">
        <ele>17.72</ele>
        <time>2013-11-17T08:12:42Z</time>
      </trkpt>
      <trkpt lat="47.31404" lon="-1.28604">
        <ele>18.02</ele>
        <time>2013-11-17T08:12:45Z</time>
      </trkpt>
      <trkpt lat="47.3138" lon="-1.28613">
        <ele>17.88</ele>
        <time>2013-11-17T08:12:48Z</time>
      </trkpt>
      <trkpt lat="47.31354" lon="-1.28625">
        <ele>17.35</ele>
        <time>2013-11-17T08:12:51Z</time>
      </trkpt>
      <trkpt lat="47.31336" lon="-1.28633">
        <ele>17.06</ele>
        <time>2013-11-17T08:12:53Z</time>
      </trkpt>
      <trkpt lat="47.31318" lon="-1.28641">
        <ele>16.51</ele>
        <time>2013-11-17T08:12:55Z</time>
      </trkpt>
      <trkpt lat="47.31293" lon="-1.28654">
        <ele>15.37</ele>
        <time>2013-11-17T08:12:58Z</time>
      </trkpt>
      <trkpt lat="47.31275" lon="-1.2866">
        <ele>14.74</ele>
        <time>2013-11-17T08:13:00Z</time>
      </trkpt>
      <trkpt lat="47.3125" lon="-1.28672">
        <ele>13.75</ele>
        <time>2013-11-17T08:13:03Z</time>
      </trkpt>
      <trkpt lat="47.31224" lon="-1.28683">
        <ele>12.89</ele>
        <time>2013-11-17T08:13:06Z</time>
      </trkpt>
      <trkpt lat="47.31206" lon="-1.28691">
        <ele>12.47</ele>
        <time>2013-11-17T08:13:08Z</time>
      </trkpt>
      <trkpt lat="47.3118" lon="-1.28703">
        <ele>11.83</ele>
        <time>2013-11-17T08:13:11Z</time>
      </trkpt>
      <trkpt lat="47.31154" lon="-1.28715">
        <ele>10.68</ele>
        <time>2013-11-17T08:13:14Z</time>
      </trkpt>
      <trkpt lat="47.31137" lon="-1.28723">
        <ele>10.02</ele>
        <time>2013-11-17T08:13:16Z</time>
      </trkpt>
      <trkpt lat="47.31112" lon="-1.28734">
        <ele>8.81</ele>
        <time>2013-11-17T08:13:19Z</time>
      </trkpt>
      <trkpt lat="47.31093" lon="-1.28738">
        <ele>7.11</ele>
        <time>2013-11-17T08:13:22Z</time>
      </trkpt>
      <trkpt lat="47.31077" lon="-1.28727">
        <ele>6.87</ele>
        <time>2013-11-17T08:13:24Z</time>
      </trkpt>
      <trkpt lat="47.3106" lon="-1.28703">
        <ele>7.16</ele>
        <time>2013-11-17T08:13:27Z</time>
      </trkpt>
      <trkpt lat="47.31046" lon="-1.28681">
        <ele>7.25</ele>
        <time>2013-11-17T08:13:30Z</time>
      </trkpt>
      <trkpt lat="47.31031" lon="-1.28659">
        <ele>6.76</ele>
        <time>2013-11-17T08:13:33Z</time>
      </trkpt>
      <trkpt lat="47.31013" lon="-1.2864">
        <ele>6.46</ele>
        <time>2013-11-17T08:13:36Z</time>
      </trkpt>
      <trkpt lat="47.30997" lon="-1.28622">
        <ele>6.4</ele>
        <time>2013-11-17T08:13:39Z</time>
      </trkpt>
      <trkpt lat="47.30977" lon="-1.28607">
        <ele>5.96</ele>
        <time>2013-11-17T08:13:43Z</time>
      </trkpt>
      <trkpt lat="47.30954" lon="-1.28606">
        <ele>5.04</ele>
        <time>2013-11-17T08:13:47Z</time>
      </trkpt>
      <trkpt lat="47.30934" lon="-1.28605">
        <ele>3.76</ele>
        <time>2013-11-17T08:13:50Z</time>
      </trkpt>
      <trkpt lat="47.30915" lon="-1.28611">
        <ele>2.41</ele>
        <time>2013-11-17T08:13:53Z</time>
      </trkpt>
      <trkpt lat="47.30891" lon="-1.28619">
        <ele>1.24</ele>
        <time>2013-11-17T08:13:56Z</time>
      </trkpt>
      <trkpt lat="47.30871" lon="-1.28634">
        <ele>0.98</ele>
        <time>2013-11-17T08:13:59Z</time>
      </trkpt>
      <trkpt lat="47.30854" lon="-1.28657">
        <ele>0.96</ele>
        <time>2013-11-17T08:14:02Z</time>
      </trkpt>
      <trkpt lat="47.30838" lon="-1.28678">
        <ele>0.92</ele>
        <time>2013-11-17T08:14:05Z</time>
      </trkpt>
      <trkpt lat="47.3082" lon="-1.28698">
        <ele>0.71</ele>
        <time>2013-11-17T08:14:08Z</time>
      </trkpt>
      <trkpt lat="47.30803" lon="-1.28718">
        <ele>0.54</ele>
        <time>2013-11-17T08:14:11Z</time>
      </trkpt>
      <trkpt lat="47.30786" lon="-1.28735">
        <ele>0.2</ele>
        <time>2013-11-17T08:14:14Z</time>
      </trkpt>
      <trkpt lat="47.30767" lon="-1.28747">
        <ele>-0.13</ele>
        <time>2013-11-17T08:14:17Z</time>
      </trkpt>
      <trkpt lat="47.30745" lon="-1.28762">
        <ele>-0.6</ele>
        <time>2013-11-17T08:14:20Z</time>
      </trkpt>
      <trkpt lat="47.30723" lon="-1.28777">
        <ele>-1.12</ele>
        <time>2013-11-17T08:14:23Z</time>
      </trkpt>
      <trkpt lat="47.30701" lon="-1.2879">
        <ele>-2.15</ele>
        <time>2013-11-17T08:14:26Z</time>
      </trkpt>
      <trkpt lat="47.30679" lon="-1.28804">
        <ele>-3.19</ele>
        <time>2013-11-17T08:14:29Z</time>
      </trkpt>
      <trkpt lat="47.30663" lon="-1.28819">
        <ele>-4.26</ele>
        <time>2013-11-17T08:14:32Z</time>
      </trkpt>
      <trkpt lat="47.3064" lon="-1.28827">
        <ele>-7.36</ele>
        <time>2013-11-17T08:14:36Z</time>
      </trkpt>
      <trkpt lat="47.3062" lon="-1.28831">
        <ele>-8.17</ele>
        <time>2013-11-17T08:14:38Z</time>
      </trkpt>
      <trkpt lat="47.30599" lon="-1.2884">
        <ele>-9.09</ele>
        <time>2013-11-17T08:14:41Z</time>
      </trkpt>
      <trkpt lat="47.3058" lon="-1.28851">
        <ele>-10.08</ele>
        <time>2013-11-17T08:14:44Z</time>
      </trkpt>
      <trkpt lat="47.30562" lon="-1.28866">
        <ele>-11.13</ele>
        <time>2013-11-17T08:14:47Z</time>
      </trkpt>
      <trkpt lat="47.30548" lon="-1.28888">
        <ele>-12.07</ele>
        <time>2013-11-17T08:14:50Z</time>
      </trkpt>
      <trkpt lat="47.30532" lon="-1.2891">
        <ele>-13.12</ele>
        <time>2013-11-17T08:14:53Z</time>
      </trkpt>
      <trkpt lat="47.30517" lon="-1.28933">
        <ele>-13.61</ele>
        <time>2013-11-17T08:14:56Z</time>
      </trkpt>
      <trkpt lat="47.30497" lon="-1.28945">
        <ele>-15.46</ele>
        <time>2013-11-17T08:14:59Z</time>
      </trkpt>
      <trkpt lat="47.30471" lon="-1.28957">
        <ele>-17.32</ele>
        <time>2013-11-17T08:15:02Z</time>
      </trkpt>
      <trkpt lat="47.30453" lon="-1.28962">
        <ele>-18.41</ele>
        <time>2013-11-17T08:15:04Z</time>
      </trkpt>
      <trkpt lat="47.30432" lon="-1.28977">
        <ele>-19.88</ele>
        <time>2013-11-17T08:15:07Z</time>
      </trkpt>
      <trkpt lat="47.30424" lon="-1.29002">
        <ele>-21.06</ele>
        <time>2013-11-17T08:15:10Z</time>
      </trkpt>
      <trkpt lat="47.30411" lon="-1.29028">
        <ele>-22.37</ele>
        <time>2013-11-17T08:15:13Z</time>
      </trkpt>
      <trkpt lat="47.30395" lon="-1.29048">
        <ele>-23.89</ele>
        <time>2013-11-17T08:15:16Z</time>
      </trkpt>
      <trkpt lat="47.30375" lon="-1.29058">
        <ele>-25.31</ele>
        <time>2013-11-17T08:15:19Z</time>
      </trkpt>
      <trkpt lat="47.30353" lon="-1.29059">
        <ele>-26.67</ele>
        <time>2013-11-17T08:15:22Z</time>
      </trkpt>
      <trkpt lat="47.30335" lon="-1.29067">
        <ele>-28.24</ele>
        <time>2013-11-17T08:15:25Z</time>
      </trkpt>
      <trkpt lat="47.30312" lon="-1.2907">
        <ele>-30.33</ele>
        <time>2013-11-17T08:15:29Z</time>
      </trkpt>
      <trkpt lat="47.30289" lon="-1.29074">
        <ele>-32.26</ele>
        <time>2013-11-17T08:15:33Z</time>
      </trkpt>
      <trkpt lat="47.30272" lon="-1.29095">
        <ele>-33.97</ele>
        <time>2013-11-17T08:15:38Z</time>
      </trkpt>
      <trkpt lat="47.30262" lon="-1.29119">
        <ele>-36.14</ele>
        <time>2013-11-17T08:15:41Z</time>
      </trkpt>
      <trkpt lat="47.30241" lon="-1.29127">
        <ele>-39.37</ele>
        <time>2013-11-17T08:15:46Z</time>
      </trkpt>
      <trkpt lat="47.30222" lon="-1.29132">
        <ele>-44.55</ele>
        <time>2013-11-17T08:15:59Z</time>
      </trkpt>
      <trkpt lat="47.30207" lon="-1.29148">
        <ele>-49.36</ele>
        <time>2013-11-17T08:16:10Z</time>
      </trkpt>
      <trkpt lat="47.30193" lon="-1.29167">
        <ele>-53.47</ele>
        <time>2013-11-17T08:16:18Z</time>
      </trkpt>
      <trkpt lat="47.30143" lon="-1.29228">
        <ele>-58.07</ele>
        <time>2013-11-17T08:16:21Z</time>
      </trkpt>
      <trkpt lat="47.30131" lon="-1.29249">
        <ele>-66.29</ele>
        <time>2013-11-17T08:16:33Z</time>
      </trkpt>
      <trkpt lat="47.30144" lon="-1.29231">
        <ele>-70.2</ele>
        <time>2013-11-17T08:16:44Z</time>
      </trkpt>
      <trkpt lat="47.30138" lon="-1.29205">
        <ele>-70.69</ele>
        <time>2013-11-17T08:17:01Z</time>
      </trkpt>
      <trkpt lat="47.30131" lon="-1.2918">
        <ele>-71.67</ele>
        <time>2013-11-17T08:17:07Z</time>
      </trkpt>
      <trkpt lat="47.30116" lon="-1.2916">
        <ele>-70.57</ele>
        <time>2013-11-17T08:17:18Z</time>
      </trkpt>
      <trkpt lat="47.30112" lon="-1.29133">
        <ele>-68.94</ele>
        <time>2013-11-17T08:17:37Z</time>
      </trkpt>
      <trkpt lat="47.30113" lon="-1.29106">
        <ele>-64.46</ele>
        <time>2013-11-17T08:17:54Z</time>
      </trkpt>
      <trkpt lat="47.30119" lon="-1.29081">
        <ele>-60.84</ele>
        <time>2013-11-17T08:18:06Z</time>
      </trkpt>
      <trkpt lat="47.30107" lon="-1.29059">
        <ele>-57.03</ele>
        <time>2013-11-17T08:18:17Z</time>
      </trkpt>
      <trkpt lat="47.30096" lon="-1.29038">
        <ele>-51.97</ele>
        <time>2013-11-17T08:18:37Z</time>
      </trkpt>
      <trkpt lat="47.30096" lon="-1.2901">
        <ele>-47.13</ele>
        <time>2013-11-17T08:18:56Z</time>
      </trkpt>
      <trkpt lat="47.30103" lon="-1.28985">
        <ele>-44.49</ele>
        <time>2013-11-17T08:19:13Z</time>
      </trkpt>
      <trkpt lat="47.30107" lon="-1.28959">
        <ele>-41.14</ele>
        <time>2013-11-17T08:19:19Z</time>
      </trkpt>
      <trkpt lat="47.3012" lon="-1.28939">
        <ele>-34.3</ele>
        <time>2013-11-17T08:19:33Z</time>
      </trkpt>
      <trkpt lat="47.30132" lon="-1.28917">
        <ele>-25.18</ele>
        <time>2013-11-17T08:19:48Z</time>
      </trkpt>
      <trkpt lat="47.30144" lon="-1.28894">
        <ele>-20.32</ele>
        <time>2013-11-17T08:19:57Z</time>
      </trkpt>
      <trkpt lat="47.30155" lon="-1.28869">
        <ele>-16.81</ele>
        <time>2013-11-17T08:20:06Z</time>
      </trkpt>
      <trkpt lat="47.30167" lon="-1.28847">
        <ele>-12.89</ele>
        <time>2013-11-17T08:20:13Z</time>
      </trkpt>
      <trkpt lat="47.30177" lon="-1.28822">
        <ele>-9.8</ele>
        <time>2013-11-17T08:20:18Z</time>
      </trkpt>
      <trkpt lat="47.30188" lon="-1.28794">
        <ele>-7.69</ele>
        <time>2013-11-17T08:20:23Z</time>
      </trkpt>
      <trkpt lat="47.30202" lon="-1.28775">
        <ele>-5.21</ele>
        <time>2013-11-17T08:20:27Z</time>
      </trkpt>
      <trkpt lat="47.30215" lon="-1.28756">
        <ele>-2.41</ele>
        <time>2013-11-17T08:20:33Z</time>
      </trkpt>
      <trkpt lat="47.30227" lon="-1.28731">
        <ele>-0.01</ele>
        <time>2013-11-17T08:20:40Z</time>
      </trkpt>
      <trkpt lat="47.30239" lon="-1.28705">
        <ele>1.72</ele>
        <time>2013-11-17T08:20:45Z</time>
      </trkpt>
      <trkpt lat="47.30251" lon="-1.28683">
        <ele>4.03</ele>
        <time>2013-11-17T08:20:49Z</time>
      </trkpt>
      <trkpt lat="47.30264" lon="-1.28658">
        <ele>5.29</ele>
        <time>2013-11-17T08:20:53Z</time>
      </trkpt>
      <trkpt lat="47.30278" lon="-1.28633">
        <ele>7.24</ele>
        <time>2013-11-17T08:20:57Z</time>
      </trkpt>
      <trkpt lat="47.30293" lon="-1.28608">
        <ele>8.14</ele>
        <time>2013-11-17T08:21:01Z</time>
      </trkpt>
      <trkpt lat="47.30307" lon="-1.28586">
        <ele>7.02</ele>
        <time>2013-11-17T08:21:05Z</time>
      </trkpt>
      <trkpt lat="47.3032" lon="-1.28563">
        <ele>5.1</ele>
        <time>2013-11-17T08:21:09Z</time>
      </trkpt>
      <trkpt lat="47.30333" lon="-1.28538">
        <ele>2.71</ele>
        <time>2013-11-17T08:21:13Z</time>
      </trkpt>
      <trkpt lat="47.30346" lon="-1.28516">
        <ele>1.48</ele>
        <time>2013-11-17T08:21:17Z</time>
      </trkpt>
      <trkpt lat="47.3036" lon="-1.28492">
        <ele>0.2</ele>
        <time>2013-11-17T08:21:21Z</time>
      </trkpt>
      <trkpt lat="47.30374" lon="-1.2847">
        <ele>-1.69</ele>
        <time>2013-11-17T08:21:25Z</time>
      </trkpt>
      <trkpt lat="47.30388" lon="-1.28448">
        <ele>-3.1</ele>
        <time>2013-11-17T08:21:29Z</time>
      </trkpt>
      <trkpt lat="47.30403" lon="-1.28425">
        <ele>-3.49</ele>
        <time>2013-11-17T08:21:33Z</time>
      </trkpt>
      <trkpt lat="47.3042" lon="-1.28406">
        <ele>-3.92</ele>
        <time>2013-11-17T08:21:37Z</time>
      </trkpt>
      <trkpt lat="47.3044" lon="-1.28398">
        <ele>-3.57</ele>
        <time>2013-11-17T08:21:41Z</time>
      </trkpt>
      <trkpt lat="47.30461" lon="-1.28391">
        <ele>-3.11</ele>
        <time>2013-11-17T08:21:45Z</time>
      </trkpt>
      <trkpt lat="47.30478" lon="-1.28377">
        <ele>-3.76</ele>
        <time>2013-11-17T08:21:49Z</time>
      </trkpt>
      <trkpt lat="47.30495" lon="-1.2836">
        <ele>-4.3</ele>
        <time>2013-11-17T08:21:53Z</time>
      </trkpt>
      <trkpt lat="47.30512" lon="-1.28344">
        <ele>-4.2</ele>
        <time>2013-11-17T08:21:57Z</time>
      </trkpt>
      <trkpt lat="47.30529" lon="-1.28329">
        <ele>-3.67</ele>
        <time>2013-11-17T08:22:01Z</time>
      </trkpt>
      <trkpt lat="47.30545" lon="-1.28314">
        <ele>-2.93</ele>
        <time>2013-11-17T08:22:05Z</time>
      </trkpt>
      <trkpt lat="47.30563" lon="-1.28298">
        <ele>-3.02</ele>
        <time>2013-11-17T08:22:09Z</time>
      </trkpt>
      <trkpt lat="47.30582" lon="-1.2828">
        <ele>-3.14</ele>
        <time>2013-11-17T08:22:13Z</time>
      </trkpt>
      <trkpt lat="47.30601" lon="-1.28262">
        <ele>-2.76</ele>
        <time>2013-11-17T08:22:17Z</time>
      </trkpt>
      <trkpt lat="47.30619" lon="-1.28245">
        <ele>-2.2</ele>
        <time>2013-11-17T08:22:21Z</time>
      </trkpt>
      <trkpt lat="47.30637" lon="-1.28229">
        <ele>-0.13</ele>
        <time>2013-11-17T08:22:25Z</time>
      </trkpt>
      <trkpt lat="47.30653" lon="-1.28212">
        <ele>1.43</ele>
        <time>2013-11-17T08:22:29Z</time>
      </trkpt>
      <trkpt lat="47.30667" lon="-1.28186">
        <ele>0.98</ele>
        <time>2013-11-17T08:22:34Z</time>
      </trkpt>
      <trkpt lat="47.30661" lon="-1.28159">
        <ele>-0.31</ele>
        <time>2013-11-17T08:22:38Z</time>
      </trkpt>
      <trkpt lat="47.30652" lon="-1.28128">
        <ele>0.37</ele>
        <time>2013-11-17T08:22:43Z</time>
      </trkpt>
      <trkpt lat="47.30644" lon="-1.28101">
        <ele>1.74</ele>
        <time>2013-11-17T08:22:47Z</time>
      </trkpt>
      <trkpt lat="47.30637" lon="-1.28072">
        <ele>2.73</ele>
        <time>2013-11-17T08:22:51Z</time>
      </trkpt>
      <trkpt lat="47.30631" lon="-1.28044">
        <ele>3.96</ele>
        <time>2013-11-17T08:22:55Z</time>
      </trkpt>
      <trkpt lat="47.30623" lon="-1.28016">
        <ele>5.02</ele>
        <time>2013-11-17T08:22:59Z</time>
      </trkpt>
      <trkpt lat="47.30615" lon="-1.27987">
        <ele>5.78</ele>
        <time>2013-11-17T08:23:03Z</time>
      </trkpt>
      <trkpt lat="47.30604" lon="-1.27963">
        <ele>6.71</ele>
        <time>2013-11-17T08:23:08Z</time>
      </trkpt>
      <trkpt lat="47.30585" lon="-1.27967">
        <ele>6.67</ele>
        <time>2013-11-17T08:23:18Z</time>
      </trkpt>
      <trkpt lat="47.30568" lon="-1.27986">
        <ele>6.9</ele>
        <time>2013-11-17T08:23:23Z</time>
      </trkpt>
      <trkpt lat="47.30552" lon="-1.28011">
        <ele>7.4</ele>
        <time>2013-11-17T08:23:27Z</time>
      </trkpt>
      <trkpt lat="47.30537" lon="-1.28032">
        <ele>7.86</ele>
        <time>2013-11-17T08:23:32Z</time>
      </trkpt>
      <trkpt lat="47.30522" lon="-1.28052">
        <ele>7.61</ele>
        <time>2013-11-17T08:23:36Z</time>
      </trkpt>
      <trkpt lat="47.30526" lon="-1.28079">
        <ele>6.16</ele>
        <time>2013-11-17T08:23:43Z</time>
      </trkpt>
      <trkpt lat="47.30538" lon="-1.28102">
        <ele>5.53</ele>
        <time>2013-11-17T08:23:50Z</time>
      </trkpt>
      <trkpt lat="47.30531" lon="-1.28131">
        <ele>5.49</ele>
        <time>2013-11-17T08:23:57Z</time>
      </trkpt>
      <trkpt lat="47.30516" lon="-1.28147">
        <ele>4.89</ele>
        <time>2013-11-17T08:24:02Z</time>
      </trkpt>
      <trkpt lat="47.30499" lon="-1.28163">
        <ele>4.34</ele>
        <time>2013-11-17T08:24:07Z</time>
      </trkpt>
      <trkpt lat="47.30481" lon="-1.28177">
        <ele>3.99</ele>
        <time>2013-11-17T08:24:13Z</time>
      </trkpt>
      <trkpt lat="47.30463" lon="-1.28188">
        <ele>2.17</ele>
        <time>2013-11-17T08:24:20Z</time>
      </trkpt>
      <trkpt lat="47.30443" lon="-1.28176">
        <ele>-3</ele>
        <time>2013-11-17T08:24:28Z</time>
      </trkpt>
      <trkpt lat="47.30426" lon="-1.28166">
        <ele>-6.43</ele>
        <time>2013-11-17T08:24:37Z</time>
      </trkpt>
      <trkpt lat="47.30407" lon="-1.28163">
        <ele>-9.82</ele>
        <time>2013-11-17T08:24:48Z</time>
      </trkpt>
      <trkpt lat="47.30388" lon="-1.28162">
        <ele>-11.56</ele>
        <time>2013-11-17T08:24:53Z</time>
      </trkpt>
      <trkpt lat="47.30369" lon="-1.28169">
        <ele>-13.89</ele>
        <time>2013-11-17T08:24:59Z</time>
      </trkpt>
      <trkpt lat="47.30355" lon="-1.28191">
        <ele>-15.22</ele>
        <time>2013-11-17T08:25:04Z</time>
      </trkpt>
      <trkpt lat="47.30342" lon="-1.28213">
        <ele>-16.41</ele>
        <time>2013-11-17T08:25:09Z</time>
      </trkpt>
      <trkpt lat="47.30334" lon="-1.28241">
        <ele>-16.19</ele>
        <time>2013-11-17T08:25:17Z</time>
      </trkpt>
      <trkpt lat="47.30322" lon="-1.28263">
        <ele>-14.32</ele>
        <time>2013-11-17T08:25:23Z</time>
      </trkpt>
      <trkpt lat="47.30304" lon="-1.28273">
        <ele>-14.32</ele>
        <time>2013-11-17T08:25:31Z</time>
      </trkpt>
      <trkpt lat="47.30284" lon="-1.28271">
        <ele>-14.19</ele>
        <time>2013-11-17T08:25:37Z</time>
      </trkpt>
      <trkpt lat="47.30265" lon="-1.28266">
        <ele>-16.06</ele>
        <time>2013-11-17T08:25:46Z</time>
      </trkpt>
      <trkpt lat="47.30249" lon="-1.28256">
        <ele>-17.8</ele>
        <time>2013-11-17T08:25:54Z</time>
      </trkpt>
      <trkpt lat="47.30234" lon="-1.28241">
        <ele>-20.45</ele>
        <time>2013-11-17T08:26:03Z</time>
      </trkpt>
      <trkpt lat="47.30214" lon="-1.28228">
        <ele>-23.46</ele>
        <time>2013-11-17T08:26:13Z</time>
      </trkpt>
      <trkpt lat="47.30197" lon="-1.28238">
        <ele>-27.87</ele>
        <time>2013-11-17T08:26:25Z</time>
      </trkpt>
      <trkpt lat="47.3018" lon="-1.28249">
        <ele>-31.09</ele>
        <time>2013-11-17T08:26:36Z</time>
      </trkpt>
      <trkpt lat="47.30159" lon="-1.28249">
        <ele>-33.37</ele>
        <time>2013-11-17T08:26:50Z</time>
      </trkpt>
      <trkpt lat="47.30138" lon="-1.28254">
        <ele>-33.88</ele>
        <time>2013-11-17T08:26:55Z</time>
      </trkpt>
      <trkpt lat="47.3012" lon="-1.28259">
        <ele>-34.76</ele>
        <time>2013-11-17T08:27:01Z</time>
      </trkpt>
      <trkpt lat="47.30106" lon="-1.28274">
        <ele>-34.8</ele>
        <time>2013-11-17T08:27:09Z</time>
      </trkpt>
      <trkpt lat="47.30091" lon="-1.28294">
        <ele>-34.38</ele>
        <time>2013-11-17T08:27:17Z</time>
      </trkpt>
      <trkpt lat="47.30077" lon="-1.28315">
        <ele>-33.84</ele>
        <time>2013-11-17T08:27:27Z</time>
      </trkpt>
      <trkpt lat="47.30066" lon="-1.2834">
        <ele>-33.93</ele>
        <time>2013-11-17T08:27:35Z</time>
      </trkpt>
      <trkpt lat="47.30057" lon="-1.28377">
        <ele>-33.69</ele>
        <time>2013-11-17T08:27:46Z</time>
      </trkpt>
      <trkpt lat="47.30048" lon="-1.28401">
        <ele>-34.89</ele>
        <time>2013-11-17T08:27:58Z</time>
      </trkpt>
      <trkpt lat="47.3003" lon="-1.28401">
        <ele>-33.52</ele>
        <time>2013-11-17T08:28:41Z</time>
      </trkpt>
      <trkpt lat="47.30019" lon="-1.28377">
        <ele>-29.84</ele>
        <time>2013-11-17T08:28:55Z</time>
      </trkpt>
      <trkpt lat="47.3" lon="-1.28378">
        <ele>-26.61</ele>
        <time>2013-11-17T08:29:08Z</time>
      </trkpt>
      <trkpt lat="47.29981" lon="-1.28389">
        <ele>-23.97</ele>
        <time>2013-11-17T08:29:13Z</time>
      </trkpt>
      <trkpt lat="47.2996" lon="-1.28398">
        <ele>-22.75</ele>
        <time>2013-11-17T08:29:20Z</time>
      </trkpt>
      <trkpt lat="47.29941" lon="-1.28405">
        <ele>-22.77</ele>
        <time>2013-11-17T08:29:27Z</time>
      </trkpt>
      <trkpt lat="47.29922" lon="-1.28411">
        <ele>-23.48</ele>
        <time>2013-11-17T08:29:35Z</time>
      </trkpt>
      <trkpt lat="47.29903" lon="-1.28409">
        <ele>-25.37</ele>
        <time>2013-11-17T08:29:41Z</time>
      </trkpt>
      <trkpt lat="47.29884" lon="-1.2841">
        <ele>-27.05</ele>
        <time>2013-11-17T08:29:49Z</time>
      </trkpt>
      <trkpt lat="47.29871" lon="-1.2839">
        <ele>-26.41</ele>
        <time>2013-11-17T08:29:59Z</time>
      </trkpt>
      <trkpt lat="47.29859" lon="-1.28366">
        <ele>-25.33</ele>
        <time>2013-11-17T08:30:10Z</time>
      </trkpt>
      <trkpt lat="47.29847" lon="-1.28346">
        <ele>-23.26</ele>
        <time>2013-11-17T08:30:21Z</time>
      </trkpt>
      <trkpt lat="47.29835" lon="-1.28326">
        <ele>-20.05</ele>
        <time>2013-11-17T08:30:30Z</time>
      </trkpt>
      <trkpt lat="47.29825" lon="-1.28303">
        <ele>-17.32</ele>
        <time>2013-11-17T08:30:39Z</time>
      </trkpt>
      <trkpt lat="47.29814" lon="-1.28281">
        <ele>-15.42</ele>
        <time>2013-11-17T08:30:46Z</time>
      </trkpt>
      <trkpt lat="47.298" lon="-1.2826">
        <ele>-13.75</ele>
        <time>2013-11-17T08:30:54Z</time>
      </trkpt>
      <trkpt lat="47.29798" lon="-1.28234">
        <ele>-12.44</ele>
        <time>2013-11-17T08:31:02Z</time>
      </trkpt>
      <trkpt lat="47.29795" lon="-1.28206">
        <ele>-10.79</ele>
        <time>2013-11-17T08:31:10Z</time>
      </trkpt>
      <trkpt lat="47.29789" lon="-1.28179">
        <ele>-9.41</ele>
        <time>2013-11-17T08:31:17Z</time>
      </trkpt>
      <trkpt lat="47.29782" lon="-1.28151">
        <ele>-7.07</ele>
        <time>2013-11-17T08:31:25Z</time>
      </trkpt>
      <trkpt lat="47.29777" lon="-1.28125">
        <ele>-5.37</ele>
        <time>2013-11-17T08:31:33Z</time>
      </trkpt>
      <trkpt lat="47.29774" lon="-1.28099">
        <ele>-3.58</ele>
        <time>2013-11-17T08:31:40Z</time>
      </trkpt>
      <trkpt lat="47.29769" lon="-1.28073">
        <ele>-1.59</ele>
        <time>2013-11-17T08:31:47Z</time>
      </trkpt>
      <trkpt lat="47.29764" lon="-1.28048">
        <ele>-0.11</ele>
        <time>2013-11-17T08:31:53Z</time>
      </trkpt>
      <trkpt lat="47.29759" lon="-1.28021">
        <ele>2.02</ele>
        <time>2013-11-17T08:32:00Z</time>
      </trkpt>
      <trkpt lat="47.29757" lon="-1.27994">
        <ele>3.55</ele>
        <time>2013-11-17T08:32:07Z</time>
      </trkpt>
      <trkpt lat="47.29753" lon="-1.27966">
        <ele>5</ele>
        <time>2013-11-17T08:32:13Z</time>
      </trkpt>
      <trkpt lat="47.29748" lon="-1.27936">
        <ele>6.79</ele>
        <time>2013-11-17T08:32:20Z</time>
      </trkpt>
      <trkpt lat="47.29746" lon="-1.27909">
        <ele>8.29</ele>
        <time>2013-11-17T08:32:26Z</time>
      </trkpt>
      <trkpt lat="47.29743" lon="-1.2788">
        <ele>9.15</ele>
        <time>2013-11-17T08:32:31Z</time>
      </trkpt>
      <trkpt lat="47.29738" lon="-1.2785">
        <ele>9.05</ele>
        <time>2013-11-17T08:32:36Z</time>
      </trkpt>
      <trkpt lat="47.29733" lon="-1.27823">
        <ele>8.78</ele>
        <time>2013-11-17T08:32:40Z</time>
      </trkpt>
      <trkpt lat="47.29733" lon="-1.27793">
        <ele>9.11</ele>
        <time>2013-11-17T08:32:45Z</time>
      </trkpt>
      <trkpt lat="47.29742" lon="-1.27768">
        <ele>9.32</ele>
        <time>2013-11-17T08:32:50Z</time>
      </trkpt>
      <trkpt lat="47.29758" lon="-1.27747">
        <ele>8.6</ele>
        <time>2013-11-17T08:32:55Z</time>
      </trkpt>
      <trkpt lat="47.29762" lon="-1.27721">
        <ele>6.64</ele>
        <time>2013-11-17T08:32:58Z</time>
      </trkpt>
      <trkpt lat="47.29774" lon="-1.27699">
        <ele>4.82</ele>
        <time>2013-11-17T08:33:02Z</time>
      </trkpt>
      <trkpt lat="47.29786" lon="-1.27678">
        <ele>3.85</ele>
        <time>2013-11-17T08:33:06Z</time>
      </trkpt>
      <trkpt lat="47.29791" lon="-1.27649">
        <ele>2.95</ele>
        <time>2013-11-17T08:33:11Z</time>
      </trkpt>
      <trkpt lat="47.29787" lon="-1.27618">
        <ele>2.75</ele>
        <time>2013-11-17T08:33:16Z</time>
      </trkpt>
      <trkpt lat="47.29772" lon="-1.27597">
        <ele>1.44</ele>
        <time>2013-11-17T08:33:21Z</time>
      </trkpt>
      <trkpt lat="47.29754" lon="-1.27587">
        <ele>1.1</ele>
        <time>2013-11-17T08:33:25Z</time>
      </trkpt>
      <trkpt lat="47.29736" lon="-1.27579">
        <ele>1.11</ele>
        <time>2013-11-17T08:33:29Z</time>
      </trkpt>
      <trkpt lat="47.29716" lon="-1.27566">
        <ele>1.01</ele>
        <time>2013-11-17T08:33:35Z</time>
      </trkpt>
      <trkpt lat="47.29701" lon="-1.27544">
        <ele>0.33</ele>
        <time>2013-11-17T08:33:39Z</time>
      </trkpt>
      <trkpt lat="47.2969" lon="-1.27518">
        <ele>-0.47</ele>
        <time>2013-11-17T08:33:43Z</time>
      </trkpt>
      <trkpt lat="47.29682" lon="-1.27493">
        <ele>-0.57</ele>
        <time>2013-11-17T08:33:46Z</time>
      </trkpt>
      <trkpt lat="47.29679" lon="-1.27465">
        <ele>0.55</ele>
        <time>2013-11-17T08:33:52Z</time>
      </trkpt>
      <trkpt lat="47.29671" lon="-1.27439">
        <ele>0.62</ele>
        <time>2013-11-17T08:33:59Z</time>
      </trkpt>
      <trkpt lat="47.29664" lon="-1.27413">
        <ele>2.54</ele>
        <time>2013-11-17T08:34:06Z</time>
      </trkpt>
      <trkpt lat="47.29652" lon="-1.27392">
        <ele>4.3</ele>
        <time>2013-11-17T08:34:11Z</time>
      </trkpt>
      <trkpt lat="47.29639" lon="-1.27371">
        <ele>6.33</ele>
        <time>2013-11-17T08:34:16Z</time>
      </trkpt>
      <trkpt lat="47.2963" lon="-1.27348">
        <ele>8.68</ele>
        <time>2013-11-17T08:34:22Z</time>
      </trkpt>
      <trkpt lat="47.29619" lon="-1.27321">
        <ele>10.32</ele>
        <time>2013-11-17T08:34:28Z</time>
      </trkpt>
      <trkpt lat="47.29615" lon="-1.27291">
        <ele>11.22</ele>
        <time>2013-11-17T08:34:34Z</time>
      </trkpt>
      <trkpt lat="47.29611" lon="-1.27264">
        <ele>11.14</ele>
        <time>2013-11-17T08:34:39Z</time>
      </trkpt>
      <trkpt lat="47.29606" lon="-1.27238">
        <ele>10.83</ele>
        <time>2013-11-17T08:34:44Z</time>
      </trkpt>
      <trkpt lat="47.29603" lon="-1.27212">
        <ele>10.96</ele>
        <time>2013-11-17T08:34:49Z</time>
      </trkpt>
      <trkpt lat="47.29599" lon="-1.27184">
        <ele>11.03</ele>
        <time>2013-11-17T08:34:54Z</time>
      </trkpt>
      <trkpt lat="47.29593" lon="-1.27154">
        <ele>11.01</ele>
        <time>2013-11-17T08:35:00Z</time>
      </trkpt>
      <trkpt lat="47.29589" lon="-1.27127">
        <ele>10.56</ele>
        <time>2013-11-17T08:35:06Z</time>
      </trkpt>
      <trkpt lat="47.29586" lon="-1.27101">
        <ele>10.53</ele>
        <time>2013-11-17T08:35:12Z</time>
      </trkpt>
      <trkpt lat="47.29584" lon="-1.27069">
        <ele>8.24</ele>
        <time>2013-11-17T08:35:18Z</time>
      </trkpt>
      <trkpt lat="47.29602" lon="-1.27066">
        <ele>6.77</ele>
        <time>2013-11-17T08:35:26Z</time>
      </trkpt>
      <trkpt lat="47.29622" lon="-1.27067">
        <ele>6.81</ele>
        <time>2013-11-17T08:35:33Z</time>
      </trkpt>
      <trkpt lat="47.29642" lon="-1.27065">
        <ele>6.52</ele>
        <time>2013-11-17T08:35:40Z</time>
      </trkpt>
      <trkpt lat="47.2966" lon="-1.27059">
        <ele>6.78</ele>
        <time>2013-11-17T08:35:46Z</time>
      </trkpt>
      <trkpt lat="47.29678" lon="-1.27055">
        <ele>7.01</ele>
        <time>2013-11-17T08:35:52Z</time>
      </trkpt>
      <trkpt lat="47.29697" lon="-1.2705">
        <ele>6.92</ele>
        <time>2013-11-17T08:35:58Z</time>
      </trkpt>
      <trkpt lat="47.29716" lon="-1.27045">
        <ele>6.98</ele>
        <time>2013-11-17T08:36:04Z</time>
      </trkpt>
      <trkpt lat="47.29734" lon="-1.27038">
        <ele>5.39</ele>
        <time>2013-11-17T08:36:09Z</time>
      </trkpt>
      <trkpt lat="47.29753" lon="-1.2703">
        <ele>4.6</ele>
        <time>2013-11-17T08:36:15Z</time>
      </trkpt>
      <trkpt lat="47.29764" lon="-1.27005">
        <ele>5.51</ele>
        <time>2013-11-17T08:36:23Z</time>
      </trkpt>
      <trkpt lat="47.29761" lon="-1.26976">
        <ele>6.82</ele>
        <time>2013-11-17T08:36:28Z</time>
      </trkpt>
      <trkpt lat="47.29755" lon="-1.26946">
        <ele>7.74</ele>
        <time>2013-11-17T08:36:33Z</time>
      </trkpt>
      <trkpt lat="47.29749" lon="-1.26917">
        <ele>8.76</ele>
        <time>2013-11-17T08:36:38Z</time>
      </trkpt>
      <trkpt lat="47.29744" lon="-1.26889">
        <ele>9.15</ele>
        <time>2013-11-17T08:36:43Z</time>
      </trkpt>
      <trkpt lat="47.29738" lon="-1.26862">
        <ele>9.3</ele>
        <time>2013-11-17T08:36:48Z</time>
      </trkpt>
      <trkpt lat="47.29731" lon="-1.26836">
        <ele>9.36</ele>
        <time>2013-11-17T08:36:53Z</time>
      </trkpt>
      <trkpt lat="47.29721" lon="-1.2681">
        <ele>9.29</ele>
        <time>2013-11-17T08:36:58Z</time>
      </trkpt>
      <trkpt lat="47.29709" lon="-1.26786">
        <ele>9.48</ele>
        <time>2013-11-17T08:37:03Z</time>
      </trkpt>
      <trkpt lat="47.29696" lon="-1.26765">
        <ele>9.4</ele>
        <time>2013-11-17T08:37:08Z</time>
      </trkpt>
      <trkpt lat="47.29683" lon="-1.26744">
        <ele>9.78</ele>
        <time>2013-11-17T08:37:12Z</time>
      </trkpt>
      <trkpt lat="47.29668" lon="-1.26721">
        <ele>9.6</ele>
        <time>2013-11-17T08:37:17Z</time>
      </trkpt>
      <trkpt lat="47.29654" lon="-1.26697">
        <ele>10.1</ele>
        <time>2013-11-17T08:37:22Z</time>
      </trkpt>
      <trkpt lat="47.29642" lon="-1.26677">
        <ele>10.58</ele>
        <time>2013-11-17T08:37:25Z</time>
      </trkpt>
      <trkpt lat="47.29629" lon="-1.26654">
        <ele>9.93</ele>
        <time>2013-11-17T08:37:28Z</time>
      </trkpt>
      <trkpt lat="47.29613" lon="-1.26628">
        <ele>9.1</ele>
        <time>2013-11-17T08:37:31Z</time>
      </trkpt>
      <trkpt lat="47.29596" lon="-1.26603">
        <ele>7.7</ele>
        <time>2013-11-17T08:37:34Z</time>
      </trkpt>
      <trkpt lat="47.29574" lon="-1.26584">
        <ele>6.78</ele>
        <time>2013-11-17T08:37:37Z</time>
      </trkpt>
      <trkpt lat="47.29552" lon="-1.26571">
        <ele>6</ele>
        <time>2013-11-17T08:37:40Z</time>
      </trkpt>
      <trkpt lat="47.29527" lon="-1.26554">
        <ele>5.13</ele>
        <time>2013-11-17T08:37:43Z</time>
      </trkpt>
      <trkpt lat="47.29506" lon="-1.26546">
        <ele>5.17</ele>
        <time>2013-11-17T08:37:46Z</time>
      </trkpt>
      <trkpt lat="47.29484" lon="-1.26534">
        <ele>6.29</ele>
        <time>2013-11-17T08:37:50Z</time>
      </trkpt>
      <trkpt lat="47.29464" lon="-1.26522">
        <ele>7.7</ele>
        <time>2013-11-17T08:37:54Z</time>
      </trkpt>
      <trkpt lat="47.29446" lon="-1.26501">
        <ele>8.07</ele>
        <time>2013-11-17T08:37:57Z</time>
      </trkpt>
      <trkpt lat="47.29431" lon="-1.26481">
        <ele>7.61</ele>
        <time>2013-11-17T08:38:00Z</time>
      </trkpt>
      <trkpt lat="47.29417" lon="-1.26463">
        <ele>7.43</ele>
        <time>2013-11-17T08:38:03Z</time>
      </trkpt>
      <trkpt lat="47.29403" lon="-1.26438">
        <ele>8.07</ele>
        <time>2013-11-17T08:38:07Z</time>
      </trkpt>
      <trkpt lat="47.29389" lon="-1.26417">
        <ele>8.95</ele>
        <time>2013-11-17T08:38:11Z</time>
      </trkpt>
      <trkpt lat="47.29374" lon="-1.26403">
        <ele>9.88</ele>
        <time>2013-11-17T08:38:15Z</time>
      </trkpt>
      <trkpt lat="47.29365" lon="-1.26376">
        <ele>10.85</ele>
        <time>2013-11-17T08:38:20Z</time>
      </trkpt>
      <trkpt lat="47.29363" lon="-1.26345">
        <ele>8.6</ele>
        <time>2013-11-17T08:38:23Z</time>
      </trkpt>
      <trkpt lat="47.29375" lon="-1.26322">
        <ele>7.63</ele>
        <time>2013-11-17T08:38:27Z</time>
      </trkpt>
      <trkpt lat="47.29389" lon="-1.26301">
        <ele>7.85</ele>
        <time>2013-11-17T08:38:32Z</time>
      </trkpt>
      <trkpt lat="47.294" lon="-1.2628">
        <ele>8.11</ele>
        <time>2013-11-17T08:38:37Z</time>
      </trkpt>
      <trkpt lat="47.2939" lon="-1.26255">
        <ele>9.3</ele>
        <time>2013-11-17T08:38:45Z</time>
      </trkpt>
      <trkpt lat="47.29372" lon="-1.26243">
        <ele>10.51</ele>
        <time>2013-11-17T08:38:52Z</time>
      </trkpt>
      <trkpt lat="47.29353" lon="-1.26233">
        <ele>11.84</ele>
        <time>2013-11-17T08:39:00Z</time>
      </trkpt>
      <trkpt lat="47.29336" lon="-1.2622">
        <ele>11.61</ele>
        <time>2013-11-17T08:39:06Z</time>
      </trkpt>
      <trkpt lat="47.29318" lon="-1.26209">
        <ele>11.51</ele>
        <time>2013-11-17T08:39:12Z</time>
      </trkpt>
      <trkpt lat="47.29301" lon="-1.26197">
        <ele>12.03</ele>
        <time>2013-11-17T08:39:18Z</time>
      </trkpt>
      <trkpt lat="47.29285" lon="-1.26187">
        <ele>12.18</ele>
        <time>2013-11-17T08:39:24Z</time>
      </trkpt>
      <trkpt lat="47.29266" lon="-1.26176">
        <ele>12.03</ele>
        <time>2013-11-17T08:39:31Z</time>
      </trkpt>
      <trkpt lat="47.29248" lon="-1.26165">
        <ele>11.92</ele>
        <time>2013-11-17T08:39:37Z</time>
      </trkpt>
      <trkpt lat="47.29229" lon="-1.26155">
        <ele>11.62</ele>
        <time>2013-11-17T08:39:43Z</time>
      </trkpt>
      <trkpt lat="47.29211" lon="-1.26145">
        <ele>10.45</ele>
        <time>2013-11-17T08:39:49Z</time>
      </trkpt>
      <trkpt lat="47.29194" lon="-1.26135">
        <ele>9.9</ele>
        <time>2013-11-17T08:39:55Z</time>
      </trkpt>
      <trkpt lat="47.29176" lon="-1.26123">
        <ele>10.11</ele>
        <time>2013-11-17T08:40:01Z</time>
      </trkpt>
      <trkpt lat="47.29157" lon="-1.26113">
        <ele>10.55</ele>
        <time>2013-11-17T08:40:07Z</time>
      </trkpt>
      <trkpt lat="47.29139" lon="-1.26102">
        <ele>10.62</ele>
        <time>2013-11-17T08:40:13Z</time>
      </trkpt>
      <trkpt lat="47.29119" lon="-1.26093">
        <ele>10.22</ele>
        <time>2013-11-17T08:40:19Z</time>
      </trkpt>
      <trkpt lat="47.291" lon="-1.26096">
        <ele>9.2</ele>
        <time>2013-11-17T08:40:25Z</time>
      </trkpt>
      <trkpt lat="47.29084" lon="-1.26118">
        <ele>8.02</ele>
        <time>2013-11-17T08:40:31Z</time>
      </trkpt>
      <trkpt lat="47.29074" lon="-1.26142">
        <ele>7.1</ele>
        <time>2013-11-17T08:40:37Z</time>
      </trkpt>
      <trkpt lat="47.29057" lon="-1.26153">
        <ele>5.62</ele>
        <time>2013-11-17T08:40:55Z</time>
      </trkpt>
      <trkpt lat="47.29056" lon="-1.26181">
        <ele>5.97</ele>
        <time>2013-11-17T08:43:53Z</time>
      </trkpt>
      <trkpt lat="47.2905" lon="-1.26206">
        <ele>5.73</ele>
        <time>2013-11-17T08:43:59Z</time>
      </trkpt>
      <trkpt lat="47.29042" lon="-1.26236">
        <ele>5.43</ele>
        <time>2013-11-17T08:44:05Z</time>
      </trkpt>
      <trkpt lat="47.2903" lon="-1.26259">
        <ele>5.08</ele>
        <time>2013-11-17T08:44:10Z</time>
      </trkpt>
      <trkpt lat="47.2902" lon="-1.26281">
        <ele>4.4</ele>
        <time>2013-11-17T08:44:15Z</time>
      </trkpt>
      <trkpt lat="47.29001" lon="-1.26279">
        <ele>4.24</ele>
        <time>2013-11-17T08:44:23Z</time>
      </trkpt>
      <trkpt lat="47.28989" lon="-1.26257">
        <ele>4.02</ele>
        <time>2013-11-17T08:44:29Z</time>
      </trkpt>
      <trkpt lat="47.28975" lon="-1.26234">
        <ele>4.36</ele>
        <time>2013-11-17T08:44:35Z</time>
      </trkpt>
      <trkpt lat="47.28963" lon="-1.26211">
        <ele>5.12</ele>
        <time>2013-11-17T08:44:40Z</time>
      </trkpt>
      <trkpt lat="47.28949" lon="-1.26191">
        <ele>5.58</ele>
        <time>2013-11-17T08:44:45Z</time>
      </trkpt>
      <trkpt lat="47.28932" lon="-1.26173">
        <ele>5.96</ele>
        <time>2013-11-17T08:44:50Z</time>
      </trkpt>
      <trkpt lat="47.28912" lon="-1.26164">
        <ele>6.62</ele>
        <time>2013-11-17T08:44:55Z</time>
      </trkpt>
      <trkpt lat="47.28891" lon="-1.26159">
        <ele>6.89</ele>
        <time>2013-11-17T08:45:00Z</time>
      </trkpt>
      <trkpt lat="47.28869" lon="-1.26155">
        <ele>7.58</ele>
        <time>2013-11-17T08:45:05Z</time>
      </trkpt>
      <trkpt lat="47.2885" lon="-1.26155">
        <ele>8.68</ele>
        <time>2013-11-17T08:45:09Z</time>
      </trkpt>
      <trkpt lat="47.2883" lon="-1.26152">
        <ele>9.43</ele>
        <time>2013-11-17T08:45:13Z</time>
      </trkpt>
      <trkpt lat="47.28812" lon="-1.26145">
        <ele>9.87</ele>
        <time>2013-11-17T08:45:17Z</time>
      </trkpt>
      <trkpt lat="47.28795" lon="-1.26132">
        <ele>10.91</ele>
        <time>2013-11-17T08:45:21Z</time>
      </trkpt>
      <trkpt lat="47.28778" lon="-1.26119">
        <ele>11.46</ele>
        <time>2013-11-17T08:45:25Z</time>
      </trkpt>
      <trkpt lat="47.28761" lon="-1.26099">
        <ele>11.74</ele>
        <time>2013-11-17T08:45:29Z</time>
      </trkpt>
      <trkpt lat="47.28745" lon="-1.26074">
        <ele>11.6</ele>
        <time>2013-11-17T08:45:33Z</time>
      </trkpt>
      <trkpt lat="47.28732" lon="-1.26054">
        <ele>11.2</ele>
        <time>2013-11-17T08:45:36Z</time>
      </trkpt>
      <trkpt lat="47.28719" lon="-1.26032">
        <ele>10.33</ele>
        <time>2013-11-17T08:45:39Z</time>
      </trkpt>
      <trkpt lat="47.28704" lon="-1.26007">
        <ele>9.86</ele>
        <time>2013-11-17T08:45:43Z</time>
      </trkpt>
      <trkpt lat="47.2869" lon="-1.25979">
        <ele>9.71</ele>
        <time>2013-11-17T08:45:47Z</time>
      </trkpt>
      <trkpt lat="47.2868" lon="-1.25952">
        <ele>10.02</ele>
        <time>2013-11-17T08:45:51Z</time>
      </trkpt>
      <trkpt lat="47.28671" lon="-1.25924">
        <ele>11.18</ele>
        <time>2013-11-17T08:45:55Z</time>
      </trkpt>
      <trkpt lat="47.2866" lon="-1.25894">
        <ele>12.75</ele>
        <time>2013-11-17T08:45:59Z</time>
      </trkpt>
      <trkpt lat="47.2865" lon="-1.25865">
        <ele>13.7</ele>
        <time>2013-11-17T08:46:03Z</time>
      </trkpt>
      <trkpt lat="47.28638" lon="-1.25836">
        <ele>13.81</ele>
        <time>2013-11-17T08:46:07Z</time>
      </trkpt>
      <trkpt lat="47.2863" lon="-1.2581">
        <ele>14.42</ele>
        <time>2013-11-17T08:46:11Z</time>
      </trkpt>
      <trkpt lat="47.28621" lon="-1.25785">
        <ele>15.78</ele>
        <time>2013-11-17T08:46:15Z</time>
      </trkpt>
      <trkpt lat="47.28608" lon="-1.25759">
        <ele>16.93</ele>
        <time>2013-11-17T08:46:20Z</time>
      </trkpt>
      <trkpt lat="47.28588" lon="-1.25761">
        <ele>12.4</ele>
        <time>2013-11-17T08:46:27Z</time>
      </trkpt>
      <trkpt lat="47.28579" lon="-1.25785">
        <ele>11.72</ele>
        <time>2013-11-17T08:46:30Z</time>
      </trkpt>
      <trkpt lat="47.28567" lon="-1.25813">
        <ele>11.24</ele>
        <time>2013-11-17T08:46:33Z</time>
      </trkpt>
      <trkpt lat="47.28556" lon="-1.2584">
        <ele>10.57</ele>
        <time>2013-11-17T08:46:36Z</time>
      </trkpt>
      <trkpt lat="47.28545" lon="-1.2587">
        <ele>9.66</ele>
        <time>2013-11-17T08:46:39Z</time>
      </trkpt>
      <trkpt lat="47.28533" lon="-1.25897">
        <ele>8.84</ele>
        <time>2013-11-17T08:46:42Z</time>
      </trkpt>
      <trkpt lat="47.28518" lon="-1.25918">
        <ele>8.28</ele>
        <time>2013-11-17T08:46:45Z</time>
      </trkpt>
      <trkpt lat="47.28498" lon="-1.25936">
        <ele>7.79</ele>
        <time>2013-11-17T08:46:48Z</time>
      </trkpt>
      <trkpt lat="47.28475" lon="-1.25945">
        <ele>7</ele>
        <time>2013-11-17T08:46:51Z</time>
      </trkpt>
      <trkpt lat="47.28455" lon="-1.25951">
        <ele>5.02</ele>
        <time>2013-11-17T08:46:54Z</time>
      </trkpt>
      <trkpt lat="47.28436" lon="-1.25964">
        <ele>3.75</ele>
        <time>2013-11-17T08:46:58Z</time>
      </trkpt>
      <trkpt lat="47.2842" lon="-1.25982">
        <ele>2.1</ele>
        <time>2013-11-17T08:47:03Z</time>
      </trkpt>
      <trkpt lat="47.28409" lon="-1.26004">
        <ele>-0.64</ele>
        <time>2013-11-17T08:47:14Z</time>
      </trkpt>
      <trkpt lat="47.28399" lon="-1.26039">
        <ele>0.61</ele>
        <time>2013-11-17T08:47:20Z</time>
      </trkpt>
      <trkpt lat="47.28394" lon="-1.26064">
        <ele>3.9</ele>
        <time>2013-11-17T08:47:33Z</time>
      </trkpt>
      <trkpt lat="47.28383" lon="-1.26086">
        <ele>5.42</ele>
        <time>2013-11-17T08:47:42Z</time>
      </trkpt>
      <trkpt lat="47.28366" lon="-1.26098">
        <ele>5.27</ele>
        <time>2013-11-17T08:47:46Z</time>
      </trkpt>
      <trkpt lat="47.2835" lon="-1.26111">
        <ele>5.66</ele>
        <time>2013-11-17T08:47:51Z</time>
      </trkpt>
      <trkpt lat="47.28334" lon="-1.26124">
        <ele>5.66</ele>
        <time>2013-11-17T08:47:56Z</time>
      </trkpt>
      <trkpt lat="47.28312" lon="-1.26132">
        <ele>5.07</ele>
        <time>2013-11-17T08:48:02Z</time>
      </trkpt>
      <trkpt lat="47.28304" lon="-1.26108">
        <ele>4.14</ele>
        <time>2013-11-17T08:48:25Z</time>
      </trkpt>
      <trkpt lat="47.28301" lon="-1.2608">
        <ele>5.74</ele>
        <time>2013-11-17T08:48:36Z</time>
      </trkpt>
      <trkpt lat="47.28288" lon="-1.26058">
        <ele>7.74</ele>
        <time>2013-11-17T08:48:42Z</time>
      </trkpt>
      <trkpt lat="47.28272" lon="-1.26045">
        <ele>9.11</ele>
        <time>2013-11-17T08:48:48Z</time>
      </trkpt>
      <trkpt lat="47.28267" lon="-1.26015">
        <ele>8.38</ele>
        <time>2013-11-17T08:48:54Z</time>
      </trkpt>
      <trkpt lat="47.28255" lon="-1.25987">
        <ele>7.83</ele>
        <time>2013-11-17T08:48:58Z</time>
      </trkpt>
      <trkpt lat="47.28246" lon="-1.25961">
        <ele>7.72</ele>
        <time>2013-11-17T08:49:02Z</time>
      </trkpt>
      <trkpt lat="47.28238" lon="-1.25936">
        <ele>8.74</ele>
        <time>2013-11-17T08:49:07Z</time>
      </trkpt>
      <trkpt lat="47.28232" lon="-1.25911">
        <ele>10.36</ele>
        <time>2013-11-17T08:49:13Z</time>
      </trkpt>
      <trkpt lat="47.28218" lon="-1.25891">
        <ele>12.47</ele>
        <time>2013-11-17T08:49:21Z</time>
      </trkpt>
      <trkpt lat="47.28202" lon="-1.25881">
        <ele>15.01</ele>
        <time>2013-11-17T08:49:27Z</time>
      </trkpt>
      <trkpt lat="47.28131" lon="-1.25854">
        <ele>14.63</ele>
        <time>2013-11-17T08:49:28Z</time>
      </trkpt>
      <trkpt lat="47.28113" lon="-1.25847">
        <ele>14.07</ele>
        <time>2013-11-17T08:49:36Z</time>
      </trkpt>
      <trkpt lat="47.28125" lon="-1.25823">
        <ele>10.65</ele>
        <time>2013-11-17T08:49:50Z</time>
      </trkpt>
      <trkpt lat="47.28139" lon="-1.25806">
        <ele>5.49</ele>
        <time>2013-11-17T08:50:05Z</time>
      </trkpt>
      <trkpt lat="47.28122" lon="-1.25792">
        <ele>-13.85</ele>
        <time>2013-11-17T08:54:46Z</time>
      </trkpt>
      <trkpt lat="47.28103" lon="-1.25794">
        <ele>-13.11</ele>
        <time>2013-11-17T08:54:52Z</time>
      </trkpt>
      <trkpt lat="47.28083" lon="-1.25791">
        <ele>-12.24</ele>
        <time>2013-11-17T08:55:00Z</time>
      </trkpt>
      <trkpt lat="47.2806" lon="-1.25772">
        <ele>-11.76</ele>
        <time>2013-11-17T08:55:07Z</time>
      </trkpt>
      <trkpt lat="47.2804" lon="-1.25779">
        <ele>-10.67</ele>
        <time>2013-11-17T08:55:19Z</time>
      </trkpt>
      <trkpt lat="47.28021" lon="-1.25785">
        <ele>-10.76</ele>
        <time>2013-11-17T08:55:26Z</time>
      </trkpt>
      <trkpt lat="47.28004" lon="-1.25795">
        <ele>-11.65</ele>
        <time>2013-11-17T08:55:34Z</time>
      </trkpt>
      <trkpt lat="47.27986" lon="-1.25808">
        <ele>-11.21</ele>
        <time>2013-11-17T08:55:40Z</time>
      </trkpt>
      <trkpt lat="47.2797" lon="-1.25824">
        <ele>-11.02</ele>
        <time>2013-11-17T08:55:47Z</time>
      </trkpt>
      <trkpt lat="47.27953" lon="-1.25837">
        <ele>-10.06</ele>
        <time>2013-11-17T08:55:55Z</time>
      </trkpt>
      <trkpt lat="47.27937" lon="-1.2585">
        <ele>-9.61</ele>
        <time>2013-11-17T08:56:06Z</time>
      </trkpt>
      <trkpt lat="47.27919" lon="-1.25864">
        <ele>-8.35</ele>
        <time>2013-11-17T08:56:16Z</time>
      </trkpt>
      <trkpt lat="47.27902" lon="-1.25877">
        <ele>-6.96</ele>
        <time>2013-11-17T08:56:22Z</time>
      </trkpt>
      <trkpt lat="47.27885" lon="-1.25891">
        <ele>-5.95</ele>
        <time>2013-11-17T08:56:29Z</time>
      </trkpt>
      <trkpt lat="47.2787" lon="-1.25906">
        <ele>-5.9</ele>
        <time>2013-11-17T08:56:38Z</time>
      </trkpt>
      <trkpt lat="47.27855" lon="-1.25926">
        <ele>-6.12</ele>
        <time>2013-11-17T08:56:48Z</time>
      </trkpt>
      <trkpt lat="47.27839" lon="-1.25947">
        <ele>-4.02</ele>
        <time>2013-11-17T08:56:55Z</time>
      </trkpt>
      <trkpt lat="47.2782" lon="-1.25966">
        <ele>-0.79</ele>
        <time>2013-11-17T08:57:00Z</time>
      </trkpt>
      <trkpt lat="47.27803" lon="-1.25977">
        <ele>2.27</ele>
        <time>2013-11-17T08:57:05Z</time>
      </trkpt>
      <trkpt lat="47.27782" lon="-1.2598">
        <ele>4.71</ele>
        <time>2013-11-17T08:57:13Z</time>
      </trkpt>
      <trkpt lat="47.27762" lon="-1.25985">
        <ele>7.05</ele>
        <time>2013-11-17T08:57:20Z</time>
      </trkpt>
      <trkpt lat="47.27742" lon="-1.25988">
        <ele>9.22</ele>
        <time>2013-11-17T08:57:28Z</time>
      </trkpt>
      <trkpt lat="47.27724" lon="-1.2599">
        <ele>11.83</ele>
        <time>2013-11-17T08:57:36Z</time>
      </trkpt>
      <trkpt lat="47.27705" lon="-1.25989">
        <ele>13.69</ele>
        <time>2013-11-17T08:57:44Z</time>
      </trkpt>
      <trkpt lat="47.27686" lon="-1.2599">
        <ele>14.98</ele>
        <time>2013-11-17T08:57:52Z</time>
      </trkpt>
      <trkpt lat="47.27666" lon="-1.25993">
        <ele>15.44</ele>
        <time>2013-11-17T08:58:01Z</time>
      </trkpt>
      <trkpt lat="47.27651" lon="-1.26011">
        <ele>16.15</ele>
        <time>2013-11-17T08:58:09Z</time>
      </trkpt>
      <trkpt lat="47.27633" lon="-1.26026">
        <ele>16.84</ele>
        <time>2013-11-17T08:58:16Z</time>
      </trkpt>
      <trkpt lat="47.27615" lon="-1.26042">
        <ele>17.54</ele>
        <time>2013-11-17T08:58:22Z</time>
      </trkpt>
      <trkpt lat="47.27599" lon="-1.26056">
        <ele>17.77</ele>
        <time>2013-11-17T08:58:27Z</time>
      </trkpt>
      <trkpt lat="47.27583" lon="-1.26069">
        <ele>18.24</ele>
        <time>2013-11-17T08:58:33Z</time>
      </trkpt>
      <trkpt lat="47.27564" lon="-1.26058">
        <ele>18.5</ele>
        <time>2013-11-17T08:58:39Z</time>
      </trkpt>
      <trkpt lat="47.27547" lon="-1.26047">
        <ele>18.34</ele>
        <time>2013-11-17T08:58:45Z</time>
      </trkpt>
      <trkpt lat="47.27529" lon="-1.26031">
        <ele>18.44</ele>
        <time>2013-11-17T08:58:51Z</time>
      </trkpt>
      <trkpt lat="47.27513" lon="-1.26019">
        <ele>17.68</ele>
        <time>2013-11-17T08:58:56Z</time>
      </trkpt>
      <trkpt lat="47.27494" lon="-1.26009">
        <ele>17.61</ele>
        <time>2013-11-17T08:59:02Z</time>
      </trkpt>
      <trkpt lat="47.27475" lon="-1.26">
        <ele>17.5</ele>
        <time>2013-11-17T08:59:08Z</time>
      </trkpt>
      <trkpt lat="47.27455" lon="-1.25995">
        <ele>18.34</ele>
        <time>2013-11-17T08:59:16Z</time>
      </trkpt>
      <trkpt lat="47.27433" lon="-1.25991">
        <ele>20.06</ele>
        <time>2013-11-17T08:59:22Z</time>
      </trkpt>
      <trkpt lat="47.27419" lon="-1.25976">
        <ele>22.36</ele>
        <time>2013-11-17T08:59:27Z</time>
      </trkpt>
      <trkpt lat="47.27404" lon="-1.25955">
        <ele>25.44</ele>
        <time>2013-11-17T08:59:33Z</time>
      </trkpt>
      <trkpt lat="47.27388" lon="-1.2594">
        <ele>28.51</ele>
        <time>2013-11-17T08:59:39Z</time>
      </trkpt>
      <trkpt lat="47.27372" lon="-1.25922">
        <ele>31.61</ele>
        <time>2013-11-17T08:59:45Z</time>
      </trkpt>
      <trkpt lat="47.27356" lon="-1.25902">
        <ele>34.25</ele>
        <time>2013-11-17T08:59:51Z</time>
      </trkpt>
      <trkpt lat="47.2734" lon="-1.25886">
        <ele>38.14</ele>
        <time>2013-11-17T08:59:57Z</time>
      </trkpt>
      <trkpt lat="47.27323" lon="-1.25868">
        <ele>41.37</ele>
        <time>2013-11-17T09:00:03Z</time>
      </trkpt>
      <trkpt lat="47.27307" lon="-1.25855">
        <ele>44.25</ele>
        <time>2013-11-17T09:00:08Z</time>
      </trkpt>
      <trkpt lat="47.27292" lon="-1.25841">
        <ele>46.87</ele>
        <time>2013-11-17T09:00:13Z</time>
      </trkpt>
      <trkpt lat="47.27277" lon="-1.25824">
        <ele>48.99</ele>
        <time>2013-11-17T09:00:18Z</time>
      </trkpt>
      <trkpt lat="47.27262" lon="-1.25803">
        <ele>51.98</ele>
        <time>2013-11-17T09:00:24Z</time>
      </trkpt>
      <trkpt lat="47.27245" lon="-1.25783">
        <ele>54.47</ele>
        <time>2013-11-17T09:00:30Z</time>
      </trkpt>
      <trkpt lat="47.27229" lon="-1.25762">
        <ele>55.77</ele>
        <time>2013-11-17T09:00:36Z</time>
      </trkpt>
      <trkpt lat="47.27216" lon="-1.25744">
        <ele>56.32</ele>
        <time>2013-11-17T09:00:41Z</time>
      </trkpt>
      <trkpt lat="47.27201" lon="-1.2572">
        <ele>56.37</ele>
        <time>2013-11-17T09:00:47Z</time>
      </trkpt>
      <trkpt lat="47.27187" lon="-1.25699">
        <ele>55.91</ele>
        <time>2013-11-17T09:00:52Z</time>
      </trkpt>
      <trkpt lat="47.27172" lon="-1.25678">
        <ele>54.56</ele>
        <time>2013-11-17T09:00:57Z</time>
      </trkpt>
      <trkpt lat="47.27159" lon="-1.25655">
        <ele>54.09</ele>
        <time>2013-11-17T09:01:03Z</time>
      </trkpt>
      <trkpt lat="47.27147" lon="-1.25633">
        <ele>53.49</ele>
        <time>2013-11-17T09:01:08Z</time>
      </trkpt>
      <trkpt lat="47.27131" lon="-1.25612">
        <ele>53.42</ele>
        <time>2013-11-17T09:01:14Z</time>
      </trkpt>
      <trkpt lat="47.2712" lon="-1.25589">
        <ele>53.72</ele>
        <time>2013-11-17T09:01:19Z</time>
      </trkpt>
      <trkpt lat="47.27108" lon="-1.25566">
        <ele>54.85</ele>
        <time>2013-11-17T09:01:24Z</time>
      </trkpt>
      <trkpt lat="47.27102" lon="-1.25538">
        <ele>56.54</ele>
        <time>2013-11-17T09:01:29Z</time>
      </trkpt>
      <trkpt lat="47.27094" lon="-1.25508">
        <ele>58</ele>
        <time>2013-11-17T09:01:34Z</time>
      </trkpt>
      <trkpt lat="47.27089" lon="-1.2548">
        <ele>59.31</ele>
        <time>2013-11-17T09:01:39Z</time>
      </trkpt>
      <trkpt lat="47.27083" lon="-1.25452">
        <ele>59.5</ele>
        <time>2013-11-17T09:01:44Z</time>
      </trkpt>
      <trkpt lat="47.27079" lon="-1.25424">
        <ele>60.42</ele>
        <time>2013-11-17T09:01:50Z</time>
      </trkpt>
      <trkpt lat="47.27073" lon="-1.25394">
        <ele>60.94</ele>
        <time>2013-11-17T09:01:55Z</time>
      </trkpt>
      <trkpt lat="47.2706" lon="-1.25369">
        <ele>61.31</ele>
        <time>2013-11-17T09:02:01Z</time>
      </trkpt>
      <trkpt lat="47.27042" lon="-1.25364">
        <ele>60.86</ele>
        <time>2013-11-17T09:02:06Z</time>
      </trkpt>
      <trkpt lat="47.27022" lon="-1.25363">
        <ele>60.26</ele>
        <time>2013-11-17T09:02:11Z</time>
      </trkpt>
      <trkpt lat="47.27002" lon="-1.25363">
        <ele>59.88</ele>
        <time>2013-11-17T09:02:16Z</time>
      </trkpt>
      <trkpt lat="47.26983" lon="-1.25364">
        <ele>59.26</ele>
        <time>2013-11-17T09:02:21Z</time>
      </trkpt>
      <trkpt lat="47.26964" lon="-1.25364">
        <ele>58.72</ele>
        <time>2013-11-17T09:02:26Z</time>
      </trkpt>
      <trkpt lat="47.26943" lon="-1.25362">
        <ele>57.16</ele>
        <time>2013-11-17T09:02:31Z</time>
      </trkpt>
      <trkpt lat="47.26924" lon="-1.25349">
        <ele>56.22</ele>
        <time>2013-11-17T09:02:36Z</time>
      </trkpt>
      <trkpt lat="47.26915" lon="-1.25321">
        <ele>55.37</ele>
        <time>2013-11-17T09:02:41Z</time>
      </trkpt>
      <trkpt lat="47.2691" lon="-1.25293">
        <ele>54.26</ele>
        <time>2013-11-17T09:02:46Z</time>
      </trkpt>
      <trkpt lat="47.26907" lon="-1.25266">
        <ele>53.33</ele>
        <time>2013-11-17T09:02:51Z</time>
      </trkpt>
      <trkpt lat="47.26903" lon="-1.25238">
        <ele>53.03</ele>
        <time>2013-11-17T09:02:56Z</time>
      </trkpt>
      <trkpt lat="47.269" lon="-1.25209">
        <ele>52.51</ele>
        <time>2013-11-17T09:03:01Z</time>
      </trkpt>
      <trkpt lat="47.26896" lon="-1.25179">
        <ele>52.14</ele>
        <time>2013-11-17T09:03:07Z</time>
      </trkpt>
      <trkpt lat="47.26878" lon="-1.25165">
        <ele>53.21</ele>
        <time>2013-11-17T09:03:13Z</time>
      </trkpt>
      <trkpt lat="47.26859" lon="-1.25167">
        <ele>53.93</ele>
        <time>2013-11-17T09:03:22Z</time>
      </trkpt>
      <trkpt lat="47.26838" lon="-1.25164">
        <ele>50.83</ele>
        <time>2013-11-17T09:03:32Z</time>
      </trkpt>
      <trkpt lat="47.2682" lon="-1.25173">
        <ele>50.38</ele>
        <time>2013-11-17T09:03:35Z</time>
      </trkpt>
      <trkpt lat="47.26799" lon="-1.25179">
        <ele>51.91</ele>
        <time>2013-11-17T09:03:39Z</time>
      </trkpt>
      <trkpt lat="47.2678" lon="-1.25184">
        <ele>54.96</ele>
        <time>2013-11-17T09:03:45Z</time>
      </trkpt>
      <trkpt lat="47.26759" lon="-1.25194">
        <ele>57.38</ele>
        <time>2013-11-17T09:03:49Z</time>
      </trkpt>
      <trkpt lat="47.2674" lon="-1.25203">
        <ele>58.5</ele>
        <time>2013-11-17T09:03:52Z</time>
      </trkpt>
      <trkpt lat="47.26717" lon="-1.25213">
        <ele>58.9</ele>
        <time>2013-11-17T09:03:56Z</time>
      </trkpt>
      <trkpt lat="47.26698" lon="-1.25226">
        <ele>59.49</ele>
        <time>2013-11-17T09:04:00Z</time>
      </trkpt>
      <trkpt lat="47.2668" lon="-1.25244">
        <ele>60.4</ele>
        <time>2013-11-17T09:04:04Z</time>
      </trkpt>
      <trkpt lat="47.26664" lon="-1.25269">
        <ele>59.96</ele>
        <time>2013-11-17T09:04:08Z</time>
      </trkpt>
      <trkpt lat="47.26654" lon="-1.25294">
        <ele>60.79</ele>
        <time>2013-11-17T09:04:12Z</time>
      </trkpt>
      <trkpt lat="47.26634" lon="-1.25315">
        <ele>61.41</ele>
        <time>2013-11-17T09:04:16Z</time>
      </trkpt>
      <trkpt lat="47.26618" lon="-1.25336">
        <ele>61.58</ele>
        <time>2013-11-17T09:04:20Z</time>
      </trkpt>
      <trkpt lat="47.26602" lon="-1.25352">
        <ele>61.81</ele>
        <time>2013-11-17T09:04:24Z</time>
      </trkpt>
      <trkpt lat="47.26583" lon="-1.25367">
        <ele>62.01</ele>
        <time>2013-11-17T09:04:29Z</time>
      </trkpt>
      <trkpt lat="47.26563" lon="-1.2538">
        <ele>62.51</ele>
        <time>2013-11-17T09:04:34Z</time>
      </trkpt>
      <trkpt lat="47.26543" lon="-1.25394">
        <ele>63.38</ele>
        <time>2013-11-17T09:04:40Z</time>
      </trkpt>
      <trkpt lat="47.26526" lon="-1.2541">
        <ele>64.07</ele>
        <time>2013-11-17T09:04:44Z</time>
      </trkpt>
      <trkpt lat="47.26507" lon="-1.25428">
        <ele>64.82</ele>
        <time>2013-11-17T09:04:48Z</time>
      </trkpt>
      <trkpt lat="47.26486" lon="-1.2544">
        <ele>66.2</ele>
        <time>2013-11-17T09:04:52Z</time>
      </trkpt>
      <trkpt lat="47.26467" lon="-1.25433">
        <ele>65.48</ele>
        <time>2013-11-17T09:04:55Z</time>
      </trkpt>
      <trkpt lat="47.2645" lon="-1.25418">
        <ele>58.15</ele>
        <time>2013-11-17T09:04:59Z</time>
      </trkpt>
      <trkpt lat="47.26444" lon="-1.2539">
        <ele>53.7</ele>
        <time>2013-11-17T09:05:05Z</time>
      </trkpt>
      <trkpt lat="47.26421" lon="-1.25389">
        <ele>52.45</ele>
        <time>2013-11-17T09:05:09Z</time>
      </trkpt>
      <trkpt lat="47.26402" lon="-1.25392">
        <ele>51.95</ele>
        <time>2013-11-17T09:05:12Z</time>
      </trkpt>
      <trkpt lat="47.26381" lon="-1.25394">
        <ele>51.89</ele>
        <time>2013-11-17T09:05:15Z</time>
      </trkpt>
      <trkpt lat="47.26361" lon="-1.25392">
        <ele>51.31</ele>
        <time>2013-11-17T09:05:18Z</time>
      </trkpt>
      <trkpt lat="47.26336" lon="-1.25392">
        <ele>49.04</ele>
        <time>2013-11-17T09:05:22Z</time>
      </trkpt>
      <trkpt lat="47.26321" lon="-1.25377">
        <ele>46.24</ele>
        <time>2013-11-17T09:05:30Z</time>
      </trkpt>
      <trkpt lat="47.26328" lon="-1.25347">
        <ele>45.71</ele>
        <time>2013-11-17T09:05:35Z</time>
      </trkpt>
      <trkpt lat="47.26334" lon="-1.25319">
        <ele>45.17</ele>
        <time>2013-11-17T09:05:39Z</time>
      </trkpt>
      <trkpt lat="47.26337" lon="-1.25291">
        <ele>44.79</ele>
        <time>2013-11-17T09:05:43Z</time>
      </trkpt>
      <trkpt lat="47.26339" lon="-1.25263">
        <ele>44.41</ele>
        <time>2013-11-17T09:05:47Z</time>
      </trkpt>
      <trkpt lat="47.2634" lon="-1.25233">
        <ele>44</ele>
        <time>2013-11-17T09:05:52Z</time>
      </trkpt>
      <trkpt lat="47.26326" lon="-1.25213">
        <ele>41.34</ele>
        <time>2013-11-17T09:06:03Z</time>
      </trkpt>
      <trkpt lat="47.26308" lon="-1.25204">
        <ele>40.8</ele>
        <time>2013-11-17T09:06:15Z</time>
      </trkpt>
      <trkpt lat="47.26291" lon="-1.25188">
        <ele>41.36</ele>
        <time>2013-11-17T09:06:30Z</time>
      </trkpt>
      <trkpt lat="47.26273" lon="-1.25179">
        <ele>42.8</ele>
        <time>2013-11-17T09:06:36Z</time>
      </trkpt>
      <trkpt lat="47.26254" lon="-1.25169">
        <ele>44.41</ele>
        <time>2013-11-17T09:06:41Z</time>
      </trkpt>
      <trkpt lat="47.26238" lon="-1.25156">
        <ele>45.53</ele>
        <time>2013-11-17T09:06:47Z</time>
      </trkpt>
      <trkpt lat="47.26222" lon="-1.25141">
        <ele>46.48</ele>
        <time>2013-11-17T09:06:53Z</time>
      </trkpt>
      <trkpt lat="47.26207" lon="-1.25126">
        <ele>46.9</ele>
        <time>2013-11-17T09:06:59Z</time>
      </trkpt>
      <trkpt lat="47.26192" lon="-1.2511">
        <ele>46.73</ele>
        <time>2013-11-17T09:07:05Z</time>
      </trkpt>
      <trkpt lat="47.26177" lon="-1.25094">
        <ele>47.37</ele>
        <time>2013-11-17T09:07:12Z</time>
      </trkpt>
      <trkpt lat="47.26161" lon="-1.25079">
        <ele>47.63</ele>
        <time>2013-11-17T09:07:20Z</time>
      </trkpt>
      <trkpt lat="47.26145" lon="-1.25064">
        <ele>47.74</ele>
        <time>2013-11-17T09:07:27Z</time>
      </trkpt>
      <trkpt lat="47.26128" lon="-1.25052">
        <ele>47.76</ele>
        <time>2013-11-17T09:07:37Z</time>
      </trkpt>
      <trkpt lat="47.26114" lon="-1.25028">
        <ele>46.77</ele>
        <time>2013-11-17T09:07:46Z</time>
      </trkpt>
      <trkpt lat="47.26098" lon="-1.2501">
        <ele>45.13</ele>
        <time>2013-11-17T09:07:53Z</time>
      </trkpt>
      <trkpt lat="47.26084" lon="-1.24991">
        <ele>44.56</ele>
        <time>2013-11-17T09:07:59Z</time>
      </trkpt>
      <trkpt lat="47.2607" lon="-1.24972">
        <ele>43.97</ele>
        <time>2013-11-17T09:08:04Z</time>
      </trkpt>
      <trkpt lat="47.26054" lon="-1.24958">
        <ele>43.09</ele>
        <time>2013-11-17T09:08:09Z</time>
      </trkpt>
      <trkpt lat="47.26037" lon="-1.24942">
        <ele>41.84</ele>
        <time>2013-11-17T09:08:15Z</time>
      </trkpt>
      <trkpt lat="47.26021" lon="-1.24928">
        <ele>40.08</ele>
        <time>2013-11-17T09:08:21Z</time>
      </trkpt>
      <trkpt lat="47.26002" lon="-1.24918">
        <ele>39.32</ele>
        <time>2013-11-17T09:08:26Z</time>
      </trkpt>
      <trkpt lat="47.25981" lon="-1.24909">
        <ele>38.2</ele>
        <time>2013-11-17T09:08:31Z</time>
      </trkpt>
      <trkpt lat="47.25963" lon="-1.24902">
        <ele>37.9</ele>
        <time>2013-11-17T09:08:36Z</time>
      </trkpt>
      <trkpt lat="47.25943" lon="-1.24894">
        <ele>37.15</ele>
        <time>2013-11-17T09:08:42Z</time>
      </trkpt>
      <trkpt lat="47.25924" lon="-1.24897">
        <ele>35.85</ele>
        <time>2013-11-17T09:08:47Z</time>
      </trkpt>
      <trkpt lat="47.25905" lon="-1.24912">
        <ele>35.1</ele>
        <time>2013-11-17T09:08:52Z</time>
      </trkpt>
      <trkpt lat="47.25889" lon="-1.2493">
        <ele>34.43</ele>
        <time>2013-11-17T09:08:56Z</time>
      </trkpt>
      <trkpt lat="47.25873" lon="-1.2495">
        <ele>33.62</ele>
        <time>2013-11-17T09:09:00Z</time>
      </trkpt>
      <trkpt lat="47.25859" lon="-1.24967">
        <ele>33.11</ele>
        <time>2013-11-17T09:09:03Z</time>
      </trkpt>
      <trkpt lat="47.25844" lon="-1.24985">
        <ele>32.44</ele>
        <time>2013-11-17T09:09:06Z</time>
      </trkpt>
      <trkpt lat="47.25826" lon="-1.25004">
        <ele>31.92</ele>
        <time>2013-11-17T09:09:09Z</time>
      </trkpt>
      <trkpt lat="47.25811" lon="-1.25023">
        <ele>31.56</ele>
        <time>2013-11-17T09:09:12Z</time>
      </trkpt>
      <trkpt lat="47.25796" lon="-1.25041">
        <ele>31.01</ele>
        <time>2013-11-17T09:09:15Z</time>
      </trkpt>
      <trkpt lat="47.2578" lon="-1.25058">
        <ele>30.51</ele>
        <time>2013-11-17T09:09:19Z</time>
      </trkpt>
      <trkpt lat="47.25757" lon="-1.25069">
        <ele>30.07</ele>
        <time>2013-11-17T09:09:23Z</time>
      </trkpt>
      <trkpt lat="47.25739" lon="-1.25075">
        <ele>29.61</ele>
        <time>2013-11-17T09:09:26Z</time>
      </trkpt>
      <trkpt lat="47.25719" lon="-1.2508">
        <ele>29.61</ele>
        <time>2013-11-17T09:09:29Z</time>
      </trkpt>
      <trkpt lat="47.25698" lon="-1.25093">
        <ele>30.29</ele>
        <time>2013-11-17T09:09:33Z</time>
      </trkpt>
      <trkpt lat="47.25678" lon="-1.25111">
        <ele>30.19</ele>
        <time>2013-11-17T09:09:37Z</time>
      </trkpt>
      <trkpt lat="47.25659" lon="-1.25127">
        <ele>29.31</ele>
        <time>2013-11-17T09:09:41Z</time>
      </trkpt>
      <trkpt lat="47.25642" lon="-1.25141">
        <ele>28.48</ele>
        <time>2013-11-17T09:09:44Z</time>
      </trkpt>
      <trkpt lat="47.25622" lon="-1.25155">
        <ele>27.82</ele>
        <time>2013-11-17T09:09:48Z</time>
      </trkpt>
      <trkpt lat="47.25604" lon="-1.25171">
        <ele>26.36</ele>
        <time>2013-11-17T09:09:53Z</time>
      </trkpt>
      <trkpt lat="47.25593" lon="-1.25196">
        <ele>23.61</ele>
        <time>2013-11-17T09:09:57Z</time>
      </trkpt>
      <trkpt lat="47.2558" lon="-1.25217">
        <ele>21.17</ele>
        <time>2013-11-17T09:10:01Z</time>
      </trkpt>
      <trkpt lat="47.25565" lon="-1.25241">
        <ele>18.74</ele>
        <time>2013-11-17T09:10:05Z</time>
      </trkpt>
      <trkpt lat="47.25551" lon="-1.25258">
        <ele>16.48</ele>
        <time>2013-11-17T09:10:08Z</time>
      </trkpt>
      <trkpt lat="47.25537" lon="-1.25276">
        <ele>11.86</ele>
        <time>2013-11-17T09:10:14Z</time>
      </trkpt>
      <trkpt lat="47.25521" lon="-1.25289">
        <ele>7.76</ele>
        <time>2013-11-17T09:10:25Z</time>
      </trkpt>
      <trkpt lat="47.25506" lon="-1.25304">
        <ele>3.87</ele>
        <time>2013-11-17T09:10:36Z</time>
      </trkpt>
      <trkpt lat="47.25488" lon="-1.25318">
        <ele>1.01</ele>
        <time>2013-11-17T09:10:59Z</time>
      </trkpt>
      <trkpt lat="47.25469" lon="-1.25323">
        <ele>-0.09</ele>
        <time>2013-11-17T09:11:07Z</time>
      </trkpt>
      <trkpt lat="47.25452" lon="-1.25334">
        <ele>-0.19</ele>
        <time>2013-11-17T09:11:16Z</time>
      </trkpt>
      <trkpt lat="47.25434" lon="-1.25342">
        <ele>-0.61</ele>
        <time>2013-11-17T09:11:22Z</time>
      </trkpt>
      <trkpt lat="47.25415" lon="-1.25355">
        <ele>-1.3</ele>
        <time>2013-11-17T09:11:28Z</time>
      </trkpt>
      <trkpt lat="47.25399" lon="-1.2537">
        <ele>-2.03</ele>
        <time>2013-11-17T09:11:32Z</time>
      </trkpt>
      <trkpt lat="47.25384" lon="-1.25386">
        <ele>-1.74</ele>
        <time>2013-11-17T09:11:37Z</time>
      </trkpt>
      <trkpt lat="47.25373" lon="-1.25409">
        <ele>-0.43</ele>
        <time>2013-11-17T09:11:45Z</time>
      </trkpt>
      <trkpt lat="47.2536" lon="-1.25433">
        <ele>2.05</ele>
        <time>2013-11-17T09:11:52Z</time>
      </trkpt>
      <trkpt lat="47.25354" lon="-1.25459">
        <ele>2.21</ele>
        <time>2013-11-17T09:11:58Z</time>
      </trkpt>
      <trkpt lat="47.25343" lon="-1.25481">
        <ele>-1.53</ele>
        <time>2013-11-17T09:12:11Z</time>
      </trkpt>
      <trkpt lat="47.25323" lon="-1.25486">
        <ele>-5.13</ele>
        <time>2013-11-17T09:12:37Z</time>
      </trkpt>
      <trkpt lat="47.25305" lon="-1.25493">
        <ele>-5.61</ele>
        <time>2013-11-17T09:12:43Z</time>
      </trkpt>
      <trkpt lat="47.25285" lon="-1.25499">
        <ele>-6.47</ele>
        <time>2013-11-17T09:12:50Z</time>
      </trkpt>
      <trkpt lat="47.25266" lon="-1.25505">
        <ele>-6.95</ele>
        <time>2013-11-17T09:12:57Z</time>
      </trkpt>
      <trkpt lat="47.25248" lon="-1.25511">
        <ele>-7.35</ele>
        <time>2013-11-17T09:13:03Z</time>
      </trkpt>
      <trkpt lat="47.25229" lon="-1.25519">
        <ele>-6.96</ele>
        <time>2013-11-17T09:13:09Z</time>
      </trkpt>
      <trkpt lat="47.25209" lon="-1.25512">
        <ele>-9.91</ele>
        <time>2013-11-17T09:13:14Z</time>
      </trkpt>
      <trkpt lat="47.25188" lon="-1.25511">
        <ele>-14.42</ele>
        <time>2013-11-17T09:13:17Z</time>
      </trkpt>
      <trkpt lat="47.25167" lon="-1.25518">
        <ele>-16.55</ele>
        <time>2013-11-17T09:13:22Z</time>
      </trkpt>
      <trkpt lat="47.25147" lon="-1.25526">
        <ele>-16.83</ele>
        <time>2013-11-17T09:13:27Z</time>
      </trkpt>
      <trkpt lat="47.25126" lon="-1.25525">
        <ele>-15.14</ele>
        <time>2013-11-17T09:13:32Z</time>
      </trkpt>
      <trkpt lat="47.25108" lon="-1.25517">
        <ele>-14.98</ele>
        <time>2013-11-17T09:13:36Z</time>
      </trkpt>
      <trkpt lat="47.2509" lon="-1.25506">
        <ele>-15.56</ele>
        <time>2013-11-17T09:13:41Z</time>
      </trkpt>
      <trkpt lat="47.25072" lon="-1.25499">
        <ele>-15.09</ele>
        <time>2013-11-17T09:13:46Z</time>
      </trkpt>
      <trkpt lat="47.25053" lon="-1.25505">
        <ele>-14.57</ele>
        <time>2013-11-17T09:13:51Z</time>
      </trkpt>
      <trkpt lat="47.25035" lon="-1.25518">
        <ele>-14.98</ele>
        <time>2013-11-17T09:13:57Z</time>
      </trkpt>
      <trkpt lat="47.25026" lon="-1.25543">
        <ele>-16.18</ele>
        <time>2013-11-17T09:14:03Z</time>
      </trkpt>
      <trkpt lat="47.25024" lon="-1.2557">
        <ele>-16</ele>
        <time>2013-11-17T09:14:09Z</time>
      </trkpt>
      <trkpt lat="47.2502" lon="-1.25601">
        <ele>-15.63</ele>
        <time>2013-11-17T09:14:16Z</time>
      </trkpt>
      <trkpt lat="47.25017" lon="-1.25628">
        <ele>-15.4</ele>
        <time>2013-11-17T09:14:21Z</time>
      </trkpt>
      <trkpt lat="47.25007" lon="-1.25658">
        <ele>-15.3</ele>
        <time>2013-11-17T09:14:27Z</time>
      </trkpt>
      <trkpt lat="47.25" lon="-1.25684">
        <ele>-15.19</ele>
        <time>2013-11-17T09:14:31Z</time>
      </trkpt>
      <trkpt lat="47.2499" lon="-1.25713">
        <ele>-14.95</ele>
        <time>2013-11-17T09:14:36Z</time>
      </trkpt>
      <trkpt lat="47.2498" lon="-1.25739">
        <ele>-15.03</ele>
        <time>2013-11-17T09:14:41Z</time>
      </trkpt>
      <trkpt lat="47.24971" lon="-1.25767">
        <ele>-14.9</ele>
        <time>2013-11-17T09:14:46Z</time>
      </trkpt>
      <trkpt lat="47.24964" lon="-1.25795">
        <ele>-14.83</ele>
        <time>2013-11-17T09:14:51Z</time>
      </trkpt>
      <trkpt lat="47.24955" lon="-1.25825">
        <ele>-14.51</ele>
        <time>2013-11-17T09:14:56Z</time>
      </trkpt>
      <trkpt lat="47.24947" lon="-1.25849">
        <ele>-14.16</ele>
        <time>2013-11-17T09:15:00Z</time>
      </trkpt>
      <trkpt lat="47.24937" lon="-1.25877">
        <ele>-13.87</ele>
        <time>2013-11-17T09:15:05Z</time>
      </trkpt>
      <trkpt lat="47.24927" lon="-1.259">
        <ele>-13.46</ele>
        <time>2013-11-17T09:15:09Z</time>
      </trkpt>
      <trkpt lat="47.24917" lon="-1.25926">
        <ele>-13.03</ele>
        <time>2013-11-17T09:15:14Z</time>
      </trkpt>
      <trkpt lat="47.24906" lon="-1.25949">
        <ele>-12.48</ele>
        <time>2013-11-17T09:15:18Z</time>
      </trkpt>
      <trkpt lat="47.24894" lon="-1.25975">
        <ele>-11.71</ele>
        <time>2013-11-17T09:15:23Z</time>
      </trkpt>
      <trkpt lat="47.24879" lon="-1.25991">
        <ele>-10.89</ele>
        <time>2013-11-17T09:15:27Z</time>
      </trkpt>
      <trkpt lat="47.24863" lon="-1.26014">
        <ele>-10.57</ele>
        <time>2013-11-17T09:15:32Z</time>
      </trkpt>
      <trkpt lat="47.24846" lon="-1.26029">
        <ele>-10.08</ele>
        <time>2013-11-17T09:15:36Z</time>
      </trkpt>
      <trkpt lat="47.24829" lon="-1.26048">
        <ele>-9.6</ele>
        <time>2013-11-17T09:15:40Z</time>
      </trkpt>
      <trkpt lat="47.24812" lon="-1.26065">
        <ele>-8.45</ele>
        <time>2013-11-17T09:15:44Z</time>
      </trkpt>
      <trkpt lat="47.24793" lon="-1.26084">
        <ele>-7.57</ele>
        <time>2013-11-17T09:15:48Z</time>
      </trkpt>
      <trkpt lat="47.24775" lon="-1.26106">
        <ele>-7.13</ele>
        <time>2013-11-17T09:15:52Z</time>
      </trkpt>
      <trkpt lat="47.24757" lon="-1.26129">
        <ele>-6.89</ele>
        <time>2013-11-17T09:15:56Z</time>
      </trkpt>
      <trkpt lat="47.24744" lon="-1.26146">
        <ele>-6.77</ele>
        <time>2013-11-17T09:15:59Z</time>
      </trkpt>
      <trkpt lat="47.24731" lon="-1.26165">
        <ele>-6.68</ele>
        <time>2013-11-17T09:16:02Z</time>
      </trkpt>
      <trkpt lat="47.24715" lon="-1.2619">
        <ele>-6.97</ele>
        <time>2013-11-17T09:16:06Z</time>
      </trkpt>
      <trkpt lat="47.247" lon="-1.26206">
        <ele>-7.19</ele>
        <time>2013-11-17T09:16:09Z</time>
      </trkpt>
      <trkpt lat="47.24682" lon="-1.2622">
        <ele>-7.14</ele>
        <time>2013-11-17T09:16:13Z</time>
      </trkpt>
      <trkpt lat="47.24676" lon="-1.26245">
        <ele>-9.73</ele>
        <time>2013-11-17T09:16:18Z</time>
      </trkpt>
      <trkpt lat="47.24683" lon="-1.2627">
        <ele>-10.11</ele>
        <time>2013-11-17T09:16:22Z</time>
      </trkpt>
      <trkpt lat="47.24691" lon="-1.26297">
        <ele>-10.44</ele>
        <time>2013-11-17T09:16:26Z</time>
      </trkpt>
      <trkpt lat="47.24696" lon="-1.26327">
        <ele>-10.84</ele>
        <time>2013-11-17T09:16:30Z</time>
      </trkpt>
      <trkpt lat="47.24699" lon="-1.26354">
        <ele>-11.01</ele>
        <time>2013-11-17T09:16:34Z</time>
      </trkpt>
      <trkpt lat="47.247" lon="-1.26384">
        <ele>-11.27</ele>
        <time>2013-11-17T09:16:39Z</time>
      </trkpt>
      <trkpt lat="47.247" lon="-1.26412">
        <ele>-11.7</ele>
        <time>2013-11-17T09:16:44Z</time>
      </trkpt>
      <trkpt lat="47.24698" lon="-1.2644">
        <ele>-12.56</ele>
        <time>2013-11-17T09:16:50Z</time>
      </trkpt>
      <trkpt lat="47.24694" lon="-1.26472">
        <ele>-12.87</ele>
        <time>2013-11-17T09:16:55Z</time>
      </trkpt>
      <trkpt lat="47.24691" lon="-1.26501">
        <ele>-13.17</ele>
        <time>2013-11-17T09:17:00Z</time>
      </trkpt>
      <trkpt lat="47.2469" lon="-1.26536">
        <ele>-13.5</ele>
        <time>2013-11-17T09:17:04Z</time>
      </trkpt>
      <trkpt lat="47.24693" lon="-1.26564">
        <ele>-13.67</ele>
        <time>2013-11-17T09:17:07Z</time>
      </trkpt>
      <trkpt lat="47.24694" lon="-1.26599">
        <ele>-14.1</ele>
        <time>2013-11-17T09:17:11Z</time>
      </trkpt>
      <trkpt lat="47.24691" lon="-1.26628">
        <ele>-17.5</ele>
        <time>2013-11-17T09:17:13Z</time>
      </trkpt>
      <trkpt lat="47.24671" lon="-1.26631">
        <ele>-17.64</ele>
        <time>2013-11-17T09:17:17Z</time>
      </trkpt>
      <trkpt lat="47.24649" lon="-1.26636">
        <ele>-16.58</ele>
        <time>2013-11-17T09:17:22Z</time>
      </trkpt>
      <trkpt lat="47.24644" lon="-1.26666">
        <ele>-16.42</ele>
        <time>2013-11-17T09:17:27Z</time>
      </trkpt>
      <trkpt lat="47.24643" lon="-1.26692">
        <ele>-16.26</ele>
        <time>2013-11-17T09:17:31Z</time>
      </trkpt>
      <trkpt lat="47.24643" lon="-1.26721">
        <ele>-16.18</ele>
        <time>2013-11-17T09:17:35Z</time>
      </trkpt>
      <trkpt lat="47.24644" lon="-1.26751">
        <ele>-15.97</ele>
        <time>2013-11-17T09:17:39Z</time>
      </trkpt>
      <trkpt lat="47.24646" lon="-1.26777">
        <ele>-15.95</ele>
        <time>2013-11-17T09:17:43Z</time>
      </trkpt>
      <trkpt lat="47.24645" lon="-1.26806">
        <ele>-15.86</ele>
        <time>2013-11-17T09:17:48Z</time>
      </trkpt>
      <trkpt lat="47.24644" lon="-1.26836">
        <ele>-16.06</ele>
        <time>2013-11-17T09:17:53Z</time>
      </trkpt>
      <trkpt lat="47.24644" lon="-1.26867">
        <ele>-16.15</ele>
        <time>2013-11-17T09:17:58Z</time>
      </trkpt>
      <trkpt lat="47.24644" lon="-1.26899">
        <ele>-15.87</ele>
        <time>2013-11-17T09:18:03Z</time>
      </trkpt>
      <trkpt lat="47.24644" lon="-1.26929">
        <ele>-15.66</ele>
        <time>2013-11-17T09:18:08Z</time>
      </trkpt>
      <trkpt lat="47.24642" lon="-1.26961">
        <ele>-15.37</ele>
        <time>2013-11-17T09:18:13Z</time>
      </trkpt>
      <trkpt lat="47.2464" lon="-1.26993">
        <ele>-14.67</ele>
        <time>2013-11-17T09:18:18Z</time>
      </trkpt>
      <trkpt lat="47.24637" lon="-1.27024">
        <ele>-13.71</ele>
        <time>2013-11-17T09:18:23Z</time>
      </trkpt>
      <trkpt lat="47.24634" lon="-1.27056">
        <ele>-13.22</ele>
        <time>2013-11-17T09:18:28Z</time>
      </trkpt>
      <trkpt lat="47.24631" lon="-1.27083">
        <ele>-12.84</ele>
        <time>2013-11-17T09:18:32Z</time>
      </trkpt>
      <trkpt lat="47.24628" lon="-1.27115">
        <ele>-12.55</ele>
        <time>2013-11-17T09:18:37Z</time>
      </trkpt>
      <trkpt lat="47.24623" lon="-1.27146">
        <ele>-11.92</ele>
        <time>2013-11-17T09:18:42Z</time>
      </trkpt>
      <trkpt lat="47.24619" lon="-1.27177">
        <ele>-11.3</ele>
        <time>2013-11-17T09:18:47Z</time>
      </trkpt>
      <trkpt lat="47.24615" lon="-1.27208">
        <ele>-10.7</ele>
        <time>2013-11-17T09:18:52Z</time>
      </trkpt>
      <trkpt lat="47.24616" lon="-1.27236">
        <ele>-10.69</ele>
        <time>2013-11-17T09:18:56Z</time>
      </trkpt>
      <trkpt lat="47.24619" lon="-1.27264">
        <ele>-10.59</ele>
        <time>2013-11-17T09:19:01Z</time>
      </trkpt>
      <trkpt lat="47.24625" lon="-1.27294">
        <ele>-10.7</ele>
        <time>2013-11-17T09:19:06Z</time>
      </trkpt>
      <trkpt lat="47.24632" lon="-1.27318">
        <ele>-9.91</ele>
        <time>2013-11-17T09:19:11Z</time>
      </trkpt>
      <trkpt lat="47.24646" lon="-1.27341">
        <ele>-9.71</ele>
        <time>2013-11-17T09:19:18Z</time>
      </trkpt>
      <trkpt lat="47.2466" lon="-1.27365">
        <ele>-9.09</ele>
        <time>2013-11-17T09:19:25Z</time>
      </trkpt>
      <trkpt lat="47.24671" lon="-1.27387">
        <ele>-8.37</ele>
        <time>2013-11-17T09:19:30Z</time>
      </trkpt>
      <trkpt lat="47.24682" lon="-1.27411">
        <ele>-7.56</ele>
        <time>2013-11-17T09:19:35Z</time>
      </trkpt>
      <trkpt lat="47.24693" lon="-1.27439">
        <ele>-6.29</ele>
        <time>2013-11-17T09:19:41Z</time>
      </trkpt>
      <trkpt lat="47.24703" lon="-1.27463">
        <ele>-5.97</ele>
        <time>2013-11-17T09:19:45Z</time>
      </trkpt>
      <trkpt lat="47.24713" lon="-1.27488">
        <ele>-5.2</ele>
        <time>2013-11-17T09:19:50Z</time>
      </trkpt>
      <trkpt lat="47.24726" lon="-1.27512">
        <ele>-5.08</ele>
        <time>2013-11-17T09:19:55Z</time>
      </trkpt>
      <trkpt lat="47.24737" lon="-1.27538">
        <ele>-5.45</ele>
        <time>2013-11-17T09:20:01Z</time>
      </trkpt>
      <trkpt lat="47.24749" lon="-1.27564">
        <ele>-3.85</ele>
        <time>2013-11-17T09:20:07Z</time>
      </trkpt>
      <trkpt lat="47.24761" lon="-1.27588">
        <ele>-3.78</ele>
        <time>2013-11-17T09:20:12Z</time>
      </trkpt>
      <trkpt lat="47.24771" lon="-1.27613">
        <ele>-3.5</ele>
        <time>2013-11-17T09:20:17Z</time>
      </trkpt>
      <trkpt lat="47.24784" lon="-1.27634">
        <ele>-0.72</ele>
        <time>2013-11-17T09:20:24Z</time>
      </trkpt>
      <trkpt lat="47.24796" lon="-1.27659">
        <ele>2.04</ele>
        <time>2013-11-17T09:20:30Z</time>
      </trkpt>
      <trkpt lat="47.24804" lon="-1.27686">
        <ele>3.14</ele>
        <time>2013-11-17T09:20:35Z</time>
      </trkpt>
      <trkpt lat="47.2481" lon="-1.27711">
        <ele>3.99</ele>
        <time>2013-11-17T09:20:40Z</time>
      </trkpt>
      <trkpt lat="47.24816" lon="-1.27738">
        <ele>4.06</ele>
        <time>2013-11-17T09:20:46Z</time>
      </trkpt>
      <trkpt lat="47.24822" lon="-1.27764">
        <ele>4.77</ele>
        <time>2013-11-17T09:20:53Z</time>
      </trkpt>
      <trkpt lat="47.24829" lon="-1.27791">
        <ele>7.53</ele>
        <time>2013-11-17T09:21:02Z</time>
      </trkpt>
      <trkpt lat="47.24834" lon="-1.27822">
        <ele>11.91</ele>
        <time>2013-11-17T09:21:09Z</time>
      </trkpt>
      <trkpt lat="47.24837" lon="-1.27851">
        <ele>13.8</ele>
        <time>2013-11-17T09:21:13Z</time>
      </trkpt>
      <trkpt lat="47.24839" lon="-1.27883">
        <ele>14.53</ele>
        <time>2013-11-17T09:21:18Z</time>
      </trkpt>
      <trkpt lat="47.24842" lon="-1.2791">
        <ele>16.78</ele>
        <time>2013-11-17T09:21:25Z</time>
      </trkpt>
      <trkpt lat="47.24847" lon="-1.27937">
        <ele>17.45</ele>
        <time>2013-11-17T09:21:34Z</time>
      </trkpt>
      <trkpt lat="47.24858" lon="-1.27958">
        <ele>16.42</ele>
        <time>2013-11-17T09:21:45Z</time>
      </trkpt>
      <trkpt lat="47.24863" lon="-1.2799">
        <ele>15.45</ele>
        <time>2013-11-17T09:21:51Z</time>
      </trkpt>
      <trkpt lat="47.24867" lon="-1.28023">
        <ele>15.6</ele>
        <time>2013-11-17T09:21:57Z</time>
      </trkpt>
      <trkpt lat="47.24869" lon="-1.28054">
        <ele>16.75</ele>
        <time>2013-11-17T09:22:01Z</time>
      </trkpt>
      <trkpt lat="47.24872" lon="-1.28091">
        <ele>17.91</ele>
        <time>2013-11-17T09:22:04Z</time>
      </trkpt>
      <trkpt lat="47.24875" lon="-1.28118">
        <ele>18.8</ele>
        <time>2013-11-17T09:22:06Z</time>
      </trkpt>
      <trkpt lat="47.24879" lon="-1.28149">
        <ele>19.79</ele>
        <time>2013-11-17T09:22:09Z</time>
      </trkpt>
      <trkpt lat="47.24883" lon="-1.28181">
        <ele>19.51</ele>
        <time>2013-11-17T09:22:13Z</time>
      </trkpt>
      <trkpt lat="47.24887" lon="-1.28211">
        <ele>19.59</ele>
        <time>2013-11-17T09:22:16Z</time>
      </trkpt>
      <trkpt lat="47.24889" lon="-1.28243">
        <ele>19.9</ele>
        <time>2013-11-17T09:22:19Z</time>
      </trkpt>
      <trkpt lat="47.24891" lon="-1.28272">
        <ele>20.15</ele>
        <time>2013-11-17T09:22:22Z</time>
      </trkpt>
      <trkpt lat="47.24895" lon="-1.283">
        <ele>20.29</ele>
        <time>2013-11-17T09:22:25Z</time>
      </trkpt>
      <trkpt lat="47.24898" lon="-1.28329">
        <ele>20.13</ele>
        <time>2013-11-17T09:22:29Z</time>
      </trkpt>
      <trkpt lat="47.24901" lon="-1.28362">
        <ele>19.66</ele>
        <time>2013-11-17T09:22:33Z</time>
      </trkpt>
      <trkpt lat="47.24905" lon="-1.28395">
        <ele>18.89</ele>
        <time>2013-11-17T09:22:37Z</time>
      </trkpt>
      <trkpt lat="47.24909" lon="-1.28429">
        <ele>17.43</ele>
        <time>2013-11-17T09:22:41Z</time>
      </trkpt>
      <trkpt lat="47.24911" lon="-1.28456">
        <ele>17.05</ele>
        <time>2013-11-17T09:22:45Z</time>
      </trkpt>
      <trkpt lat="47.24914" lon="-1.28484">
        <ele>17.1</ele>
        <time>2013-11-17T09:22:49Z</time>
      </trkpt>
      <trkpt lat="47.24918" lon="-1.28513">
        <ele>16.73</ele>
        <time>2013-11-17T09:22:54Z</time>
      </trkpt>
      <trkpt lat="47.24923" lon="-1.28544">
        <ele>15.94</ele>
        <time>2013-11-17T09:23:00Z</time>
      </trkpt>
      <trkpt lat="47.24928" lon="-1.28572">
        <ele>16.36</ele>
        <time>2013-11-17T09:23:05Z</time>
      </trkpt>
      <trkpt lat="47.24933" lon="-1.28601">
        <ele>16.14</ele>
        <time>2013-11-17T09:23:11Z</time>
      </trkpt>
      <trkpt lat="47.24935" lon="-1.28628">
        <ele>14.82</ele>
        <time>2013-11-17T09:23:19Z</time>
      </trkpt>
      <trkpt lat="47.24931" lon="-1.28659">
        <ele>14.11</ele>
        <time>2013-11-17T09:23:27Z</time>
      </trkpt>
      <trkpt lat="47.24929" lon="-1.28689">
        <ele>14.28</ele>
        <time>2013-11-17T09:23:32Z</time>
      </trkpt>
      <trkpt lat="47.24929" lon="-1.28717">
        <ele>15.78</ele>
        <time>2013-11-17T09:23:36Z</time>
      </trkpt>
      <trkpt lat="47.24928" lon="-1.28744">
        <ele>17.58</ele>
        <time>2013-11-17T09:23:40Z</time>
      </trkpt>
      <trkpt lat="47.24927" lon="-1.28774">
        <ele>19.15</ele>
        <time>2013-11-17T09:23:44Z</time>
      </trkpt>
      <trkpt lat="47.24926" lon="-1.28802">
        <ele>19.47</ele>
        <time>2013-11-17T09:23:48Z</time>
      </trkpt>
      <trkpt lat="47.24924" lon="-1.28831">
        <ele>18.85</ele>
        <time>2013-11-17T09:23:51Z</time>
      </trkpt>
      <trkpt lat="47.24922" lon="-1.28857">
        <ele>17.82</ele>
        <time>2013-11-17T09:23:55Z</time>
      </trkpt>
      <trkpt lat="47.24918" lon="-1.28889">
        <ele>16.92</ele>
        <time>2013-11-17T09:23:59Z</time>
      </trkpt>
      <trkpt lat="47.24914" lon="-1.28916">
        <ele>17.03</ele>
        <time>2013-11-17T09:24:03Z</time>
      </trkpt>
      <trkpt lat="47.24909" lon="-1.28943">
        <ele>17.1</ele>
        <time>2013-11-17T09:24:07Z</time>
      </trkpt>
      <trkpt lat="47.24904" lon="-1.28977">
        <ele>16.26</ele>
        <time>2013-11-17T09:24:12Z</time>
      </trkpt>
      <trkpt lat="47.24901" lon="-1.29007">
        <ele>15.86</ele>
        <time>2013-11-17T09:24:16Z</time>
      </trkpt>
      <trkpt lat="47.24898" lon="-1.29035">
        <ele>15.34</ele>
        <time>2013-11-17T09:24:20Z</time>
      </trkpt>
      <trkpt lat="47.24897" lon="-1.29061">
        <ele>15.02</ele>
        <time>2013-11-17T09:24:24Z</time>
      </trkpt>
      <trkpt lat="47.24894" lon="-1.2909">
        <ele>13.85</ele>
        <time>2013-11-17T09:24:29Z</time>
      </trkpt>
      <trkpt lat="47.24891" lon="-1.29117">
        <ele>13.21</ele>
        <time>2013-11-17T09:24:33Z</time>
      </trkpt>
      <trkpt lat="47.24887" lon="-1.29143">
        <ele>12.51</ele>
        <time>2013-11-17T09:24:37Z</time>
      </trkpt>
      <trkpt lat="47.24887" lon="-1.29171">
        <ele>11.88</ele>
        <time>2013-11-17T09:24:41Z</time>
      </trkpt>
      <trkpt lat="47.24888" lon="-1.29201">
        <ele>11.25</ele>
        <time>2013-11-17T09:24:45Z</time>
      </trkpt>
      <trkpt lat="47.24891" lon="-1.29232">
        <ele>11.21</ele>
        <time>2013-11-17T09:24:50Z</time>
      </trkpt>
      <trkpt lat="47.24895" lon="-1.29263">
        <ele>11.48</ele>
        <time>2013-11-17T09:24:55Z</time>
      </trkpt>
      <trkpt lat="47.24898" lon="-1.29293">
        <ele>11.12</ele>
        <time>2013-11-17T09:25:00Z</time>
      </trkpt>
      <trkpt lat="47.249" lon="-1.29325">
        <ele>10.56</ele>
        <time>2013-11-17T09:25:05Z</time>
      </trkpt>
      <trkpt lat="47.24903" lon="-1.29351">
        <ele>10.11</ele>
        <time>2013-11-17T09:25:09Z</time>
      </trkpt>
      <trkpt lat="47.24905" lon="-1.29378">
        <ele>9.82</ele>
        <time>2013-11-17T09:25:13Z</time>
      </trkpt>
      <trkpt lat="47.24909" lon="-1.29408">
        <ele>9.08</ele>
        <time>2013-11-17T09:25:18Z</time>
      </trkpt>
      <trkpt lat="47.24923" lon="-1.29426">
        <ele>8.28</ele>
        <time>2013-11-17T09:25:23Z</time>
      </trkpt>
      <trkpt lat="47.24939" lon="-1.29442">
        <ele>7.64</ele>
        <time>2013-11-17T09:25:27Z</time>
      </trkpt>
      <trkpt lat="47.24956" lon="-1.2946">
        <ele>7.35</ele>
        <time>2013-11-17T09:25:31Z</time>
      </trkpt>
      <trkpt lat="47.24974" lon="-1.29482">
        <ele>7.04</ele>
        <time>2013-11-17T09:25:35Z</time>
      </trkpt>
      <trkpt lat="47.24989" lon="-1.29497">
        <ele>6.5</ele>
        <time>2013-11-17T09:25:39Z</time>
      </trkpt>
      <trkpt lat="47.25009" lon="-1.29511">
        <ele>5.62</ele>
        <time>2013-11-17T09:25:44Z</time>
      </trkpt>
      <trkpt lat="47.25029" lon="-1.29518">
        <ele>4.9</ele>
        <time>2013-11-17T09:25:49Z</time>
      </trkpt>
      <trkpt lat="47.2505" lon="-1.29521">
        <ele>4.97</ele>
        <time>2013-11-17T09:25:55Z</time>
      </trkpt>
      <trkpt lat="47.25072" lon="-1.29525">
        <ele>5.62</ele>
        <time>2013-11-17T09:26:00Z</time>
      </trkpt>
      <trkpt lat="47.2509" lon="-1.29533">
        <ele>6.58</ele>
        <time>2013-11-17T09:26:05Z</time>
      </trkpt>
      <trkpt lat="47.25109" lon="-1.29544">
        <ele>10.29</ele>
        <time>2013-11-17T09:26:10Z</time>
      </trkpt>
      <trkpt lat="47.25129" lon="-1.29552">
        <ele>13.07</ele>
        <time>2013-11-17T09:26:15Z</time>
      </trkpt>
      <trkpt lat="47.25147" lon="-1.29556">
        <ele>15.68</ele>
        <time>2013-11-17T09:26:19Z</time>
      </trkpt>
      <trkpt lat="47.25168" lon="-1.29561">
        <ele>19.75</ele>
        <time>2013-11-17T09:26:24Z</time>
      </trkpt>
      <trkpt lat="47.25187" lon="-1.29567">
        <ele>24.68</ele>
        <time>2013-11-17T09:26:29Z</time>
      </trkpt>
      <trkpt lat="47.25208" lon="-1.29574">
        <ele>32.63</ele>
        <time>2013-11-17T09:26:34Z</time>
      </trkpt>
      <trkpt lat="47.25228" lon="-1.29577">
        <ele>38.64</ele>
        <time>2013-11-17T09:26:39Z</time>
      </trkpt>
      <trkpt lat="47.25249" lon="-1.29577">
        <ele>44.27</ele>
        <time>2013-11-17T09:26:44Z</time>
      </trkpt>
      <trkpt lat="47.25269" lon="-1.29583">
        <ele>49.72</ele>
        <time>2013-11-17T09:26:49Z</time>
      </trkpt>
      <trkpt lat="47.25291" lon="-1.29586">
        <ele>56.5</ele>
        <time>2013-11-17T09:26:54Z</time>
      </trkpt>
      <trkpt lat="47.25312" lon="-1.29589">
        <ele>67.38</ele>
        <time>2013-11-17T09:27:00Z</time>
      </trkpt>
      <trkpt lat="47.2533" lon="-1.29598">
        <ele>71.08</ele>
        <time>2013-11-17T09:27:05Z</time>
      </trkpt>
      <trkpt lat="47.2535" lon="-1.29601">
        <ele>69.91</ele>
        <time>2013-11-17T09:27:11Z</time>
      </trkpt>
      <trkpt lat="47.25369" lon="-1.29597">
        <ele>70.55</ele>
        <time>2013-11-17T09:27:16Z</time>
      </trkpt>
      <trkpt lat="47.25387" lon="-1.29591">
        <ele>69.15</ele>
        <time>2013-11-17T09:27:21Z</time>
      </trkpt>
      <trkpt lat="47.25407" lon="-1.29587">
        <ele>64.79</ele>
        <time>2013-11-17T09:27:24Z</time>
      </trkpt>
      <trkpt lat="47.25429" lon="-1.29585">
        <ele>57.21</ele>
        <time>2013-11-17T09:27:27Z</time>
      </trkpt>
      <trkpt lat="47.25448" lon="-1.29591">
        <ele>57.86</ele>
        <time>2013-11-17T09:27:31Z</time>
      </trkpt>
      <trkpt lat="47.25468" lon="-1.29597">
        <ele>58.59</ele>
        <time>2013-11-17T09:27:35Z</time>
      </trkpt>
      <trkpt lat="47.25488" lon="-1.29607">
        <ele>56.34</ele>
        <time>2013-11-17T09:27:39Z</time>
      </trkpt>
      <trkpt lat="47.25508" lon="-1.29618">
        <ele>51.47</ele>
        <time>2013-11-17T09:27:43Z</time>
      </trkpt>
      <trkpt lat="47.25528" lon="-1.29624">
        <ele>51.87</ele>
        <time>2013-11-17T09:27:47Z</time>
      </trkpt>
      <trkpt lat="47.25548" lon="-1.2963">
        <ele>52.77</ele>
        <time>2013-11-17T09:27:51Z</time>
      </trkpt>
      <trkpt lat="47.25566" lon="-1.29636">
        <ele>54.12</ele>
        <time>2013-11-17T09:27:55Z</time>
      </trkpt>
      <trkpt lat="47.25585" lon="-1.29643">
        <ele>54.63</ele>
        <time>2013-11-17T09:27:59Z</time>
      </trkpt>
      <trkpt lat="47.25604" lon="-1.29645">
        <ele>54.64</ele>
        <time>2013-11-17T09:28:03Z</time>
      </trkpt>
      <trkpt lat="47.25623" lon="-1.29642">
        <ele>53.97</ele>
        <time>2013-11-17T09:28:07Z</time>
      </trkpt>
      <trkpt lat="47.25644" lon="-1.29636">
        <ele>53.63</ele>
        <time>2013-11-17T09:28:12Z</time>
      </trkpt>
      <trkpt lat="47.25662" lon="-1.29626">
        <ele>51.92</ele>
        <time>2013-11-17T09:28:17Z</time>
      </trkpt>
      <trkpt lat="47.25682" lon="-1.29611">
        <ele>47.38</ele>
        <time>2013-11-17T09:28:23Z</time>
      </trkpt>
      <trkpt lat="47.25699" lon="-1.29596">
        <ele>42.33</ele>
        <time>2013-11-17T09:28:31Z</time>
      </trkpt>
      <trkpt lat="47.25714" lon="-1.29581">
        <ele>37</ele>
        <time>2013-11-17T09:28:38Z</time>
      </trkpt>
      <trkpt lat="47.25733" lon="-1.2957">
        <ele>30.15</ele>
        <time>2013-11-17T09:28:44Z</time>
      </trkpt>
      <trkpt lat="47.2575" lon="-1.29557">
        <ele>26.54</ele>
        <time>2013-11-17T09:28:49Z</time>
      </trkpt>
      <trkpt lat="47.25766" lon="-1.29542">
        <ele>23.75</ele>
        <time>2013-11-17T09:28:53Z</time>
      </trkpt>
      <trkpt lat="47.25782" lon="-1.29526">
        <ele>21.76</ele>
        <time>2013-11-17T09:28:56Z</time>
      </trkpt>
      <trkpt lat="47.25798" lon="-1.2951">
        <ele>19.69</ele>
        <time>2013-11-17T09:28:59Z</time>
      </trkpt>
      <trkpt lat="47.25818" lon="-1.29492">
        <ele>18.49</ele>
        <time>2013-11-17T09:29:03Z</time>
      </trkpt>
      <trkpt lat="47.25836" lon="-1.29472">
        <ele>17.08</ele>
        <time>2013-11-17T09:29:07Z</time>
      </trkpt>
      <trkpt lat="47.25853" lon="-1.29453">
        <ele>16.98</ele>
        <time>2013-11-17T09:29:11Z</time>
      </trkpt>
      <trkpt lat="47.25869" lon="-1.29438">
        <ele>16.66</ele>
        <time>2013-11-17T09:29:15Z</time>
      </trkpt>
      <trkpt lat="47.25885" lon="-1.29421">
        <ele>16.1</ele>
        <time>2013-11-17T09:29:20Z</time>
      </trkpt>
      <trkpt lat="47.25902" lon="-1.29405">
        <ele>15.11</ele>
        <time>2013-11-17T09:29:28Z</time>
      </trkpt>
      <trkpt lat="47.25923" lon="-1.29397">
        <ele>14.38</ele>
        <time>2013-11-17T09:29:34Z</time>
      </trkpt>
      <trkpt lat="47.25942" lon="-1.29389">
        <ele>14.42</ele>
        <time>2013-11-17T09:29:39Z</time>
      </trkpt>
      <trkpt lat="47.25962" lon="-1.29381">
        <ele>13.72</ele>
        <time>2013-11-17T09:29:44Z</time>
      </trkpt>
      <trkpt lat="47.25981" lon="-1.29374">
        <ele>12.65</ele>
        <time>2013-11-17T09:29:49Z</time>
      </trkpt>
      <trkpt lat="47.25999" lon="-1.29366">
        <ele>12.11</ele>
        <time>2013-11-17T09:29:54Z</time>
      </trkpt>
      <trkpt lat="47.2602" lon="-1.29358">
        <ele>11.78</ele>
        <time>2013-11-17T09:30:00Z</time>
      </trkpt>
      <trkpt lat="47.26042" lon="-1.29353">
        <ele>9.57</ele>
        <time>2013-11-17T09:30:05Z</time>
      </trkpt>
      <trkpt lat="47.2606" lon="-1.29345">
        <ele>6.93</ele>
        <time>2013-11-17T09:30:09Z</time>
      </trkpt>
      <trkpt lat="47.26078" lon="-1.29326">
        <ele>5.22</ele>
        <time>2013-11-17T09:30:14Z</time>
      </trkpt>
      <trkpt lat="47.26094" lon="-1.29307">
        <ele>4.18</ele>
        <time>2013-11-17T09:30:18Z</time>
      </trkpt>
      <trkpt lat="47.26111" lon="-1.29287">
        <ele>3.24</ele>
        <time>2013-11-17T09:30:23Z</time>
      </trkpt>
      <trkpt lat="47.26124" lon="-1.29269">
        <ele>2.15</ele>
        <time>2013-11-17T09:30:27Z</time>
      </trkpt>
      <trkpt lat="47.2614" lon="-1.29253">
        <ele>0.89</ele>
        <time>2013-11-17T09:30:32Z</time>
      </trkpt>
      <trkpt lat="47.26158" lon="-1.29239">
        <ele>0.01</ele>
        <time>2013-11-17T09:30:37Z</time>
      </trkpt>
      <trkpt lat="47.26179" lon="-1.29228">
        <ele>-0.05</ele>
        <time>2013-11-17T09:30:42Z</time>
      </trkpt>
      <trkpt lat="47.26199" lon="-1.29216">
        <ele>0.11</ele>
        <time>2013-11-17T09:30:47Z</time>
      </trkpt>
      <trkpt lat="47.26217" lon="-1.29203">
        <ele>-0.24</ele>
        <time>2013-11-17T09:30:51Z</time>
      </trkpt>
      <trkpt lat="47.26237" lon="-1.29193">
        <ele>-0.13</ele>
        <time>2013-11-17T09:30:56Z</time>
      </trkpt>
      <trkpt lat="47.26256" lon="-1.29184">
        <ele>-0.06</ele>
        <time>2013-11-17T09:31:01Z</time>
      </trkpt>
      <trkpt lat="47.26274" lon="-1.2918">
        <ele>-2.09</ele>
        <time>2013-11-17T09:31:10Z</time>
      </trkpt>
      <trkpt lat="47.26294" lon="-1.29168">
        <ele>-3.91</ele>
        <time>2013-11-17T09:31:15Z</time>
      </trkpt>
      <trkpt lat="47.26312" lon="-1.29157">
        <ele>-5.29</ele>
        <time>2013-11-17T09:31:19Z</time>
      </trkpt>
      <trkpt lat="47.2633" lon="-1.29147">
        <ele>-6.48</ele>
        <time>2013-11-17T09:31:23Z</time>
      </trkpt>
      <trkpt lat="47.26351" lon="-1.29137">
        <ele>-7.17</ele>
        <time>2013-11-17T09:31:27Z</time>
      </trkpt>
      <trkpt lat="47.26369" lon="-1.29125">
        <ele>-7.27</ele>
        <time>2013-11-17T09:31:30Z</time>
      </trkpt>
      <trkpt lat="47.26388" lon="-1.29114">
        <ele>-7.12</ele>
        <time>2013-11-17T09:31:33Z</time>
      </trkpt>
      <trkpt lat="47.2641" lon="-1.29099">
        <ele>-5.56</ele>
        <time>2013-11-17T09:31:36Z</time>
      </trkpt>
      <trkpt lat="47.26427" lon="-1.29088">
        <ele>-6.1</ele>
        <time>2013-11-17T09:31:39Z</time>
      </trkpt>
      <trkpt lat="47.26448" lon="-1.29071">
        <ele>-6.79</ele>
        <time>2013-11-17T09:31:43Z</time>
      </trkpt>
      <trkpt lat="47.26466" lon="-1.29059">
        <ele>-7.01</ele>
        <time>2013-11-17T09:31:46Z</time>
      </trkpt>
      <trkpt lat="47.26486" lon="-1.29049">
        <ele>-7.33</ele>
        <time>2013-11-17T09:31:49Z</time>
      </trkpt>
      <trkpt lat="47.26507" lon="-1.29046">
        <ele>-7.04</ele>
        <time>2013-11-17T09:31:53Z</time>
      </trkpt>
      <trkpt lat="47.26529" lon="-1.29042">
        <ele>-6.83</ele>
        <time>2013-11-17T09:31:57Z</time>
      </trkpt>
      <trkpt lat="47.26554" lon="-1.29036">
        <ele>-6.64</ele>
        <time>2013-11-17T09:32:01Z</time>
      </trkpt>
      <trkpt lat="47.26573" lon="-1.29039">
        <ele>-5.61</ele>
        <time>2013-11-17T09:32:04Z</time>
      </trkpt>
      <trkpt lat="47.26591" lon="-1.29049">
        <ele>-3.98</ele>
        <time>2013-11-17T09:32:07Z</time>
      </trkpt>
      <trkpt lat="47.2661" lon="-1.29046">
        <ele>-2.5</ele>
        <time>2013-11-17T09:32:11Z</time>
      </trkpt>
      <trkpt lat="47.26627" lon="-1.29028">
        <ele>0.23</ele>
        <time>2013-11-17T09:32:15Z</time>
      </trkpt>
      <trkpt lat="47.26643" lon="-1.29005">
        <ele>2.38</ele>
        <time>2013-11-17T09:32:19Z</time>
      </trkpt>
      <trkpt lat="47.26655" lon="-1.28977">
        <ele>4.9</ele>
        <time>2013-11-17T09:32:23Z</time>
      </trkpt>
      <trkpt lat="47.26666" lon="-1.28951">
        <ele>6.53</ele>
        <time>2013-11-17T09:32:27Z</time>
      </trkpt>
      <trkpt lat="47.26677" lon="-1.28924">
        <ele>7.96</ele>
        <time>2013-11-17T09:32:31Z</time>
      </trkpt>
      <trkpt lat="47.26688" lon="-1.28897">
        <ele>9.02</ele>
        <time>2013-11-17T09:32:35Z</time>
      </trkpt>
      <trkpt lat="47.26696" lon="-1.28873">
        <ele>9.56</ele>
        <time>2013-11-17T09:32:39Z</time>
      </trkpt>
      <trkpt lat="47.26705" lon="-1.28842">
        <ele>10.67</ele>
        <time>2013-11-17T09:32:44Z</time>
      </trkpt>
      <trkpt lat="47.26713" lon="-1.28817">
        <ele>11.09</ele>
        <time>2013-11-17T09:32:48Z</time>
      </trkpt>
      <trkpt lat="47.26725" lon="-1.28791">
        <ele>11.82</ele>
        <time>2013-11-17T09:32:52Z</time>
      </trkpt>
      <trkpt lat="47.26737" lon="-1.28768">
        <ele>12.47</ele>
        <time>2013-11-17T09:32:56Z</time>
      </trkpt>
      <trkpt lat="47.26751" lon="-1.2875">
        <ele>13.04</ele>
        <time>2013-11-17T09:33:00Z</time>
      </trkpt>
      <trkpt lat="47.26768" lon="-1.28739">
        <ele>13.64</ele>
        <time>2013-11-17T09:33:04Z</time>
      </trkpt>
      <trkpt lat="47.26785" lon="-1.28726">
        <ele>14.45</ele>
        <time>2013-11-17T09:33:08Z</time>
      </trkpt>
      <trkpt lat="47.26798" lon="-1.28705">
        <ele>13.69</ele>
        <time>2013-11-17T09:33:12Z</time>
      </trkpt>
      <trkpt lat="47.26811" lon="-1.28681">
        <ele>12.18</ele>
        <time>2013-11-17T09:33:17Z</time>
      </trkpt>
      <trkpt lat="47.26822" lon="-1.28658">
        <ele>11.52</ele>
        <time>2013-11-17T09:33:22Z</time>
      </trkpt>
      <trkpt lat="47.26835" lon="-1.28635">
        <ele>11.15</ele>
        <time>2013-11-17T09:33:27Z</time>
      </trkpt>
      <trkpt lat="47.26848" lon="-1.28612">
        <ele>10.41</ele>
        <time>2013-11-17T09:33:32Z</time>
      </trkpt>
      <trkpt lat="47.26862" lon="-1.28587">
        <ele>8.13</ele>
        <time>2013-11-17T09:33:37Z</time>
      </trkpt>
      <trkpt lat="47.26875" lon="-1.28566">
        <ele>6.99</ele>
        <time>2013-11-17T09:33:42Z</time>
      </trkpt>
      <trkpt lat="47.26887" lon="-1.28544">
        <ele>5.51</ele>
        <time>2013-11-17T09:33:48Z</time>
      </trkpt>
      <trkpt lat="47.26901" lon="-1.28525">
        <ele>3.54</ele>
        <time>2013-11-17T09:33:53Z</time>
      </trkpt>
      <trkpt lat="47.26914" lon="-1.28505">
        <ele>1.91</ele>
        <time>2013-11-17T09:33:57Z</time>
      </trkpt>
      <trkpt lat="47.26929" lon="-1.28483">
        <ele>-0.67</ele>
        <time>2013-11-17T09:34:02Z</time>
      </trkpt>
      <trkpt lat="47.26947" lon="-1.28476">
        <ele>-4.06</ele>
        <time>2013-11-17T09:34:09Z</time>
      </trkpt>
      <trkpt lat="47.26961" lon="-1.28459">
        <ele>-8.59</ele>
        <time>2013-11-17T09:34:17Z</time>
      </trkpt>
      <trkpt lat="47.26975" lon="-1.28437">
        <ele>-12.22</ele>
        <time>2013-11-17T09:34:22Z</time>
      </trkpt>
      <trkpt lat="47.26981" lon="-1.28407">
        <ele>-14.79</ele>
        <time>2013-11-17T09:34:27Z</time>
      </trkpt>
      <trkpt lat="47.26981" lon="-1.28376">
        <ele>-16.9</ele>
        <time>2013-11-17T09:34:32Z</time>
      </trkpt>
      <trkpt lat="47.26977" lon="-1.28349">
        <ele>-18.11</ele>
        <time>2013-11-17T09:34:38Z</time>
      </trkpt>
      <trkpt lat="47.26969" lon="-1.28321">
        <ele>-21.92</ele>
        <time>2013-11-17T09:34:45Z</time>
      </trkpt>
      <trkpt lat="47.26974" lon="-1.28284">
        <ele>-25.21</ele>
        <time>2013-11-17T09:34:49Z</time>
      </trkpt>
      <trkpt lat="47.26984" lon="-1.28257">
        <ele>-27.62</ele>
        <time>2013-11-17T09:34:53Z</time>
      </trkpt>
      <trkpt lat="47.26998" lon="-1.28226">
        <ele>-28.46</ele>
        <time>2013-11-17T09:34:56Z</time>
      </trkpt>
      <trkpt lat="47.27009" lon="-1.282">
        <ele>-30.21</ele>
        <time>2013-11-17T09:35:00Z</time>
      </trkpt>
      <trkpt lat="47.27018" lon="-1.28173">
        <ele>-31.67</ele>
        <time>2013-11-17T09:35:06Z</time>
      </trkpt>
      <trkpt lat="47.27023" lon="-1.28146">
        <ele>-31.14</ele>
        <time>2013-11-17T09:35:10Z</time>
      </trkpt>
      <trkpt lat="47.27035" lon="-1.28119">
        <ele>-32.49</ele>
        <time>2013-11-17T09:35:15Z</time>
      </trkpt>
      <trkpt lat="47.27045" lon="-1.28096">
        <ele>-34.94</ele>
        <time>2013-11-17T09:35:19Z</time>
      </trkpt>
      <trkpt lat="47.27057" lon="-1.28073">
        <ele>-36.86</ele>
        <time>2013-11-17T09:35:23Z</time>
      </trkpt>
      <trkpt lat="47.27069" lon="-1.28053">
        <ele>-37.18</ele>
        <time>2013-11-17T09:35:32Z</time>
      </trkpt>
      <trkpt lat="47.27087" lon="-1.28047">
        <ele>-33.57</ele>
        <time>2013-11-17T09:36:05Z</time>
      </trkpt>
      <trkpt lat="47.27103" lon="-1.28059">
        <ele>-30.78</ele>
        <time>2013-11-17T09:36:21Z</time>
      </trkpt>
      <trkpt lat="47.27125" lon="-1.28063">
        <ele>-28.91</ele>
        <time>2013-11-17T09:36:33Z</time>
      </trkpt>
      <trkpt lat="47.27141" lon="-1.28076">
        <ele>-25.88</ele>
        <time>2013-11-17T09:36:41Z</time>
      </trkpt>
      <trkpt lat="47.27145" lon="-1.28102">
        <ele>-22.01</ele>
        <time>2013-11-17T09:36:48Z</time>
      </trkpt>
      <trkpt lat="47.27156" lon="-1.28125">
        <ele>-16.18</ele>
        <time>2013-11-17T09:37:11Z</time>
      </trkpt>
      <trkpt lat="47.27173" lon="-1.28139">
        <ele>-11.4</ele>
        <time>2013-11-17T09:37:29Z</time>
      </trkpt>
      <trkpt lat="47.27168" lon="-1.28165">
        <ele>-10.62</ele>
        <time>2013-11-17T09:37:58Z</time>
      </trkpt>
      <trkpt lat="47.27186" lon="-1.28165">
        <ele>-15.59</ele>
        <time>2013-11-17T09:39:08Z</time>
      </trkpt>
      <trkpt lat="47.27205" lon="-1.28158">
        <ele>-19.53</ele>
        <time>2013-11-17T09:41:31Z</time>
      </trkpt>
      <trkpt lat="47.27188" lon="-1.28171">
        <ele>-21.35</ele>
        <time>2013-11-17T09:44:25Z</time>
      </trkpt>
      <trkpt lat="47.27197" lon="-1.28145">
        <ele>-10.64</ele>
        <time>2013-11-17T09:51:23Z</time>
      </trkpt>
      <trkpt lat="47.27179" lon="-1.28154">
        <ele>-11.68</ele>
        <time>2013-11-17T09:52:13Z</time>
      </trkpt>
      <trkpt lat="47.27198" lon="-1.28153">
        <ele>-15.44</ele>
        <time>2013-11-17T09:53:23Z</time>
      </trkpt>
      <trkpt lat="47.27179" lon="-1.28155">
        <ele>-19.16</ele>
        <time>2013-11-17T09:57:11Z</time>
      </trkpt>
      <trkpt lat="47.27165" lon="-1.28139">
        <ele>-19.65</ele>
        <time>2013-11-17T09:57:18Z</time>
      </trkpt>
      <trkpt lat="47.27174" lon="-1.28114">
        <ele>-19.75</ele>
        <time>2013-11-17T09:57:25Z</time>
      </trkpt>
      <trkpt lat="47.27192" lon="-1.28103">
        <ele>-19.11</ele>
        <time>2013-11-17T09:57:34Z</time>
      </trkpt>
      <trkpt lat="47.27172" lon="-1.28085">
        <ele>-18.38</ele>
        <time>2013-11-17T09:57:41Z</time>
      </trkpt>
      <trkpt lat="47.27179" lon="-1.28057">
        <ele>-17.54</ele>
        <time>2013-11-17T09:57:50Z</time>
      </trkpt>
      <trkpt lat="47.27192" lon="-1.28018">
        <ele>-16.59</ele>
        <time>2013-11-17T09:58:03Z</time>
      </trkpt>
      <trkpt lat="47.272" lon="-1.27985">
        <ele>-18.08</ele>
        <time>2013-11-17T09:58:06Z</time>
      </trkpt>
      <trkpt lat="47.27214" lon="-1.27963">
        <ele>-20.6</ele>
        <time>2013-11-17T09:58:08Z</time>
      </trkpt>
      <trkpt lat="47.27226" lon="-1.27984">
        <ele>-24.75</ele>
        <time>2013-11-17T09:58:57Z</time>
      </trkpt>
      <trkpt lat="47.27237" lon="-1.27959">
        <ele>-23.7</ele>
        <time>2013-11-17T09:59:20Z</time>
      </trkpt>
      <trkpt lat="47.27252" lon="-1.27939">
        <ele>-23.28</ele>
        <time>2013-11-17T09:59:30Z</time>
      </trkpt>
      <trkpt lat="47.27272" lon="-1.27931">
        <ele>-24.79</ele>
        <time>2013-11-17T09:59:34Z</time>
      </trkpt>
      <trkpt lat="47.27293" lon="-1.2793">
        <ele>-26.58</ele>
        <time>2013-11-17T09:59:40Z</time>
      </trkpt>
      <trkpt lat="47.27312" lon="-1.27927">
        <ele>-28.51</ele>
        <time>2013-11-17T09:59:47Z</time>
      </trkpt>
      <trkpt lat="47.27327" lon="-1.27943">
        <ele>-29.64</ele>
        <time>2013-11-17T09:59:58Z</time>
      </trkpt>
      <trkpt lat="47.27333" lon="-1.27969">
        <ele>-31.22</ele>
        <time>2013-11-17T10:00:05Z</time>
      </trkpt>
      <trkpt lat="47.27343" lon="-1.27992">
        <ele>-31.1</ele>
        <time>2013-11-17T10:00:18Z</time>
      </trkpt>
      <trkpt lat="47.2735" lon="-1.28017">
        <ele>-29.99</ele>
        <time>2013-11-17T10:00:33Z</time>
      </trkpt>
      <trkpt lat="47.27364" lon="-1.28035">
        <ele>-27.92</ele>
        <time>2013-11-17T10:00:51Z</time>
      </trkpt>
      <trkpt lat="47.27383" lon="-1.28028">
        <ele>-27.7</ele>
        <time>2013-11-17T10:01:13Z</time>
      </trkpt>
      <trkpt lat="47.27401" lon="-1.28022">
        <ele>-27.86</ele>
        <time>2013-11-17T10:01:22Z</time>
      </trkpt>
      <trkpt lat="47.27419" lon="-1.28024">
        <ele>-25.94</ele>
        <time>2013-11-17T10:01:29Z</time>
      </trkpt>
      <trkpt lat="47.27439" lon="-1.28034">
        <ele>-24.42</ele>
        <time>2013-11-17T10:01:38Z</time>
      </trkpt>
      <trkpt lat="47.27459" lon="-1.28039">
        <ele>-22.93</ele>
        <time>2013-11-17T10:01:55Z</time>
      </trkpt>
      <trkpt lat="47.27477" lon="-1.28033">
        <ele>-21.11</ele>
        <time>2013-11-17T10:02:06Z</time>
      </trkpt>
      <trkpt lat="47.27495" lon="-1.28033">
        <ele>-22</ele>
        <time>2013-11-17T10:02:12Z</time>
      </trkpt>
      <trkpt lat="47.27508" lon="-1.28052">
        <ele>-23.1</ele>
        <time>2013-11-17T10:02:26Z</time>
      </trkpt>
      <trkpt lat="47.27526" lon="-1.28066">
        <ele>-22.01</ele>
        <time>2013-11-17T10:02:38Z</time>
      </trkpt>
      <trkpt lat="47.27532" lon="-1.28091">
        <ele>-22.12</ele>
        <time>2013-11-17T10:02:49Z</time>
      </trkpt>
      <trkpt lat="47.27541" lon="-1.28122">
        <ele>-20.07</ele>
        <time>2013-11-17T10:03:00Z</time>
      </trkpt>
      <trkpt lat="47.27551" lon="-1.28145">
        <ele>-20.42</ele>
        <time>2013-11-17T10:03:06Z</time>
      </trkpt>
      <trkpt lat="47.27563" lon="-1.28164">
        <ele>-18.19</ele>
        <time>2013-11-17T10:03:16Z</time>
      </trkpt>
      <trkpt lat="47.27576" lon="-1.28189">
        <ele>-15.67</ele>
        <time>2013-11-17T10:03:23Z</time>
      </trkpt>
      <trkpt lat="47.27579" lon="-1.28218">
        <ele>-14.74</ele>
        <time>2013-11-17T10:03:31Z</time>
      </trkpt>
      <trkpt lat="47.27618" lon="-1.28291">
        <ele>-16.8</ele>
        <time>2013-11-17T10:03:39Z</time>
      </trkpt>
      <trkpt lat="47.27639" lon="-1.28295">
        <ele>-16.61</ele>
        <time>2013-11-17T10:03:43Z</time>
      </trkpt>
      <trkpt lat="47.27658" lon="-1.28302">
        <ele>-14.9</ele>
        <time>2013-11-17T10:03:46Z</time>
      </trkpt>
      <trkpt lat="47.27676" lon="-1.28279">
        <ele>-14.36</ele>
        <time>2013-11-17T10:03:51Z</time>
      </trkpt>
      <trkpt lat="47.2769" lon="-1.28262">
        <ele>-15.16</ele>
        <time>2013-11-17T10:03:55Z</time>
      </trkpt>
      <trkpt lat="47.27708" lon="-1.28253">
        <ele>-16.69</ele>
        <time>2013-11-17T10:04:06Z</time>
      </trkpt>
      <trkpt lat="47.27727" lon="-1.28247">
        <ele>-13.59</ele>
        <time>2013-11-17T10:04:18Z</time>
      </trkpt>
      <trkpt lat="47.27747" lon="-1.28258">
        <ele>-13.69</ele>
        <time>2013-11-17T10:04:25Z</time>
      </trkpt>
      <trkpt lat="47.27766" lon="-1.28239">
        <ele>-15.15</ele>
        <time>2013-11-17T10:04:32Z</time>
      </trkpt>
      <trkpt lat="47.27786" lon="-1.28223">
        <ele>-15.03</ele>
        <time>2013-11-17T10:04:37Z</time>
      </trkpt>
      <trkpt lat="47.27806" lon="-1.28218">
        <ele>-15.1</ele>
        <time>2013-11-17T10:04:42Z</time>
      </trkpt>
      <trkpt lat="47.27822" lon="-1.28207">
        <ele>-11.56</ele>
        <time>2013-11-17T10:04:49Z</time>
      </trkpt>
      <trkpt lat="47.2784" lon="-1.28204">
        <ele>-11.3</ele>
        <time>2013-11-17T10:04:54Z</time>
      </trkpt>
      <trkpt lat="47.27859" lon="-1.28199">
        <ele>-10.78</ele>
        <time>2013-11-17T10:04:59Z</time>
      </trkpt>
      <trkpt lat="47.27868" lon="-1.28223">
        <ele>-10.33</ele>
        <time>2013-11-17T10:05:07Z</time>
      </trkpt>
      <trkpt lat="47.2787" lon="-1.28253">
        <ele>-9.93</ele>
        <time>2013-11-17T10:05:13Z</time>
      </trkpt>
      <trkpt lat="47.27876" lon="-1.28293">
        <ele>-6.06</ele>
        <time>2013-11-17T10:05:26Z</time>
      </trkpt>
      <trkpt lat="47.27884" lon="-1.28318">
        <ele>8.93</ele>
        <time>2013-11-17T10:11:00Z</time>
      </trkpt>
      <trkpt lat="47.27891" lon="-1.28344">
        <ele>9.32</ele>
        <time>2013-11-17T10:11:06Z</time>
      </trkpt>
      <trkpt lat="47.27897" lon="-1.28374">
        <ele>10.27</ele>
        <time>2013-11-17T10:11:12Z</time>
      </trkpt>
      <trkpt lat="47.27915" lon="-1.28381">
        <ele>11.08</ele>
        <time>2013-11-17T10:11:19Z</time>
      </trkpt>
      <trkpt lat="47.27933" lon="-1.28383">
        <ele>11.51</ele>
        <time>2013-11-17T10:11:24Z</time>
      </trkpt>
      <trkpt lat="47.27955" lon="-1.28388">
        <ele>11.35</ele>
        <time>2013-11-17T10:11:29Z</time>
      </trkpt>
      <trkpt lat="47.27975" lon="-1.28393">
        <ele>11.18</ele>
        <time>2013-11-17T10:11:33Z</time>
      </trkpt>
      <trkpt lat="47.27996" lon="-1.28396">
        <ele>10.31</ele>
        <time>2013-11-17T10:11:38Z</time>
      </trkpt>
      <trkpt lat="47.28016" lon="-1.28393">
        <ele>9.83</ele>
        <time>2013-11-17T10:11:42Z</time>
      </trkpt>
      <trkpt lat="47.28035" lon="-1.28389">
        <ele>9.1</ele>
        <time>2013-11-17T10:11:46Z</time>
      </trkpt>
      <trkpt lat="47.28055" lon="-1.28384">
        <ele>8.11</ele>
        <time>2013-11-17T10:11:50Z</time>
      </trkpt>
      <trkpt lat="47.28074" lon="-1.2838">
        <ele>8.92</ele>
        <time>2013-11-17T10:11:53Z</time>
      </trkpt>
      <trkpt lat="47.28092" lon="-1.28376">
        <ele>9.91</ele>
        <time>2013-11-17T10:11:56Z</time>
      </trkpt>
      <trkpt lat="47.28115" lon="-1.28373">
        <ele>9.82</ele>
        <time>2013-11-17T10:12:00Z</time>
      </trkpt>
      <trkpt lat="47.28138" lon="-1.28371">
        <ele>9.43</ele>
        <time>2013-11-17T10:12:04Z</time>
      </trkpt>
      <trkpt lat="47.28158" lon="-1.28377">
        <ele>8.49</ele>
        <time>2013-11-17T10:12:08Z</time>
      </trkpt>
      <trkpt lat="47.28182" lon="-1.28376">
        <ele>8.22</ele>
        <time>2013-11-17T10:12:12Z</time>
      </trkpt>
      <trkpt lat="47.28206" lon="-1.28377">
        <ele>6.02</ele>
        <time>2013-11-17T10:12:16Z</time>
      </trkpt>
      <trkpt lat="47.28229" lon="-1.28378">
        <ele>2.65</ele>
        <time>2013-11-17T10:12:20Z</time>
      </trkpt>
      <trkpt lat="47.28248" lon="-1.28378">
        <ele>0.81</ele>
        <time>2013-11-17T10:12:23Z</time>
      </trkpt>
      <trkpt lat="47.28268" lon="-1.28376">
        <ele>0.31</ele>
        <time>2013-11-17T10:12:26Z</time>
      </trkpt>
      <trkpt lat="47.28288" lon="-1.2837">
        <ele>-0.76</ele>
        <time>2013-11-17T10:12:29Z</time>
      </trkpt>
      <trkpt lat="47.28313" lon="-1.28363">
        <ele>-1.96</ele>
        <time>2013-11-17T10:12:33Z</time>
      </trkpt>
      <trkpt lat="47.28334" lon="-1.28358">
        <ele>-3.04</ele>
        <time>2013-11-17T10:12:36Z</time>
      </trkpt>
      <trkpt lat="47.28354" lon="-1.28358">
        <ele>-4.98</ele>
        <time>2013-11-17T10:12:39Z</time>
      </trkpt>
      <trkpt lat="47.28375" lon="-1.2836">
        <ele>-7.79</ele>
        <time>2013-11-17T10:12:42Z</time>
      </trkpt>
      <trkpt lat="47.28394" lon="-1.28363">
        <ele>-8.98</ele>
        <time>2013-11-17T10:12:45Z</time>
      </trkpt>
      <trkpt lat="47.28417" lon="-1.2837">
        <ele>-9.09</ele>
        <time>2013-11-17T10:12:49Z</time>
      </trkpt>
      <trkpt lat="47.28437" lon="-1.28369">
        <ele>-8.2</ele>
        <time>2013-11-17T10:12:53Z</time>
      </trkpt>
      <trkpt lat="47.28455" lon="-1.28363">
        <ele>-6.97</ele>
        <time>2013-11-17T10:12:57Z</time>
      </trkpt>
      <trkpt lat="47.28477" lon="-1.2835">
        <ele>-6.08</ele>
        <time>2013-11-17T10:13:01Z</time>
      </trkpt>
      <trkpt lat="47.28498" lon="-1.28341">
        <ele>-4.91</ele>
        <time>2013-11-17T10:13:05Z</time>
      </trkpt>
      <trkpt lat="47.28517" lon="-1.2833">
        <ele>-3.25</ele>
        <time>2013-11-17T10:13:10Z</time>
      </trkpt>
      <trkpt lat="47.28538" lon="-1.28325">
        <ele>-4.42</ele>
        <time>2013-11-17T10:13:17Z</time>
      </trkpt>
      <trkpt lat="47.28556" lon="-1.28322">
        <ele>-4.87</ele>
        <time>2013-11-17T10:13:22Z</time>
      </trkpt>
      <trkpt lat="47.28576" lon="-1.28315">
        <ele>-3.99</ele>
        <time>2013-11-17T10:13:28Z</time>
      </trkpt>
      <trkpt lat="47.28596" lon="-1.28306">
        <ele>-2.76</ele>
        <time>2013-11-17T10:13:34Z</time>
      </trkpt>
      <trkpt lat="47.28616" lon="-1.283">
        <ele>-1.78</ele>
        <time>2013-11-17T10:13:40Z</time>
      </trkpt>
      <trkpt lat="47.28636" lon="-1.28291">
        <ele>-1.24</ele>
        <time>2013-11-17T10:13:45Z</time>
      </trkpt>
      <trkpt lat="47.28654" lon="-1.28281">
        <ele>-0.77</ele>
        <time>2013-11-17T10:13:49Z</time>
      </trkpt>
      <trkpt lat="47.28673" lon="-1.28271">
        <ele>-0.52</ele>
        <time>2013-11-17T10:13:53Z</time>
      </trkpt>
      <trkpt lat="47.28693" lon="-1.2826">
        <ele>-0.22</ele>
        <time>2013-11-17T10:13:57Z</time>
      </trkpt>
      <trkpt lat="47.28705" lon="-1.28282">
        <ele>3.47</ele>
        <time>2013-11-17T10:14:07Z</time>
      </trkpt>
      <trkpt lat="47.28706" lon="-1.28313">
        <ele>4.2</ele>
        <time>2013-11-17T10:14:13Z</time>
      </trkpt>
      <trkpt lat="47.28709" lon="-1.28339">
        <ele>5.49</ele>
        <time>2013-11-17T10:14:18Z</time>
      </trkpt>
      <trkpt lat="47.28709" lon="-1.28369">
        <ele>7.74</ele>
        <time>2013-11-17T10:14:24Z</time>
      </trkpt>
      <trkpt lat="47.28693" lon="-1.28382">
        <ele>7.91</ele>
        <time>2013-11-17T10:14:30Z</time>
      </trkpt>
      <trkpt lat="47.28692" lon="-1.28411">
        <ele>11.33</ele>
        <time>2013-11-17T10:14:39Z</time>
      </trkpt>
      <trkpt lat="47.2869" lon="-1.28438">
        <ele>10.91</ele>
        <time>2013-11-17T10:14:45Z</time>
      </trkpt>
      <trkpt lat="47.28693" lon="-1.28466">
        <ele>11.21</ele>
        <time>2013-11-17T10:14:50Z</time>
      </trkpt>
      <trkpt lat="47.28696" lon="-1.28493">
        <ele>11.11</ele>
        <time>2013-11-17T10:14:55Z</time>
      </trkpt>
      <trkpt lat="47.28697" lon="-1.28523">
        <ele>11.61</ele>
        <time>2013-11-17T10:15:01Z</time>
      </trkpt>
      <trkpt lat="47.28683" lon="-1.28549">
        <ele>11.22</ele>
        <time>2013-11-17T10:15:06Z</time>
      </trkpt>
      <trkpt lat="47.28678" lon="-1.28576">
        <ele>10.99</ele>
        <time>2013-11-17T10:15:12Z</time>
      </trkpt>
      <trkpt lat="47.2869" lon="-1.28603">
        <ele>9.13</ele>
        <time>2013-11-17T10:15:16Z</time>
      </trkpt>
      <trkpt lat="47.28701" lon="-1.28626">
        <ele>9.27</ele>
        <time>2013-11-17T10:15:19Z</time>
      </trkpt>
      <trkpt lat="47.28714" lon="-1.28646">
        <ele>9.8</ele>
        <time>2013-11-17T10:15:22Z</time>
      </trkpt>
      <trkpt lat="47.28733" lon="-1.2866">
        <ele>10.14</ele>
        <time>2013-11-17T10:15:26Z</time>
      </trkpt>
      <trkpt lat="47.28754" lon="-1.28675">
        <ele>10.55</ele>
        <time>2013-11-17T10:15:30Z</time>
      </trkpt>
      <trkpt lat="47.28776" lon="-1.28682">
        <ele>10.78</ele>
        <time>2013-11-17T10:15:34Z</time>
      </trkpt>
      <trkpt lat="47.28793" lon="-1.28695">
        <ele>11.27</ele>
        <time>2013-11-17T10:15:36Z</time>
      </trkpt>
      <trkpt lat="47.28804" lon="-1.28722">
        <ele>13.31</ele>
        <time>2013-11-17T10:15:39Z</time>
      </trkpt>
      <trkpt lat="47.28812" lon="-1.28749">
        <ele>14.59</ele>
        <time>2013-11-17T10:15:42Z</time>
      </trkpt>
      <trkpt lat="47.28826" lon="-1.28777">
        <ele>14.54</ele>
        <time>2013-11-17T10:15:44Z</time>
      </trkpt>
      <trkpt lat="47.2884" lon="-1.28811">
        <ele>14.08</ele>
        <time>2013-11-17T10:15:47Z</time>
      </trkpt>
      <trkpt lat="47.28849" lon="-1.28836">
        <ele>12.86</ele>
        <time>2013-11-17T10:15:50Z</time>
      </trkpt>
      <trkpt lat="47.28859" lon="-1.2886">
        <ele>12</ele>
        <time>2013-11-17T10:15:53Z</time>
      </trkpt>
      <trkpt lat="47.2887" lon="-1.28885">
        <ele>11.14</ele>
        <time>2013-11-17T10:15:56Z</time>
      </trkpt>
      <trkpt lat="47.28879" lon="-1.28916">
        <ele>9.85</ele>
        <time>2013-11-17T10:15:59Z</time>
      </trkpt>
      <trkpt lat="47.28888" lon="-1.28949">
        <ele>7.44</ele>
        <time>2013-11-17T10:16:02Z</time>
      </trkpt>
      <trkpt lat="47.28899" lon="-1.28973">
        <ele>3.9</ele>
        <time>2013-11-17T10:16:05Z</time>
      </trkpt>
      <trkpt lat="47.28908" lon="-1.28999">
        <ele>-0.24</ele>
        <time>2013-11-17T10:16:10Z</time>
      </trkpt>
      <trkpt lat="47.28911" lon="-1.29027">
        <ele>-5.26</ele>
        <time>2013-11-17T10:16:17Z</time>
      </trkpt>
      <trkpt lat="47.28909" lon="-1.29054">
        <ele>-10.82</ele>
        <time>2013-11-17T10:16:29Z</time>
      </trkpt>
      <trkpt lat="47.28897" lon="-1.29076">
        <ele>-16.33</ele>
        <time>2013-11-17T10:16:40Z</time>
      </trkpt>
      <trkpt lat="47.28882" lon="-1.29098">
        <ele>-22.95</ele>
        <time>2013-11-17T10:16:58Z</time>
      </trkpt>
      <trkpt lat="47.2888" lon="-1.29128">
        <ele>-25.29</ele>
        <time>2013-11-17T10:17:16Z</time>
      </trkpt>
      <trkpt lat="47.28889" lon="-1.29162">
        <ele>-25.49</ele>
        <time>2013-11-17T10:17:49Z</time>
      </trkpt>
      <trkpt lat="47.28898" lon="-1.29185">
        <ele>-23.8</ele>
        <time>2013-11-17T10:18:00Z</time>
      </trkpt>
      <trkpt lat="47.28912" lon="-1.29205">
        <ele>-20.71</ele>
        <time>2013-11-17T10:18:12Z</time>
      </trkpt>
      <trkpt lat="47.2892" lon="-1.2923">
        <ele>-18.2</ele>
        <time>2013-11-17T10:18:22Z</time>
      </trkpt>
      <trkpt lat="47.28927" lon="-1.29256">
        <ele>-15.37</ele>
        <time>2013-11-17T10:18:33Z</time>
      </trkpt>
      <trkpt lat="47.28934" lon="-1.29285">
        <ele>-10.31</ele>
        <time>2013-11-17T10:18:48Z</time>
      </trkpt>
      <trkpt lat="47.28944" lon="-1.2931">
        <ele>-7.51</ele>
        <time>2013-11-17T10:18:56Z</time>
      </trkpt>
      <trkpt lat="47.28951" lon="-1.29335">
        <ele>-4.21</ele>
        <time>2013-11-17T10:19:05Z</time>
      </trkpt>
      <trkpt lat="47.28954" lon="-1.29363">
        <ele>-1.56</ele>
        <time>2013-11-17T10:19:15Z</time>
      </trkpt>
      <trkpt lat="47.28954" lon="-1.29392">
        <ele>1.6</ele>
        <time>2013-11-17T10:19:28Z</time>
      </trkpt>
      <trkpt lat="47.28959" lon="-1.29418">
        <ele>3.61</ele>
        <time>2013-11-17T10:19:35Z</time>
      </trkpt>
      <trkpt lat="47.28975" lon="-1.29429">
        <ele>4.23</ele>
        <time>2013-11-17T10:19:39Z</time>
      </trkpt>
      <trkpt lat="47.28994" lon="-1.2942">
        <ele>5.49</ele>
        <time>2013-11-17T10:19:45Z</time>
      </trkpt>
      <trkpt lat="47.29015" lon="-1.2941">
        <ele>7.1</ele>
        <time>2013-11-17T10:19:50Z</time>
      </trkpt>
      <trkpt lat="47.29035" lon="-1.29402">
        <ele>8.7</ele>
        <time>2013-11-17T10:19:55Z</time>
      </trkpt>
      <trkpt lat="47.29056" lon="-1.29394">
        <ele>10.21</ele>
        <time>2013-11-17T10:20:00Z</time>
      </trkpt>
      <trkpt lat="47.29078" lon="-1.29387">
        <ele>10.79</ele>
        <time>2013-11-17T10:20:05Z</time>
      </trkpt>
      <trkpt lat="47.29098" lon="-1.29385">
        <ele>11.74</ele>
        <time>2013-11-17T10:20:09Z</time>
      </trkpt>
      <trkpt lat="47.2912" lon="-1.29383">
        <ele>13.66</ele>
        <time>2013-11-17T10:20:13Z</time>
      </trkpt>
      <trkpt lat="47.2914" lon="-1.29375">
        <ele>13.01</ele>
        <time>2013-11-17T10:20:17Z</time>
      </trkpt>
      <trkpt lat="47.2916" lon="-1.29371">
        <ele>11.75</ele>
        <time>2013-11-17T10:20:21Z</time>
      </trkpt>
      <trkpt lat="47.29182" lon="-1.29368">
        <ele>10.75</ele>
        <time>2013-11-17T10:20:25Z</time>
      </trkpt>
      <trkpt lat="47.292" lon="-1.29367">
        <ele>10.65</ele>
        <time>2013-11-17T10:20:28Z</time>
      </trkpt>
      <trkpt lat="47.29218" lon="-1.29364">
        <ele>11.8</ele>
        <time>2013-11-17T10:20:31Z</time>
      </trkpt>
      <trkpt lat="47.29237" lon="-1.29359">
        <ele>13.28</ele>
        <time>2013-11-17T10:20:34Z</time>
      </trkpt>
      <trkpt lat="47.29259" lon="-1.29352">
        <ele>14.06</ele>
        <time>2013-11-17T10:20:38Z</time>
      </trkpt>
      <trkpt lat="47.29282" lon="-1.29345">
        <ele>15.29</ele>
        <time>2013-11-17T10:20:42Z</time>
      </trkpt>
      <trkpt lat="47.29301" lon="-1.29338">
        <ele>16.83</ele>
        <time>2013-11-17T10:20:45Z</time>
      </trkpt>
      <trkpt lat="47.29321" lon="-1.2933">
        <ele>18.42</ele>
        <time>2013-11-17T10:20:48Z</time>
      </trkpt>
      <trkpt lat="47.29339" lon="-1.29323">
        <ele>18.46</ele>
        <time>2013-11-17T10:20:51Z</time>
      </trkpt>
      <trkpt lat="47.29357" lon="-1.29317">
        <ele>18.65</ele>
        <time>2013-11-17T10:20:54Z</time>
      </trkpt>
      <trkpt lat="47.2937" lon="-1.29336">
        <ele>18.03</ele>
        <time>2013-11-17T10:20:58Z</time>
      </trkpt>
      <trkpt lat="47.29378" lon="-1.2936">
        <ele>17.9</ele>
        <time>2013-11-17T10:21:01Z</time>
      </trkpt>
      <trkpt lat="47.29386" lon="-1.29387">
        <ele>17.85</ele>
        <time>2013-11-17T10:21:04Z</time>
      </trkpt>
      <trkpt lat="47.29392" lon="-1.29412">
        <ele>16.6</ele>
        <time>2013-11-17T10:21:07Z</time>
      </trkpt>
      <trkpt lat="47.29394" lon="-1.29443">
        <ele>15.52</ele>
        <time>2013-11-17T10:21:11Z</time>
      </trkpt>
      <trkpt lat="47.29387" lon="-1.29469">
        <ele>14.55</ele>
        <time>2013-11-17T10:21:15Z</time>
      </trkpt>
      <trkpt lat="47.29374" lon="-1.29496">
        <ele>13.89</ele>
        <time>2013-11-17T10:21:19Z</time>
      </trkpt>
      <trkpt lat="47.29358" lon="-1.29517">
        <ele>12.39</ele>
        <time>2013-11-17T10:21:23Z</time>
      </trkpt>
      <trkpt lat="47.29344" lon="-1.29535">
        <ele>9.13</ele>
        <time>2013-11-17T10:21:27Z</time>
      </trkpt>
      <trkpt lat="47.29326" lon="-1.29548">
        <ele>7.58</ele>
        <time>2013-11-17T10:21:33Z</time>
      </trkpt>
      <trkpt lat="47.29308" lon="-1.29559">
        <ele>6.9</ele>
        <time>2013-11-17T10:21:38Z</time>
      </trkpt>
      <trkpt lat="47.29292" lon="-1.29572">
        <ele>6.41</ele>
        <time>2013-11-17T10:21:43Z</time>
      </trkpt>
      <trkpt lat="47.29275" lon="-1.29583">
        <ele>5.93</ele>
        <time>2013-11-17T10:21:48Z</time>
      </trkpt>
      <trkpt lat="47.29258" lon="-1.29595">
        <ele>6.18</ele>
        <time>2013-11-17T10:21:53Z</time>
      </trkpt>
      <trkpt lat="47.29242" lon="-1.29607">
        <ele>7.44</ele>
        <time>2013-11-17T10:21:57Z</time>
      </trkpt>
      <trkpt lat="47.29225" lon="-1.29623">
        <ele>8.69</ele>
        <time>2013-11-17T10:22:01Z</time>
      </trkpt>
      <trkpt lat="47.29209" lon="-1.2964">
        <ele>10.64</ele>
        <time>2013-11-17T10:22:05Z</time>
      </trkpt>
      <trkpt lat="47.29193" lon="-1.29658">
        <ele>12.84</ele>
        <time>2013-11-17T10:22:10Z</time>
      </trkpt>
      <trkpt lat="47.29178" lon="-1.29674">
        <ele>13.9</ele>
        <time>2013-11-17T10:22:14Z</time>
      </trkpt>
      <trkpt lat="47.29162" lon="-1.29688">
        <ele>15.01</ele>
        <time>2013-11-17T10:22:18Z</time>
      </trkpt>
      <trkpt lat="47.29144" lon="-1.29706">
        <ele>16.51</ele>
        <time>2013-11-17T10:22:23Z</time>
      </trkpt>
      <trkpt lat="47.29128" lon="-1.29724">
        <ele>17.63</ele>
        <time>2013-11-17T10:22:28Z</time>
      </trkpt>
      <trkpt lat="47.29114" lon="-1.29746">
        <ele>19.24</ele>
        <time>2013-11-17T10:22:33Z</time>
      </trkpt>
      <trkpt lat="47.29098" lon="-1.29764">
        <ele>18.86</ele>
        <time>2013-11-17T10:22:37Z</time>
      </trkpt>
      <trkpt lat="47.29085" lon="-1.29784">
        <ele>18.86</ele>
        <time>2013-11-17T10:22:41Z</time>
      </trkpt>
      <trkpt lat="47.29078" lon="-1.29813">
        <ele>19.05</ele>
        <time>2013-11-17T10:22:46Z</time>
      </trkpt>
      <trkpt lat="47.29075" lon="-1.29842">
        <ele>18.39</ele>
        <time>2013-11-17T10:22:51Z</time>
      </trkpt>
      <trkpt lat="47.29063" lon="-1.29868">
        <ele>17.65</ele>
        <time>2013-11-17T10:22:56Z</time>
      </trkpt>
      <trkpt lat="47.29047" lon="-1.29887">
        <ele>16.21</ele>
        <time>2013-11-17T10:23:01Z</time>
      </trkpt>
      <trkpt lat="47.29034" lon="-1.29907">
        <ele>12.39</ele>
        <time>2013-11-17T10:23:07Z</time>
      </trkpt>
      <trkpt lat="47.29034" lon="-1.29934">
        <ele>13.59</ele>
        <time>2013-11-17T10:23:12Z</time>
      </trkpt>
      <trkpt lat="47.29042" lon="-1.29965">
        <ele>13.76</ele>
        <time>2013-11-17T10:23:17Z</time>
      </trkpt>
      <trkpt lat="47.29051" lon="-1.29988">
        <ele>14.34</ele>
        <time>2013-11-17T10:23:21Z</time>
      </trkpt>
      <trkpt lat="47.29061" lon="-1.30013">
        <ele>14.19</ele>
        <time>2013-11-17T10:23:25Z</time>
      </trkpt>
      <trkpt lat="47.29075" lon="-1.3004">
        <ele>11.93</ele>
        <time>2013-11-17T10:23:29Z</time>
      </trkpt>
      <trkpt lat="47.2909" lon="-1.30067">
        <ele>9.24</ele>
        <time>2013-11-17T10:23:33Z</time>
      </trkpt>
      <trkpt lat="47.29104" lon="-1.30087">
        <ele>7.42</ele>
        <time>2013-11-17T10:23:36Z</time>
      </trkpt>
      <trkpt lat="47.29119" lon="-1.30105">
        <ele>6.21</ele>
        <time>2013-11-17T10:23:40Z</time>
      </trkpt>
      <trkpt lat="47.29137" lon="-1.30117">
        <ele>4.37</ele>
        <time>2013-11-17T10:23:45Z</time>
      </trkpt>
      <trkpt lat="47.29158" lon="-1.30108">
        <ele>3.46</ele>
        <time>2013-11-17T10:23:49Z</time>
      </trkpt>
      <trkpt lat="47.29179" lon="-1.30108">
        <ele>3.81</ele>
        <time>2013-11-17T10:23:53Z</time>
      </trkpt>
      <trkpt lat="47.29198" lon="-1.30109">
        <ele>4.17</ele>
        <time>2013-11-17T10:23:56Z</time>
      </trkpt>
      <trkpt lat="47.29218" lon="-1.30106">
        <ele>4.86</ele>
        <time>2013-11-17T10:23:59Z</time>
      </trkpt>
      <trkpt lat="47.29236" lon="-1.30107">
        <ele>6.11</ele>
        <time>2013-11-17T10:24:06Z</time>
      </trkpt>
      <trkpt lat="47.29248" lon="-1.30127">
        <ele>5.55</ele>
        <time>2013-11-17T10:24:28Z</time>
      </trkpt>
      <trkpt lat="47.29266" lon="-1.30134">
        <ele>1.94</ele>
        <time>2013-11-17T10:24:35Z</time>
      </trkpt>
      <trkpt lat="47.29273" lon="-1.30161">
        <ele>-5.16</ele>
        <time>2013-11-17T10:24:49Z</time>
      </trkpt>
      <trkpt lat="47.29264" lon="-1.30184">
        <ele>-6.39</ele>
        <time>2013-11-17T10:25:01Z</time>
      </trkpt>
      <trkpt lat="47.29253" lon="-1.30207">
        <ele>-6.23</ele>
        <time>2013-11-17T10:25:10Z</time>
      </trkpt>
      <trkpt lat="47.29239" lon="-1.30226">
        <ele>-5.82</ele>
        <time>2013-11-17T10:25:18Z</time>
      </trkpt>
      <trkpt lat="47.29224" lon="-1.30242">
        <ele>-5.48</ele>
        <time>2013-11-17T10:25:28Z</time>
      </trkpt>
      <trkpt lat="47.29212" lon="-1.30263">
        <ele>-5.69</ele>
        <time>2013-11-17T10:25:39Z</time>
      </trkpt>
      <trkpt lat="47.2919" lon="-1.3027">
        <ele>-5.93</ele>
        <time>2013-11-17T10:25:44Z</time>
      </trkpt>
      <trkpt lat="47.29173" lon="-1.30283">
        <ele>-6.47</ele>
        <time>2013-11-17T10:25:50Z</time>
      </trkpt>
      <trkpt lat="47.2917" lon="-1.3031">
        <ele>-6.31</ele>
        <time>2013-11-17T10:26:01Z</time>
      </trkpt>
      <trkpt lat="47.29168" lon="-1.30337">
        <ele>-4.54</ele>
        <time>2013-11-17T10:26:11Z</time>
      </trkpt>
      <trkpt lat="47.29175" lon="-1.30362">
        <ele>-3</ele>
        <time>2013-11-17T10:26:19Z</time>
      </trkpt>
      <trkpt lat="47.29181" lon="-1.30388">
        <ele>-1.38</ele>
        <time>2013-11-17T10:26:29Z</time>
      </trkpt>
      <trkpt lat="47.29182" lon="-1.30417">
        <ele>-0.82</ele>
        <time>2013-11-17T10:26:41Z</time>
      </trkpt>
      <trkpt lat="47.29181" lon="-1.30444">
        <ele>-1.09</ele>
        <time>2013-11-17T10:26:56Z</time>
      </trkpt>
      <trkpt lat="47.29175" lon="-1.30469">
        <ele>-0.75</ele>
        <time>2013-11-17T10:27:12Z</time>
      </trkpt>
      <trkpt lat="47.29173" lon="-1.30497">
        <ele>-1.37</ele>
        <time>2013-11-17T10:27:31Z</time>
      </trkpt>
      <trkpt lat="47.29172" lon="-1.30523">
        <ele>-1.39</ele>
        <time>2013-11-17T10:27:47Z</time>
      </trkpt>
      <trkpt lat="47.29163" lon="-1.30547">
        <ele>-1.47</ele>
        <time>2013-11-17T10:27:56Z</time>
      </trkpt>
      <trkpt lat="47.2916" lon="-1.30573">
        <ele>-1.34</ele>
        <time>2013-11-17T10:28:04Z</time>
      </trkpt>
      <trkpt lat="47.29164" lon="-1.30601">
        <ele>0.55</ele>
        <time>2013-11-17T10:28:10Z</time>
      </trkpt>
      <trkpt lat="47.29167" lon="-1.30629">
        <ele>2.54</ele>
        <time>2013-11-17T10:28:16Z</time>
      </trkpt>
      <trkpt lat="47.29168" lon="-1.30661">
        <ele>4.55</ele>
        <time>2013-11-17T10:28:22Z</time>
      </trkpt>
      <trkpt lat="47.2917" lon="-1.30689">
        <ele>5.81</ele>
        <time>2013-11-17T10:28:27Z</time>
      </trkpt>
      <trkpt lat="47.29173" lon="-1.30717">
        <ele>6.86</ele>
        <time>2013-11-17T10:28:32Z</time>
      </trkpt>
      <trkpt lat="47.29177" lon="-1.30749">
        <ele>7.78</ele>
        <time>2013-11-17T10:28:38Z</time>
      </trkpt>
      <trkpt lat="47.29182" lon="-1.30779">
        <ele>8.4</ele>
        <time>2013-11-17T10:28:43Z</time>
      </trkpt>
      <trkpt lat="47.29184" lon="-1.30809">
        <ele>9.61</ele>
        <time>2013-11-17T10:28:49Z</time>
      </trkpt>
      <trkpt lat="47.29186" lon="-1.30837">
        <ele>9.88</ele>
        <time>2013-11-17T10:28:54Z</time>
      </trkpt>
      <trkpt lat="47.29187" lon="-1.30864">
        <ele>10.42</ele>
        <time>2013-11-17T10:28:59Z</time>
      </trkpt>
      <trkpt lat="47.29188" lon="-1.30892">
        <ele>11.99</ele>
        <time>2013-11-17T10:29:04Z</time>
      </trkpt>
      <trkpt lat="47.29185" lon="-1.30919">
        <ele>12.83</ele>
        <time>2013-11-17T10:29:08Z</time>
      </trkpt>
      <trkpt lat="47.29178" lon="-1.30945">
        <ele>14.09</ele>
        <time>2013-11-17T10:29:13Z</time>
      </trkpt>
      <trkpt lat="47.29169" lon="-1.30972">
        <ele>14.92</ele>
        <time>2013-11-17T10:29:18Z</time>
      </trkpt>
      <trkpt lat="47.29159" lon="-1.30998">
        <ele>15.84</ele>
        <time>2013-11-17T10:29:23Z</time>
      </trkpt>
      <trkpt lat="47.29148" lon="-1.31023">
        <ele>16.72</ele>
        <time>2013-11-17T10:29:28Z</time>
      </trkpt>
      <trkpt lat="47.29152" lon="-1.31051">
        <ele>16.12</ele>
        <time>2013-11-17T10:29:34Z</time>
      </trkpt>
      <trkpt lat="47.29174" lon="-1.31064">
        <ele>15.58</ele>
        <time>2013-11-17T10:29:38Z</time>
      </trkpt>
      <trkpt lat="47.29195" lon="-1.31072">
        <ele>14.97</ele>
        <time>2013-11-17T10:29:42Z</time>
      </trkpt>
      <trkpt lat="47.29214" lon="-1.31078">
        <ele>15.34</ele>
        <time>2013-11-17T10:29:46Z</time>
      </trkpt>
      <trkpt lat="47.29236" lon="-1.3108">
        <ele>16.1</ele>
        <time>2013-11-17T10:29:50Z</time>
      </trkpt>
      <trkpt lat="47.29258" lon="-1.31081">
        <ele>16.89</ele>
        <time>2013-11-17T10:29:54Z</time>
      </trkpt>
      <trkpt lat="47.29278" lon="-1.31081">
        <ele>17.64</ele>
        <time>2013-11-17T10:29:58Z</time>
      </trkpt>
      <trkpt lat="47.29299" lon="-1.31081">
        <ele>18.2</ele>
        <time>2013-11-17T10:30:02Z</time>
      </trkpt>
      <trkpt lat="47.29321" lon="-1.31082">
        <ele>19.63</ele>
        <time>2013-11-17T10:30:06Z</time>
      </trkpt>
      <trkpt lat="47.29343" lon="-1.31082">
        <ele>21.8</ele>
        <time>2013-11-17T10:30:10Z</time>
      </trkpt>
      <trkpt lat="47.29365" lon="-1.31082">
        <ele>22.2</ele>
        <time>2013-11-17T10:30:14Z</time>
      </trkpt>
      <trkpt lat="47.29386" lon="-1.31081">
        <ele>21.85</ele>
        <time>2013-11-17T10:30:18Z</time>
      </trkpt>
      <trkpt lat="47.29406" lon="-1.31076">
        <ele>21.19</ele>
        <time>2013-11-17T10:30:22Z</time>
      </trkpt>
      <trkpt lat="47.29427" lon="-1.31067">
        <ele>21.52</ele>
        <time>2013-11-17T10:30:26Z</time>
      </trkpt>
      <trkpt lat="47.29445" lon="-1.31055">
        <ele>21.85</ele>
        <time>2013-11-17T10:30:30Z</time>
      </trkpt>
      <trkpt lat="47.29463" lon="-1.31044">
        <ele>23.05</ele>
        <time>2013-11-17T10:30:34Z</time>
      </trkpt>
      <trkpt lat="47.29482" lon="-1.31031">
        <ele>23.75</ele>
        <time>2013-11-17T10:30:38Z</time>
      </trkpt>
      <trkpt lat="47.295" lon="-1.3102">
        <ele>22.97</ele>
        <time>2013-11-17T10:30:42Z</time>
      </trkpt>
      <trkpt lat="47.29518" lon="-1.31013">
        <ele>23.38</ele>
        <time>2013-11-17T10:30:45Z</time>
      </trkpt>
      <trkpt lat="47.29539" lon="-1.31015">
        <ele>23.67</ele>
        <time>2013-11-17T10:30:49Z</time>
      </trkpt>
      <trkpt lat="47.2956" lon="-1.31022">
        <ele>24.88</ele>
        <time>2013-11-17T10:30:54Z</time>
      </trkpt>
      <trkpt lat="47.2958" lon="-1.31027">
        <ele>24.57</ele>
        <time>2013-11-17T10:30:59Z</time>
      </trkpt>
      <trkpt lat="47.29588" lon="-1.31051">
        <ele>18.22</ele>
        <time>2013-11-17T10:31:07Z</time>
      </trkpt>
      <trkpt lat="47.2958" lon="-1.31079">
        <ele>18.18</ele>
        <time>2013-11-17T10:31:11Z</time>
      </trkpt>
      <trkpt lat="47.2957" lon="-1.31107">
        <ele>17.74</ele>
        <time>2013-11-17T10:31:15Z</time>
      </trkpt>
      <trkpt lat="47.29558" lon="-1.31136">
        <ele>17.74</ele>
        <time>2013-11-17T10:31:19Z</time>
      </trkpt>
      <trkpt lat="47.29549" lon="-1.31161">
        <ele>17.43</ele>
        <time>2013-11-17T10:31:22Z</time>
      </trkpt>
      <trkpt lat="47.29533" lon="-1.31186">
        <ele>16.95</ele>
        <time>2013-11-17T10:31:25Z</time>
      </trkpt>
      <trkpt lat="47.29521" lon="-1.31207">
        <ele>17.05</ele>
        <time>2013-11-17T10:31:28Z</time>
      </trkpt>
      <trkpt lat="47.2951" lon="-1.31229">
        <ele>16.66</ele>
        <time>2013-11-17T10:31:31Z</time>
      </trkpt>
      <trkpt lat="47.29499" lon="-1.31254">
        <ele>15.85</ele>
        <time>2013-11-17T10:31:34Z</time>
      </trkpt>
      <trkpt lat="47.29489" lon="-1.31282">
        <ele>15.26</ele>
        <time>2013-11-17T10:31:37Z</time>
      </trkpt>
      <trkpt lat="47.29476" lon="-1.3131">
        <ele>14.45</ele>
        <time>2013-11-17T10:31:40Z</time>
      </trkpt>
      <trkpt lat="47.29463" lon="-1.31337">
        <ele>13.45</ele>
        <time>2013-11-17T10:31:43Z</time>
      </trkpt>
      <trkpt lat="47.29451" lon="-1.31364">
        <ele>12.74</ele>
        <time>2013-11-17T10:31:46Z</time>
      </trkpt>
      <trkpt lat="47.29444" lon="-1.31391">
        <ele>12.37</ele>
        <time>2013-11-17T10:31:49Z</time>
      </trkpt>
      <trkpt lat="47.29442" lon="-1.3142">
        <ele>12.06</ele>
        <time>2013-11-17T10:31:52Z</time>
      </trkpt>
      <trkpt lat="47.29441" lon="-1.31449">
        <ele>11.94</ele>
        <time>2013-11-17T10:31:55Z</time>
      </trkpt>
      <trkpt lat="47.29443" lon="-1.31481">
        <ele>11.81</ele>
        <time>2013-11-17T10:31:58Z</time>
      </trkpt>
      <trkpt lat="47.29445" lon="-1.3151">
        <ele>11.64</ele>
        <time>2013-11-17T10:32:01Z</time>
      </trkpt>
      <trkpt lat="47.29446" lon="-1.31537">
        <ele>11.5</ele>
        <time>2013-11-17T10:32:04Z</time>
      </trkpt>
      <trkpt lat="47.29448" lon="-1.3157">
        <ele>11.16</ele>
        <time>2013-11-17T10:32:08Z</time>
      </trkpt>
      <trkpt lat="47.29466" lon="-1.31595">
        <ele>10.27</ele>
        <time>2013-11-17T10:32:12Z</time>
      </trkpt>
      <trkpt lat="47.29485" lon="-1.31586">
        <ele>8.36</ele>
        <time>2013-11-17T10:32:16Z</time>
      </trkpt>
      <trkpt lat="47.29504" lon="-1.31579">
        <ele>8.31</ele>
        <time>2013-11-17T10:32:19Z</time>
      </trkpt>
      <trkpt lat="47.29527" lon="-1.31576">
        <ele>8.63</ele>
        <time>2013-11-17T10:32:22Z</time>
      </trkpt>
      <trkpt lat="47.2955" lon="-1.31571">
        <ele>8.71</ele>
        <time>2013-11-17T10:32:25Z</time>
      </trkpt>
      <trkpt lat="47.29573" lon="-1.31568">
        <ele>8.46</ele>
        <time>2013-11-17T10:32:28Z</time>
      </trkpt>
      <trkpt lat="47.29595" lon="-1.31569">
        <ele>6.77</ele>
        <time>2013-11-17T10:32:32Z</time>
      </trkpt>
      <trkpt lat="47.29599" lon="-1.31598">
        <ele>3.81</ele>
        <time>2013-11-17T10:32:36Z</time>
      </trkpt>
      <trkpt lat="47.29597" lon="-1.31627">
        <ele>3.28</ele>
        <time>2013-11-17T10:32:39Z</time>
      </trkpt>
      <trkpt lat="47.29596" lon="-1.31655">
        <ele>2.91</ele>
        <time>2013-11-17T10:32:42Z</time>
      </trkpt>
      <trkpt lat="47.29595" lon="-1.31681">
        <ele>2.14</ele>
        <time>2013-11-17T10:32:45Z</time>
      </trkpt>
      <trkpt lat="47.29596" lon="-1.31712">
        <ele>1.72</ele>
        <time>2013-11-17T10:32:48Z</time>
      </trkpt>
      <trkpt lat="47.29597" lon="-1.31745">
        <ele>1.14</ele>
        <time>2013-11-17T10:32:52Z</time>
      </trkpt>
      <trkpt lat="47.29596" lon="-1.31772">
        <ele>0.79</ele>
        <time>2013-11-17T10:32:56Z</time>
      </trkpt>
      <trkpt lat="47.29596" lon="-1.31805">
        <ele>0.55</ele>
        <time>2013-11-17T10:33:01Z</time>
      </trkpt>
      <trkpt lat="47.29594" lon="-1.31832">
        <ele>0.19</ele>
        <time>2013-11-17T10:33:06Z</time>
      </trkpt>
      <trkpt lat="47.29588" lon="-1.31858">
        <ele>-0.22</ele>
        <time>2013-11-17T10:33:11Z</time>
      </trkpt>
      <trkpt lat="47.29581" lon="-1.31885">
        <ele>0.29</ele>
        <time>2013-11-17T10:33:15Z</time>
      </trkpt>
      <trkpt lat="47.29585" lon="-1.3191">
        <ele>0.1</ele>
        <time>2013-11-17T10:33:19Z</time>
      </trkpt>
      <trkpt lat="47.296" lon="-1.31927">
        <ele>-0.76</ele>
        <time>2013-11-17T10:33:23Z</time>
      </trkpt>
      <trkpt lat="47.29615" lon="-1.31946">
        <ele>-1.63</ele>
        <time>2013-11-17T10:33:31Z</time>
      </trkpt>
      <trkpt lat="47.29626" lon="-1.31969">
        <ele>-0.93</ele>
        <time>2013-11-17T10:33:40Z</time>
      </trkpt>
      <trkpt lat="47.2963" lon="-1.31997">
        <ele>-0.63</ele>
        <time>2013-11-17T10:33:50Z</time>
      </trkpt>
      <trkpt lat="47.29629" lon="-1.32025">
        <ele>-0.85</ele>
        <time>2013-11-17T10:33:59Z</time>
      </trkpt>
      <trkpt lat="47.29614" lon="-1.32045">
        <ele>-3.44</ele>
        <time>2013-11-17T10:34:11Z</time>
      </trkpt>
      <trkpt lat="47.29593" lon="-1.32046">
        <ele>-5.39</ele>
        <time>2013-11-17T10:34:16Z</time>
      </trkpt>
      <trkpt lat="47.29612" lon="-1.32041">
        <ele>-5.21</ele>
        <time>2013-11-17T10:34:23Z</time>
      </trkpt>
      <trkpt lat="47.2963" lon="-1.32047">
        <ele>-4.85</ele>
        <time>2013-11-17T10:34:29Z</time>
      </trkpt>
      <trkpt lat="47.29626" lon="-1.32078">
        <ele>-6.24</ele>
        <time>2013-11-17T10:34:44Z</time>
      </trkpt>
      <trkpt lat="47.29603" lon="-1.32087">
        <ele>-7.55</ele>
        <time>2013-11-17T10:34:54Z</time>
      </trkpt>
      <trkpt lat="47.29617" lon="-1.32104">
        <ele>-3.4</ele>
        <time>2013-11-17T10:35:20Z</time>
      </trkpt>
      <trkpt lat="47.29631" lon="-1.32124">
        <ele>-2.48</ele>
        <time>2013-11-17T10:35:28Z</time>
      </trkpt>
      <trkpt lat="47.29652" lon="-1.32128">
        <ele>-1.62</ele>
        <time>2013-11-17T10:35:33Z</time>
      </trkpt>
      <trkpt lat="47.29674" lon="-1.32126">
        <ele>-0.96</ele>
        <time>2013-11-17T10:35:37Z</time>
      </trkpt>
      <trkpt lat="47.29693" lon="-1.32119">
        <ele>-0.94</ele>
        <time>2013-11-17T10:35:40Z</time>
      </trkpt>
      <trkpt lat="47.2971" lon="-1.32111">
        <ele>-0.95</ele>
        <time>2013-11-17T10:35:43Z</time>
      </trkpt>
      <trkpt lat="47.2973" lon="-1.32102">
        <ele>-1.35</ele>
        <time>2013-11-17T10:35:47Z</time>
      </trkpt>
      <trkpt lat="47.29749" lon="-1.32099">
        <ele>-3.26</ele>
        <time>2013-11-17T10:35:54Z</time>
      </trkpt>
      <trkpt lat="47.29767" lon="-1.32092">
        <ele>-4.98</ele>
        <time>2013-11-17T10:36:01Z</time>
      </trkpt>
      <trkpt lat="47.29784" lon="-1.32085">
        <ele>-7.96</ele>
        <time>2013-11-17T10:36:06Z</time>
      </trkpt>
      <trkpt lat="47.29796" lon="-1.32062">
        <ele>-9.65</ele>
        <time>2013-11-17T10:36:11Z</time>
      </trkpt>
      <trkpt lat="47.29811" lon="-1.32047">
        <ele>-9.66</ele>
        <time>2013-11-17T10:36:16Z</time>
      </trkpt>
      <trkpt lat="47.29829" lon="-1.32034">
        <ele>-10.85</ele>
        <time>2013-11-17T10:36:20Z</time>
      </trkpt>
      <trkpt lat="47.29847" lon="-1.3202">
        <ele>-11.21</ele>
        <time>2013-11-17T10:36:24Z</time>
      </trkpt>
      <trkpt lat="47.29864" lon="-1.32007">
        <ele>-11.77</ele>
        <time>2013-11-17T10:36:27Z</time>
      </trkpt>
      <trkpt lat="47.29882" lon="-1.31992">
        <ele>-13.63</ele>
        <time>2013-11-17T10:36:30Z</time>
      </trkpt>
      <trkpt lat="47.299" lon="-1.31983">
        <ele>-19.61</ele>
        <time>2013-11-17T10:36:34Z</time>
      </trkpt>
      <trkpt lat="47.29895" lon="-1.31951">
        <ele>-22.14</ele>
        <time>2013-11-17T10:36:46Z</time>
      </trkpt>
      <trkpt lat="47.299" lon="-1.31924">
        <ele>-24.33</ele>
        <time>2013-11-17T10:36:56Z</time>
      </trkpt>
      <trkpt lat="47.29914" lon="-1.31905">
        <ele>-26.3</ele>
        <time>2013-11-17T10:37:07Z</time>
      </trkpt>
      <trkpt lat="47.2993" lon="-1.31889">
        <ele>-28.83</ele>
        <time>2013-11-17T10:37:16Z</time>
      </trkpt>
      <trkpt lat="47.29949" lon="-1.31878">
        <ele>-29.03</ele>
        <time>2013-11-17T10:37:22Z</time>
      </trkpt>
      <trkpt lat="47.29967" lon="-1.31865">
        <ele>-29.06</ele>
        <time>2013-11-17T10:37:27Z</time>
      </trkpt>
      <trkpt lat="47.29987" lon="-1.31855">
        <ele>-28.92</ele>
        <time>2013-11-17T10:37:32Z</time>
      </trkpt>
      <trkpt lat="47.30007" lon="-1.3186">
        <ele>-29.44</ele>
        <time>2013-11-17T10:37:37Z</time>
      </trkpt>
      <trkpt lat="47.30024" lon="-1.31871">
        <ele>-30.67</ele>
        <time>2013-11-17T10:37:43Z</time>
      </trkpt>
      <trkpt lat="47.30037" lon="-1.31892">
        <ele>-28.41</ele>
        <time>2013-11-17T10:37:53Z</time>
      </trkpt>
      <trkpt lat="47.30035" lon="-1.3192">
        <ele>-26.6</ele>
        <time>2013-11-17T10:38:03Z</time>
      </trkpt>
      <trkpt lat="47.30021" lon="-1.31937">
        <ele>-26.41</ele>
        <time>2013-11-17T10:38:13Z</time>
      </trkpt>
      <trkpt lat="47.30041" lon="-1.31928">
        <ele>-26.25</ele>
        <time>2013-11-17T10:38:23Z</time>
      </trkpt>
      <trkpt lat="47.30061" lon="-1.31926">
        <ele>-25.67</ele>
        <time>2013-11-17T10:38:28Z</time>
      </trkpt>
      <trkpt lat="47.30083" lon="-1.31925">
        <ele>-24.61</ele>
        <time>2013-11-17T10:38:33Z</time>
      </trkpt>
      <trkpt lat="47.301" lon="-1.31911">
        <ele>-23.53</ele>
        <time>2013-11-17T10:38:39Z</time>
      </trkpt>
      <trkpt lat="47.30116" lon="-1.31892">
        <ele>-22.99</ele>
        <time>2013-11-17T10:38:49Z</time>
      </trkpt>
      <trkpt lat="47.30134" lon="-1.31888">
        <ele>-22.4</ele>
        <time>2013-11-17T10:38:57Z</time>
      </trkpt>
      <trkpt lat="47.30154" lon="-1.31888">
        <ele>-21.81</ele>
        <time>2013-11-17T10:39:04Z</time>
      </trkpt>
      <trkpt lat="47.30172" lon="-1.31877">
        <ele>-22.52</ele>
        <time>2013-11-17T10:39:10Z</time>
      </trkpt>
      <trkpt lat="47.30189" lon="-1.31865">
        <ele>-22.67</ele>
        <time>2013-11-17T10:39:15Z</time>
      </trkpt>
      <trkpt lat="47.30206" lon="-1.31853">
        <ele>-21.62</ele>
        <time>2013-11-17T10:39:20Z</time>
      </trkpt>
      <trkpt lat="47.30227" lon="-1.31844">
        <ele>-19.76</ele>
        <time>2013-11-17T10:39:26Z</time>
      </trkpt>
      <trkpt lat="47.30246" lon="-1.31838">
        <ele>-18.02</ele>
        <time>2013-11-17T10:39:32Z</time>
      </trkpt>
      <trkpt lat="47.30263" lon="-1.31827">
        <ele>-16.81</ele>
        <time>2013-11-17T10:39:38Z</time>
      </trkpt>
      <trkpt lat="47.30284" lon="-1.3182">
        <ele>-15.6</ele>
        <time>2013-11-17T10:39:44Z</time>
      </trkpt>
      <trkpt lat="47.30303" lon="-1.3182">
        <ele>-16.11</ele>
        <time>2013-11-17T10:39:50Z</time>
      </trkpt>
      <trkpt lat="47.30325" lon="-1.31822">
        <ele>-18.13</ele>
        <time>2013-11-17T10:39:55Z</time>
      </trkpt>
      <trkpt lat="47.30346" lon="-1.31825">
        <ele>-21.28</ele>
        <time>2013-11-17T10:40:01Z</time>
      </trkpt>
      <trkpt lat="47.30364" lon="-1.31831">
        <ele>-25.36</ele>
        <time>2013-11-17T10:40:07Z</time>
      </trkpt>
      <trkpt lat="47.3038" lon="-1.31846">
        <ele>-27.03</ele>
        <time>2013-11-17T10:40:15Z</time>
      </trkpt>
      <trkpt lat="47.30398" lon="-1.31858">
        <ele>-29.81</ele>
        <time>2013-11-17T10:40:23Z</time>
      </trkpt>
      <trkpt lat="47.30418" lon="-1.31869">
        <ele>-32.77</ele>
        <time>2013-11-17T10:40:28Z</time>
      </trkpt>
      <trkpt lat="47.30432" lon="-1.31888">
        <ele>-32.8</ele>
        <time>2013-11-17T10:40:33Z</time>
      </trkpt>
      <trkpt lat="47.30446" lon="-1.31911">
        <ele>-33.67</ele>
        <time>2013-11-17T10:40:38Z</time>
      </trkpt>
      <trkpt lat="47.30458" lon="-1.31944">
        <ele>-33.78</ele>
        <time>2013-11-17T10:40:43Z</time>
      </trkpt>
      <trkpt lat="47.30468" lon="-1.31975">
        <ele>-33.51</ele>
        <time>2013-11-17T10:40:46Z</time>
      </trkpt>
      <trkpt lat="47.30478" lon="-1.32006">
        <ele>-34.73</ele>
        <time>2013-11-17T10:40:50Z</time>
      </trkpt>
      <trkpt lat="47.3049" lon="-1.32034">
        <ele>-34.84</ele>
        <time>2013-11-17T10:40:54Z</time>
      </trkpt>
      <trkpt lat="47.305" lon="-1.32057">
        <ele>-34.75</ele>
        <time>2013-11-17T10:40:59Z</time>
      </trkpt>
      <trkpt lat="47.30509" lon="-1.32082">
        <ele>-35.83</ele>
        <time>2013-11-17T10:41:07Z</time>
      </trkpt>
      <trkpt lat="47.30522" lon="-1.32101">
        <ele>-38.66</ele>
        <time>2013-11-17T10:41:15Z</time>
      </trkpt>
      <trkpt lat="47.30528" lon="-1.32126">
        <ele>-37.23</ele>
        <time>2013-11-17T10:41:25Z</time>
      </trkpt>
      <trkpt lat="47.30531" lon="-1.32159">
        <ele>-35.29</ele>
        <time>2013-11-17T10:41:43Z</time>
      </trkpt>
      <trkpt lat="47.30522" lon="-1.32183">
        <ele>-34.61</ele>
        <time>2013-11-17T10:41:57Z</time>
      </trkpt>
      <trkpt lat="47.30507" lon="-1.32201">
        <ele>-33.52</ele>
        <time>2013-11-17T10:42:04Z</time>
      </trkpt>
      <trkpt lat="47.30494" lon="-1.32224">
        <ele>-32.33</ele>
        <time>2013-11-17T10:42:12Z</time>
      </trkpt>
      <trkpt lat="47.30486" lon="-1.32247">
        <ele>-32.12</ele>
        <time>2013-11-17T10:42:18Z</time>
      </trkpt>
      <trkpt lat="47.30468" lon="-1.32255">
        <ele>-31.17</ele>
        <time>2013-11-17T10:42:23Z</time>
      </trkpt>
      <trkpt lat="47.30447" lon="-1.32261">
        <ele>-30.22</ele>
        <time>2013-11-17T10:42:27Z</time>
      </trkpt>
      <trkpt lat="47.30429" lon="-1.32268">
        <ele>-29.17</ele>
        <time>2013-11-17T10:42:32Z</time>
      </trkpt>
      <trkpt lat="47.30407" lon="-1.32271">
        <ele>-27.91</ele>
        <time>2013-11-17T10:42:37Z</time>
      </trkpt>
      <trkpt lat="47.30389" lon="-1.32283">
        <ele>-26.81</ele>
        <time>2013-11-17T10:42:42Z</time>
      </trkpt>
      <trkpt lat="47.3037" lon="-1.32284">
        <ele>-26.32</ele>
        <time>2013-11-17T10:42:45Z</time>
      </trkpt>
      <trkpt lat="47.30349" lon="-1.32288">
        <ele>-27.33</ele>
        <time>2013-11-17T10:42:50Z</time>
      </trkpt>
      <trkpt lat="47.30333" lon="-1.32304">
        <ele>-27.93</ele>
        <time>2013-11-17T10:42:56Z</time>
      </trkpt>
      <trkpt lat="47.30323" lon="-1.3233">
        <ele>-29.31</ele>
        <time>2013-11-17T10:43:02Z</time>
      </trkpt>
      <trkpt lat="47.30323" lon="-1.32357">
        <ele>-29.8</ele>
        <time>2013-11-17T10:43:09Z</time>
      </trkpt>
      <trkpt lat="47.30325" lon="-1.32388">
        <ele>-29.92</ele>
        <time>2013-11-17T10:43:15Z</time>
      </trkpt>
      <trkpt lat="47.30325" lon="-1.32419">
        <ele>-30.11</ele>
        <time>2013-11-17T10:43:22Z</time>
      </trkpt>
      <trkpt lat="47.30324" lon="-1.32447">
        <ele>-33.48</ele>
        <time>2013-11-17T10:43:31Z</time>
      </trkpt>
      <trkpt lat="47.30321" lon="-1.32477">
        <ele>-33.8</ele>
        <time>2013-11-17T10:43:38Z</time>
      </trkpt>
      <trkpt lat="47.30316" lon="-1.32502">
        <ele>-32.95</ele>
        <time>2013-11-17T10:43:48Z</time>
      </trkpt>
      <trkpt lat="47.30314" lon="-1.32531">
        <ele>-32.37</ele>
        <time>2013-11-17T10:43:56Z</time>
      </trkpt>
      <trkpt lat="47.30317" lon="-1.32557">
        <ele>-31.6</ele>
        <time>2013-11-17T10:44:01Z</time>
      </trkpt>
      <trkpt lat="47.30321" lon="-1.32591">
        <ele>-30.75</ele>
        <time>2013-11-17T10:44:07Z</time>
      </trkpt>
      <trkpt lat="47.30317" lon="-1.32617">
        <ele>-31.15</ele>
        <time>2013-11-17T10:44:13Z</time>
      </trkpt>
      <trkpt lat="47.30321" lon="-1.32643">
        <ele>-32.94</ele>
        <time>2013-11-17T10:44:21Z</time>
      </trkpt>
      <trkpt lat="47.30328" lon="-1.32673">
        <ele>-33.27</ele>
        <time>2013-11-17T10:44:29Z</time>
      </trkpt>
      <trkpt lat="47.30337" lon="-1.32697">
        <ele>-33.39</ele>
        <time>2013-11-17T10:44:36Z</time>
      </trkpt>
      <trkpt lat="47.30348" lon="-1.3272">
        <ele>-33.9</ele>
        <time>2013-11-17T10:44:45Z</time>
      </trkpt>
      <trkpt lat="47.30355" lon="-1.32745">
        <ele>-34.66</ele>
        <time>2013-11-17T10:44:56Z</time>
      </trkpt>
      <trkpt lat="47.30362" lon="-1.32772">
        <ele>-36.06</ele>
        <time>2013-11-17T10:45:14Z</time>
      </trkpt>
      <trkpt lat="47.30394" lon="-1.32852">
        <ele>-36.11</ele>
        <time>2013-11-17T10:45:20Z</time>
      </trkpt>
      <trkpt lat="47.30409" lon="-1.32874">
        <ele>-37.81</ele>
        <time>2013-11-17T10:45:25Z</time>
      </trkpt>
      <trkpt lat="47.30426" lon="-1.32883">
        <ele>-39.33</ele>
        <time>2013-11-17T10:45:40Z</time>
      </trkpt>
      <trkpt lat="47.30442" lon="-1.3287">
        <ele>-39.11</ele>
        <time>2013-11-17T10:45:51Z</time>
      </trkpt>
      <trkpt lat="47.30454" lon="-1.32849">
        <ele>-38.3</ele>
        <time>2013-11-17T10:45:59Z</time>
      </trkpt>
      <trkpt lat="47.30468" lon="-1.32828">
        <ele>-35.33</ele>
        <time>2013-11-17T10:46:05Z</time>
      </trkpt>
      <trkpt lat="47.30481" lon="-1.32806">
        <ele>-32.21</ele>
        <time>2013-11-17T10:46:13Z</time>
      </trkpt>
      <trkpt lat="47.30493" lon="-1.32782">
        <ele>-29.37</ele>
        <time>2013-11-17T10:46:21Z</time>
      </trkpt>
      <trkpt lat="47.30506" lon="-1.32759">
        <ele>-27.84</ele>
        <time>2013-11-17T10:46:28Z</time>
      </trkpt>
      <trkpt lat="47.30518" lon="-1.32737">
        <ele>-26.74</ele>
        <time>2013-11-17T10:46:35Z</time>
      </trkpt>
      <trkpt lat="47.3053" lon="-1.32715">
        <ele>-25.44</ele>
        <time>2013-11-17T10:46:43Z</time>
      </trkpt>
      <trkpt lat="47.30542" lon="-1.32693">
        <ele>-25.33</ele>
        <time>2013-11-17T10:46:50Z</time>
      </trkpt>
      <trkpt lat="47.30555" lon="-1.32671">
        <ele>-24.03</ele>
        <time>2013-11-17T10:46:57Z</time>
      </trkpt>
      <trkpt lat="47.30569" lon="-1.32651">
        <ele>-26.61</ele>
        <time>2013-11-17T10:47:03Z</time>
      </trkpt>
      <trkpt lat="47.30583" lon="-1.3263">
        <ele>-26.53</ele>
        <time>2013-11-17T10:47:10Z</time>
      </trkpt>
      <trkpt lat="47.30595" lon="-1.32608">
        <ele>-26.28</ele>
        <time>2013-11-17T10:47:16Z</time>
      </trkpt>
      <trkpt lat="47.30607" lon="-1.32585">
        <ele>-26.21</ele>
        <time>2013-11-17T10:47:22Z</time>
      </trkpt>
      <trkpt lat="47.30618" lon="-1.32563">
        <ele>-25.82</ele>
        <time>2013-11-17T10:47:28Z</time>
      </trkpt>
      <trkpt lat="47.30629" lon="-1.32538">
        <ele>-25.69</ele>
        <time>2013-11-17T10:47:34Z</time>
      </trkpt>
      <trkpt lat="47.30638" lon="-1.32514">
        <ele>-22.88</ele>
        <time>2013-11-17T10:47:40Z</time>
      </trkpt>
      <trkpt lat="47.3065" lon="-1.32489">
        <ele>-23.22</ele>
        <time>2013-11-17T10:47:46Z</time>
      </trkpt>
      <trkpt lat="47.30664" lon="-1.3247">
        <ele>-22.94</ele>
        <time>2013-11-17T10:47:52Z</time>
      </trkpt>
      <trkpt lat="47.30678" lon="-1.32453">
        <ele>-21.69</ele>
        <time>2013-11-17T10:47:58Z</time>
      </trkpt>
      <trkpt lat="47.30698" lon="-1.32456">
        <ele>-22.45</ele>
        <time>2013-11-17T10:48:07Z</time>
      </trkpt>
      <trkpt lat="47.30714" lon="-1.32475">
        <ele>-22.37</ele>
        <time>2013-11-17T10:48:14Z</time>
      </trkpt>
      <trkpt lat="47.3073" lon="-1.32486">
        <ele>-21.66</ele>
        <time>2013-11-17T10:48:19Z</time>
      </trkpt>
      <trkpt lat="47.30747" lon="-1.32501">
        <ele>-22.18</ele>
        <time>2013-11-17T10:48:23Z</time>
      </trkpt>
      <trkpt lat="47.30765" lon="-1.32524">
        <ele>-23.82</ele>
        <time>2013-11-17T10:48:27Z</time>
      </trkpt>
      <trkpt lat="47.30782" lon="-1.32545">
        <ele>-24.47</ele>
        <time>2013-11-17T10:48:31Z</time>
      </trkpt>
      <trkpt lat="47.30798" lon="-1.32566">
        <ele>-25.53</ele>
        <time>2013-11-17T10:48:35Z</time>
      </trkpt>
      <trkpt lat="47.30815" lon="-1.32588">
        <ele>-28.18</ele>
        <time>2013-11-17T10:48:39Z</time>
      </trkpt>
      <trkpt lat="47.30832" lon="-1.32606">
        <ele>-29.22</ele>
        <time>2013-11-17T10:48:43Z</time>
      </trkpt>
      <trkpt lat="47.30847" lon="-1.32626">
        <ele>-29.69</ele>
        <time>2013-11-17T10:48:47Z</time>
      </trkpt>
      <trkpt lat="47.30865" lon="-1.32612">
        <ele>-26.42</ele>
        <time>2013-11-17T10:48:53Z</time>
      </trkpt>
      <trkpt lat="47.30877" lon="-1.32591">
        <ele>-26.07</ele>
        <time>2013-11-17T10:48:57Z</time>
      </trkpt>
      <trkpt lat="47.30885" lon="-1.32563">
        <ele>-25.91</ele>
        <time>2013-11-17T10:49:02Z</time>
      </trkpt>
      <trkpt lat="47.30884" lon="-1.32531">
        <ele>-24.76</ele>
        <time>2013-11-17T10:49:07Z</time>
      </trkpt>
      <trkpt lat="47.30883" lon="-1.32501">
        <ele>-23.59</ele>
        <time>2013-11-17T10:49:11Z</time>
      </trkpt>
      <trkpt lat="47.30881" lon="-1.32472">
        <ele>-21.9</ele>
        <time>2013-11-17T10:49:15Z</time>
      </trkpt>
      <trkpt lat="47.30877" lon="-1.32445">
        <ele>-19.45</ele>
        <time>2013-11-17T10:49:19Z</time>
      </trkpt>
      <trkpt lat="47.30878" lon="-1.32418">
        <ele>-18</ele>
        <time>2013-11-17T10:49:23Z</time>
      </trkpt>
      <trkpt lat="47.30884" lon="-1.32392">
        <ele>-18.27</ele>
        <time>2013-11-17T10:49:27Z</time>
      </trkpt>
      <trkpt lat="47.30891" lon="-1.32362">
        <ele>-17.7</ele>
        <time>2013-11-17T10:49:32Z</time>
      </trkpt>
      <trkpt lat="47.30892" lon="-1.32332">
        <ele>-15.83</ele>
        <time>2013-11-17T10:49:37Z</time>
      </trkpt>
      <trkpt lat="47.30897" lon="-1.32302">
        <ele>-14.67</ele>
        <time>2013-11-17T10:49:43Z</time>
      </trkpt>
      <trkpt lat="47.30904" lon="-1.32275">
        <ele>-15.65</ele>
        <time>2013-11-17T10:49:48Z</time>
      </trkpt>
      <trkpt lat="47.30912" lon="-1.32249">
        <ele>-15.23</ele>
        <time>2013-11-17T10:49:54Z</time>
      </trkpt>
      <trkpt lat="47.30902" lon="-1.32227">
        <ele>-8.98</ele>
        <time>2013-11-17T10:50:06Z</time>
      </trkpt>
      <trkpt lat="47.30892" lon="-1.32203">
        <ele>-3.82</ele>
        <time>2013-11-17T10:50:20Z</time>
      </trkpt>
      <trkpt lat="47.30887" lon="-1.32175">
        <ele>-4.03</ele>
        <time>2013-11-17T10:50:27Z</time>
      </trkpt>
      <trkpt lat="47.30889" lon="-1.32146">
        <ele>-4.38</ele>
        <time>2013-11-17T10:50:36Z</time>
      </trkpt>
      <trkpt lat="47.30898" lon="-1.32122">
        <ele>-2.16</ele>
        <time>2013-11-17T10:50:45Z</time>
      </trkpt>
      <trkpt lat="47.30913" lon="-1.32099">
        <ele>-1.33</ele>
        <time>2013-11-17T10:50:52Z</time>
      </trkpt>
      <trkpt lat="47.30926" lon="-1.32077">
        <ele>-0.41</ele>
        <time>2013-11-17T10:51:00Z</time>
      </trkpt>
      <trkpt lat="47.3094" lon="-1.32057">
        <ele>0.62</ele>
        <time>2013-11-17T10:51:07Z</time>
      </trkpt>
      <trkpt lat="47.30954" lon="-1.32039">
        <ele>0.71</ele>
        <time>2013-11-17T10:51:13Z</time>
      </trkpt>
      <trkpt lat="47.30973" lon="-1.3204">
        <ele>2.44</ele>
        <time>2013-11-17T10:51:23Z</time>
      </trkpt>
      <trkpt lat="47.30989" lon="-1.32055">
        <ele>2.18</ele>
        <time>2013-11-17T10:51:29Z</time>
      </trkpt>
      <trkpt lat="47.31005" lon="-1.32068">
        <ele>1.52</ele>
        <time>2013-11-17T10:51:35Z</time>
      </trkpt>
      <trkpt lat="47.31023" lon="-1.32083">
        <ele>0.76</ele>
        <time>2013-11-17T10:51:41Z</time>
      </trkpt>
      <trkpt lat="47.31038" lon="-1.321">
        <ele>0.27</ele>
        <time>2013-11-17T10:51:46Z</time>
      </trkpt>
      <trkpt lat="47.31054" lon="-1.32115">
        <ele>-0.63</ele>
        <time>2013-11-17T10:51:51Z</time>
      </trkpt>
      <trkpt lat="47.31072" lon="-1.32124">
        <ele>-1.03</ele>
        <time>2013-11-17T10:51:57Z</time>
      </trkpt>
      <trkpt lat="47.3109" lon="-1.32135">
        <ele>0.33</ele>
        <time>2013-11-17T10:52:02Z</time>
      </trkpt>
      <trkpt lat="47.31106" lon="-1.32123">
        <ele>6.58</ele>
        <time>2013-11-17T10:52:10Z</time>
      </trkpt>
      <trkpt lat="47.31123" lon="-1.32102">
        <ele>9.62</ele>
        <time>2013-11-17T10:52:18Z</time>
      </trkpt>
      <trkpt lat="47.31137" lon="-1.32079">
        <ele>8.56</ele>
        <time>2013-11-17T10:52:24Z</time>
      </trkpt>
      <trkpt lat="47.31144" lon="-1.32054">
        <ele>5.67</ele>
        <time>2013-11-17T10:52:30Z</time>
      </trkpt>
      <trkpt lat="47.3115" lon="-1.32028">
        <ele>3.44</ele>
        <time>2013-11-17T10:52:42Z</time>
      </trkpt>
      <trkpt lat="47.31142" lon="-1.32003">
        <ele>5.36</ele>
        <time>2013-11-17T10:52:54Z</time>
      </trkpt>
      <trkpt lat="47.31129" lon="-1.31984">
        <ele>6.31</ele>
        <time>2013-11-17T10:53:05Z</time>
      </trkpt>
      <trkpt lat="47.31123" lon="-1.31959">
        <ele>7.71</ele>
        <time>2013-11-17T10:53:12Z</time>
      </trkpt>
      <trkpt lat="47.3111" lon="-1.31932">
        <ele>9.78</ele>
        <time>2013-11-17T10:53:19Z</time>
      </trkpt>
      <trkpt lat="47.31095" lon="-1.31918">
        <ele>11.58</ele>
        <time>2013-11-17T10:53:25Z</time>
      </trkpt>
      <trkpt lat="47.31077" lon="-1.31935">
        <ele>13.54</ele>
        <time>2013-11-17T10:53:30Z</time>
      </trkpt>
      <trkpt lat="47.31057" lon="-1.31924">
        <ele>15.02</ele>
        <time>2013-11-17T10:53:35Z</time>
      </trkpt>
      <trkpt lat="47.31041" lon="-1.31905">
        <ele>17.12</ele>
        <time>2013-11-17T10:53:41Z</time>
      </trkpt>
      <trkpt lat="47.31026" lon="-1.31888">
        <ele>19.16</ele>
        <time>2013-11-17T10:53:48Z</time>
      </trkpt>
      <trkpt lat="47.31018" lon="-1.31862">
        <ele>19.39</ele>
        <time>2013-11-17T10:53:58Z</time>
      </trkpt>
    </trkseg>
  </trk>
</gpx>